PWSweather.com
Personal Weather Stations
Station Observations
OPENSRS
Liberty Village, Toronto, ON M6K 3M1

Liberty VillageToronto, ON M6K 3M1

Lat: 43.63831, Lon: -79.42566

Elevation: 303

Station Type: Davis Instruments Vantage Pro 2

Latest ConditionsUpdated 11:55:06 PM EDT Wednesday, Apr 16, 2014
Currently Today's Max Today's Min Today's Average
Temperature 35.8°F2.1°C 39.4°F4.1°C 24.2°F-4.3°C 31.6°F-0.2°C
Dew Point 27.3°F-2.6°C 27.4°F-2.6°C 12.2°F-11.0°C 20.0°F-6.7°C
Winds 1.0 mph S1.6 kmh S 14.0 mph S22.5 kmh S - 4.4 mph 7.1 kmh
Wind Gusts 5.0 mph8.0 kmh 19.0 mph30.6 kmh - -
Humidity 71% 71% 54% 62%
Pressure 30.55 in1034.5 mb 30.57 in1035.2 mb 30.21 in1023.0 mb -
Hour Temp Dew Point Humidity Winds Wind Gusts Pressure Precip Precip Rate Daily Precip Total
11:55 PM 35.8°F2.1°C 27.3°F-2.6°C 71% 1.0 mph S1.6 kmh S 5.0 mph8.0 kmh 30.55 in1034.5 mb 0.00 in0.0 mm 0.00 in/hr0.0 mm/hr 0.00 in0.0 mm
11:54 PM 35.8°F2.1°C 27.3°F-2.6°C 71% Calm Calm 5.0 mph8.0 kmh 30.55 in1034.5 mb 0.00 in0.0 mm 0.00 in/hr0.0 mm/hr 0.00 in0.0 mm
11:53 PM 35.8°F2.1°C 27.3°F-2.6°C 71% 1.0 mph S1.6 kmh S 5.0 mph8.0 kmh 30.55 in1034.5 mb 0.00 in0.0 mm 0.00 in/hr0.0 mm/hr 0.00 in0.0 mm
11:50 PM 35.8°F2.1°C 27.0°F-2.8°C 70% 4.0 mph S6.4 kmh S 5.0 mph8.0 kmh 30.55 in1034.5 mb 0.00 in0.0 mm 0.00 in/hr0.0 mm/hr 0.00 in0.0 mm
11:49 PM 35.7°F2.1°C 26.9°F-2.8°C 70% Calm Calm 5.0 mph8.0 kmh 30.55 in1034.5 mb 0.00 in0.0 mm 0.00 in/hr0.0 mm/hr 0.00 in0.0 mm
11:48 PM 35.8°F2.1°C 27.0°F-2.8°C 70% Calm Calm 5.0 mph8.0 kmh 30.55 in1034.5 mb 0.00 in0.0 mm 0.00 in/hr0.0 mm/hr 0.00 in0.0 mm
11:45 PM 35.7°F2.1°C 26.5°F-3.1°C 69% 2.0 mph S3.2 kmh S 4.0 mph6.4 kmh 30.55 in1034.5 mb 0.00 in0.0 mm 0.00 in/hr0.0 mm/hr 0.00 in0.0 mm
11:44 PM 35.7°F2.1°C 26.5°F-3.1°C 69% 2.0 mph S3.2 kmh S 4.0 mph6.4 kmh 30.55 in1034.5 mb 0.00 in0.0 mm 0.00 in/hr0.0 mm/hr 0.00 in0.0 mm
11:43 PM 35.7°F2.1°C 26.5°F-3.1°C 69% 1.0 mph S1.6 kmh S 4.0 mph6.4 kmh 30.55 in1034.5 mb 0.00 in0.0 mm 0.00 in/hr0.0 mm/hr 0.00 in0.0 mm
11:40 PM 35.7°F2.1°C 26.5°F-3.1°C 69% 2.0 mph S3.2 kmh S 4.0 mph6.4 kmh 30.55 in1034.5 mb 0.00 in0.0 mm 0.00 in/hr0.0 mm/hr 0.00 in0.0 mm
11:39 PM 35.8°F2.1°C 26.6°F-3.0°C 69% 2.0 mph S3.2 kmh S 4.0 mph6.4 kmh 30.55 in1034.5 mb 0.00 in0.0 mm 0.00 in/hr0.0 mm/hr 0.00 in0.0 mm
11:38 PM 35.8°F2.1°C 26.6°F-3.0°C 69% 1.0 mph S1.6 kmh S 4.0 mph6.4 kmh 30.55 in1034.5 mb 0.00 in0.0 mm 0.00 in/hr0.0 mm/hr 0.00 in0.0 mm
11:35 PM 35.8°F2.1°C 26.3°F-3.2°C 68% Calm Calm 4.0 mph6.4 kmh 30.55 in1034.5 mb 0.00 in0.0 mm 0.00 in/hr0.0 mm/hr 0.00 in0.0 mm
11:34 PM 35.8°F2.1°C 26.3°F-3.2°C 68% Calm Calm 4.0 mph6.4 kmh 30.55 in1034.5 mb 0.00 in0.0 mm 0.00 in/hr0.0 mm/hr 0.00 in0.0 mm
11:33 PM 35.8°F2.1°C 26.3°F-3.2°C 68% Calm Calm 4.0 mph6.4 kmh 30.55 in1034.5 mb 0.00 in0.0 mm 0.00 in/hr0.0 mm/hr 0.00 in0.0 mm
11:30 PM 35.8°F2.1°C 26.3°F-3.2°C 68% 1.0 mph S1.6 kmh S 4.0 mph6.4 kmh 30.56 in1034.9 mb 0.00 in0.0 mm 0.00 in/hr0.0 mm/hr 0.00 in0.0 mm
11:29 PM 35.9°F2.2°C 26.4°F-3.1°C 68% 2.0 mph S3.2 kmh S 4.0 mph6.4 kmh 30.55 in1034.5 mb 0.00 in0.0 mm 0.00 in/hr0.0 mm/hr 0.00 in0.0 mm
11:28 PM 35.9°F2.2°C 26.0°F-3.3°C 67% 1.0 mph S1.6 kmh S 4.0 mph6.4 kmh 30.56 in1034.9 mb 0.00 in0.0 mm 0.00 in/hr0.0 mm/hr 0.00 in0.0 mm
11:25 PM 36.0°F2.2°C 26.1°F-3.3°C 67% 1.0 mph S1.6 kmh S 4.0 mph6.4 kmh 30.55 in1034.5 mb 0.00 in0.0 mm 0.00 in/hr0.0 mm/hr 0.00 in0.0 mm
11:24 PM 36.0°F2.2°C 26.1°F-3.3°C 67% 1.0 mph S1.6 kmh S 4.0 mph6.4 kmh 30.55 in1034.5 mb 0.00 in0.0 mm 0.00 in/hr0.0 mm/hr 0.00 in0.0 mm
11:23 PM 36.1°F2.3°C 25.9°F-3.4°C 66% 1.0 mph S1.6 kmh S 4.0 mph6.4 kmh 30.55 in1034.5 mb 0.00 in0.0 mm 0.00 in/hr0.0 mm/hr 0.00 in0.0 mm
11:20 PM 36.2°F2.3°C 26.0°F-3.3°C 66% 1.0 mph S1.6 kmh S 4.0 mph6.4 kmh 30.55 in1034.5 mb 0.00 in0.0 mm 0.00 in/hr0.0 mm/hr 0.00 in0.0 mm
11:19 PM 36.2°F2.3°C 26.0°F-3.3°C 66% 1.0 mph S1.6 kmh S 4.0 mph6.4 kmh 30.55 in1034.5 mb 0.00 in0.0 mm 0.00 in/hr0.0 mm/hr 0.00 in0.0 mm
11:18 PM 36.2°F2.3°C 26.0°F-3.3°C 66% 2.0 mph S3.2 kmh S 2.0 mph3.2 kmh 30.55 in1034.5 mb 0.00 in0.0 mm 0.00 in/hr0.0 mm/hr 0.00 in0.0 mm
11:15 PM 36.2°F2.3°C 25.6°F-3.6°C 65% Calm Calm 2.0 mph3.2 kmh 30.55 in1034.5 mb 0.00 in0.0 mm 0.00 in/hr0.0 mm/hr 0.00 in0.0 mm
11:14 PM 36.2°F2.3°C 26.0°F-3.3°C 66% Calm Calm 2.0 mph3.2 kmh 30.55 in1034.5 mb 0.00 in0.0 mm 0.00 in/hr0.0 mm/hr 0.00 in0.0 mm
11:13 PM 36.2°F2.3°C 26.0°F-3.3°C 66% 1.0 mph S1.6 kmh S 2.0 mph3.2 kmh 30.55 in1034.5 mb 0.00 in0.0 mm 0.00 in/hr0.0 mm/hr 0.00 in0.0 mm
11:10 PM 36.2°F2.3°C 25.6°F-3.6°C 65% Calm Calm 2.0 mph3.2 kmh 30.55 in1034.5 mb 0.00 in0.0 mm 0.00 in/hr0.0 mm/hr 0.00 in0.0 mm
11:09 PM 36.2°F2.3°C 25.6°F-3.6°C 65% 1.0 mph S1.6 kmh S 2.0 mph3.2 kmh 30.55 in1034.5 mb 0.00 in0.0 mm 0.00 in/hr0.0 mm/hr 0.00 in0.0 mm
11:08 PM 36.2°F2.3°C 25.6°F-3.6°C 65% 2.0 mph S3.2 kmh S 2.0 mph3.2 kmh 30.55 in1034.5 mb 0.00 in0.0 mm 0.00 in/hr0.0 mm/hr 0.00 in0.0 mm
11:05 PM 36.2°F2.3°C 26.0°F-3.3°C 66% Calm Calm 2.0 mph3.2 kmh 30.55 in1034.5 mb 0.00 in0.0 mm 0.00 in/hr0.0 mm/hr 0.00 in0.0 mm
11:04 PM 36.2°F2.3°C 25.6°F-3.6°C 65% Calm Calm 1.0 mph1.6 kmh 30.55 in1034.5 mb 0.00 in0.0 mm 0.00 in/hr0.0 mm/hr 0.00 in0.0 mm
11:03 PM 36.2°F2.3°C 26.0°F-3.3°C 66% 1.0 mph S1.6 kmh S 1.0 mph1.6 kmh 30.55 in1034.5 mb 0.00 in0.0 mm 0.00 in/hr0.0 mm/hr 0.00 in0.0 mm
11:00 PM 36.0°F2.2°C 25.8°F-3.4°C 66% Calm Calm -- 30.55 in1034.5 mb 0.00 in0.0 mm 0.00 in/hr0.0 mm/hr 0.00 in0.0 mm
10:59 PM 36.0°F2.2°C 25.8°F-3.4°C 66% Calm Calm 6.0 mph9.7 kmh 30.55 in1034.5 mb 0.00 in0.0 mm 0.00 in/hr0.0 mm/hr 0.00 in0.0 mm
10:58 PM 36.0°F2.2°C 25.8°F-3.4°C 66% Calm Calm 6.0 mph9.7 kmh 30.55 in1034.5 mb 0.00 in0.0 mm 0.00 in/hr0.0 mm/hr 0.00 in0.0 mm
10:55 PM 35.9°F2.2°C 25.7°F-3.5°C 66% Calm Calm 6.0 mph9.7 kmh 30.55 in1034.5 mb 0.00 in0.0 mm 0.00 in/hr0.0 mm/hr 0.00 in0.0 mm
10:54 PM 35.9°F2.2°C 25.7°F-3.5°C 66% Calm Calm 6.0 mph9.7 kmh 30.56 in1034.9 mb 0.00 in0.0 mm 0.00 in/hr0.0 mm/hr 0.00 in0.0 mm
10:53 PM 35.9°F2.2°C 25.7°F-3.5°C 66% Calm Calm 6.0 mph9.7 kmh 30.56 in1034.9 mb 0.00 in0.0 mm 0.00 in/hr0.0 mm/hr 0.00 in0.0 mm
10:50 PM 35.9°F2.2°C 26.0°F-3.3°C 67% 1.0 mph S1.6 kmh S 6.0 mph9.7 kmh 30.56 in1034.9 mb 0.00 in0.0 mm 0.00 in/hr0.0 mm/hr 0.00 in0.0 mm
10:49 PM 36.0°F2.2°C 26.1°F-3.3°C 67% 1.0 mph S1.6 kmh S 6.0 mph9.7 kmh 30.56 in1034.9 mb 0.00 in0.0 mm 0.00 in/hr0.0 mm/hr 0.00 in0.0 mm
10:48 PM 36.0°F2.2°C 26.5°F-3.1°C 68% 1.0 mph S1.6 kmh S 6.0 mph9.7 kmh 30.56 in1034.9 mb 0.00 in0.0 mm 0.00 in/hr0.0 mm/hr 0.00 in0.0 mm
10:45 PM 36.0°F2.2°C 26.5°F-3.1°C 68% Calm Calm 6.0 mph9.7 kmh 30.56 in1034.9 mb 0.00 in0.0 mm 0.00 in/hr0.0 mm/hr 0.00 in0.0 mm
10:44 PM 35.9°F2.2°C 26.4°F-3.1°C 68% Calm Calm 6.0 mph9.7 kmh 30.56 in1034.9 mb 0.00 in0.0 mm 0.00 in/hr0.0 mm/hr 0.00 in0.0 mm
10:43 PM 36.0°F2.2°C 26.5°F-3.1°C 68% Calm Calm 6.0 mph9.7 kmh 30.56 in1034.9 mb 0.00 in0.0 mm 0.00 in/hr0.0 mm/hr 0.00 in0.0 mm
10:40 PM 36.0°F2.2°C 26.5°F-3.1°C 68% Calm Calm 6.0 mph9.7 kmh 30.56 in1034.9 mb 0.00 in0.0 mm 0.00 in/hr0.0 mm/hr 0.00 in0.0 mm
10:39 PM 36.0°F2.2°C 26.5°F-3.1°C 68% 1.0 mph S1.6 kmh S 6.0 mph9.7 kmh 30.56 in1034.9 mb 0.00 in0.0 mm 0.00 in/hr0.0 mm/hr 0.00 in0.0 mm
10:38 PM 36.0°F2.2°C 26.5°F-3.1°C 68% 1.0 mph S1.6 kmh S 6.0 mph9.7 kmh 30.56 in1034.9 mb 0.00 in0.0 mm 0.00 in/hr0.0 mm/hr 0.00 in0.0 mm
10:35 PM 36.1°F2.3°C 26.6°F-3.0°C 68% 2.0 mph S3.2 kmh S 6.0 mph9.7 kmh 30.56 in1034.9 mb 0.00 in0.0 mm 0.00 in/hr0.0 mm/hr 0.00 in0.0 mm
10:34 PM 36.0°F2.2°C 26.5°F-3.1°C 68% 1.0 mph S1.6 kmh S 6.0 mph9.7 kmh 30.57 in1035.2 mb 0.00 in0.0 mm 0.00 in/hr0.0 mm/hr 0.00 in0.0 mm
10:33 PM 36.1°F2.3°C 26.6°F-3.0°C 68% 2.0 mph S3.2 kmh S 6.0 mph9.7 kmh 30.56 in1034.9 mb 0.00 in0.0 mm 0.00 in/hr0.0 mm/hr 0.00 in0.0 mm
10:30 PM 36.1°F2.3°C 26.6°F-3.0°C 68% 2.0 mph S3.2 kmh S 6.0 mph9.7 kmh 30.57 in1035.2 mb 0.00 in0.0 mm 0.00 in/hr0.0 mm/hr 0.00 in0.0 mm
10:29 PM 36.1°F2.3°C 26.6°F-3.0°C 68% 1.0 mph S1.6 kmh S 6.0 mph9.7 kmh 30.56 in1034.9 mb 0.00 in0.0 mm 0.00 in/hr0.0 mm/hr 0.00 in0.0 mm
10:28 PM 36.1°F2.3°C 26.6°F-3.0°C 68% 1.0 mph S1.6 kmh S 6.0 mph9.7 kmh 30.56 in1034.9 mb 0.00 in0.0 mm 0.00 in/hr0.0 mm/hr 0.00 in0.0 mm
10:25 PM 36.0°F2.2°C 26.5°F-3.1°C 68% Calm Calm 6.0 mph9.7 kmh 30.57 in1035.2 mb 0.00 in0.0 mm 0.00 in/hr0.0 mm/hr 0.00 in0.0 mm
10:24 PM 36.0°F2.2°C 26.5°F-3.1°C 68% 1.0 mph S1.6 kmh S 6.0 mph9.7 kmh 30.57 in1035.2 mb 0.00 in0.0 mm 0.00 in/hr0.0 mm/hr 0.00 in0.0 mm
10:23 PM 36.0°F2.2°C 26.5°F-3.1°C 68% 1.0 mph S1.6 kmh S 6.0 mph9.7 kmh 30.57 in1035.2 mb 0.00 in0.0 mm 0.00 in/hr0.0 mm/hr 0.00 in0.0 mm
10:20 PM 36.0°F2.2°C 26.5°F-3.1°C 68% Calm Calm 6.0 mph9.7 kmh 30.56 in1034.9 mb 0.00 in0.0 mm 0.00 in/hr0.0 mm/hr 0.00 in0.0 mm
10:19 PM 35.9°F2.2°C 26.4°F-3.1°C 68% 2.0 mph S3.2 kmh S 6.0 mph9.7 kmh 30.57 in1035.2 mb 0.00 in0.0 mm 0.00 in/hr0.0 mm/hr 0.00 in0.0 mm
10:18 PM 35.9°F2.2°C 26.4°F-3.1°C 68% 2.0 mph S3.2 kmh S 6.0 mph9.7 kmh 30.56 in1034.9 mb 0.00 in0.0 mm 0.00 in/hr0.0 mm/hr 0.00 in0.0 mm
10:15 PM 35.9°F2.2°C 26.4°F-3.1°C 68% Calm Calm 6.0 mph9.7 kmh 30.56 in1034.9 mb 0.00 in0.0 mm 0.00 in/hr0.0 mm/hr 0.00 in0.0 mm
10:14 PM 35.9°F2.2°C 26.4°F-3.1°C 68% 2.0 mph S3.2 kmh S 6.0 mph9.7 kmh 30.56 in1034.9 mb 0.00 in0.0 mm 0.00 in/hr0.0 mm/hr 0.00 in0.0 mm
10:13 PM 35.9°F2.2°C 26.4°F-3.1°C 68% 2.0 mph S3.2 kmh S 6.0 mph9.7 kmh 30.57 in1035.2 mb 0.00 in0.0 mm 0.00 in/hr0.0 mm/hr 0.00 in0.0 mm
10:10 PM 35.9°F2.2°C 26.4°F-3.1°C 68% 4.0 mph S6.4 kmh S 5.0 mph8.0 kmh 30.57 in1035.2 mb 0.00 in0.0 mm 0.00 in/hr0.0 mm/hr 0.00 in0.0 mm
10:09 PM 35.9°F2.2°C 26.4°F-3.1°C 68% 4.0 mph S6.4 kmh S 5.0 mph8.0 kmh 30.56 in1034.9 mb 0.00 in0.0 mm 0.00 in/hr0.0 mm/hr 0.00 in0.0 mm
10:08 PM 35.9°F2.2°C 26.4°F-3.1°C 68% 2.0 mph S3.2 kmh S 5.0 mph8.0 kmh 30.57 in1035.2 mb 0.00 in0.0 mm 0.00 in/hr0.0 mm/hr 0.00 in0.0 mm
10:05 PM 35.9°F2.2°C 26.4°F-3.1°C 68% 1.0 mph S1.6 kmh S 5.0 mph8.0 kmh 30.56 in1034.9 mb 0.00 in0.0 mm 0.00 in/hr0.0 mm/hr 0.00 in0.0 mm
10:04 PM 35.9°F2.2°C 26.4°F-3.1°C 68% 2.0 mph S3.2 kmh S 5.0 mph8.0 kmh 30.56 in1034.9 mb 0.00 in0.0 mm 0.00 in/hr0.0 mm/hr 0.00 in0.0 mm
10:03 PM 35.9°F2.2°C 26.4°F-3.1°C 68% Calm Calm 5.0 mph8.0 kmh 30.56 in1034.9 mb 0.00 in0.0 mm 0.00 in/hr0.0 mm/hr 0.00 in0.0 mm
10:00 PM 35.9°F2.2°C 26.0°F-3.3°C 67% Calm Calm -- 30.56 in1034.9 mb 0.00 in0.0 mm 0.00 in/hr0.0 mm/hr 0.00 in0.0 mm
09:59 PM 35.9°F2.2°C 26.0°F-3.3°C 67% 1.0 mph S1.6 kmh S 10.0 mph16.1 kmh 30.56 in1034.9 mb 0.00 in0.0 mm 0.00 in/hr0.0 mm/hr 0.00 in0.0 mm
09:58 PM 35.9°F2.2°C 26.0°F-3.3°C 67% 2.0 mph S3.2 kmh S 10.0 mph16.1 kmh 30.56 in1034.9 mb 0.00 in0.0 mm 0.00 in/hr0.0 mm/hr 0.00 in0.0 mm
09:55 PM 35.9°F2.2°C 26.0°F-3.3°C 67% 4.0 mph S6.4 kmh S 10.0 mph16.1 kmh 30.56 in1034.9 mb 0.00 in0.0 mm 0.00 in/hr0.0 mm/hr 0.00 in0.0 mm
09:54 PM 35.9°F2.2°C 26.0°F-3.3°C 67% 2.0 mph S3.2 kmh S 10.0 mph16.1 kmh 30.56 in1034.9 mb 0.00 in0.0 mm 0.00 in/hr0.0 mm/hr 0.00 in0.0 mm
09:53 PM 35.9°F2.2°C 26.0°F-3.3°C 67% 2.0 mph S3.2 kmh S 10.0 mph16.1 kmh 30.56 in1034.9 mb 0.00 in0.0 mm 0.00 in/hr0.0 mm/hr 0.00 in0.0 mm
09:50 PM 35.9°F2.2°C 26.0°F-3.3°C 67% 1.0 mph S1.6 kmh S 10.0 mph16.1 kmh 30.56 in1034.9 mb 0.00 in0.0 mm 0.00 in/hr0.0 mm/hr 0.00 in0.0 mm
09:49 PM 35.9°F2.2°C 26.0°F-3.3°C 67% 4.0 mph S6.4 kmh S 10.0 mph16.1 kmh 30.56 in1034.9 mb 0.00 in0.0 mm 0.00 in/hr0.0 mm/hr 0.00 in0.0 mm
09:48 PM 35.9°F2.2°C 26.0°F-3.3°C 67% 1.0 mph S1.6 kmh S 10.0 mph16.1 kmh 30.56 in1034.9 mb 0.00 in0.0 mm 0.00 in/hr0.0 mm/hr 0.00 in0.0 mm
09:45 PM 36.0°F2.2°C 26.1°F-3.3°C 67% 1.0 mph S1.6 kmh S 10.0 mph16.1 kmh 30.56 in1034.9 mb 0.00 in0.0 mm 0.00 in/hr0.0 mm/hr 0.00 in0.0 mm
09:44 PM 36.0°F2.2°C 26.1°F-3.3°C 67% 6.0 mph S9.7 kmh S 10.0 mph16.1 kmh 30.56 in1034.9 mb 0.00 in0.0 mm 0.00 in/hr0.0 mm/hr 0.00 in0.0 mm
09:43 PM 36.0°F2.2°C 26.1°F-3.3°C 67% 5.0 mph S8.0 kmh S 10.0 mph16.1 kmh 30.56 in1034.9 mb 0.00 in0.0 mm 0.00 in/hr0.0 mm/hr 0.00 in0.0 mm
09:40 PM 36.0°F2.2°C 26.1°F-3.3°C 67% 1.0 mph S1.6 kmh S 10.0 mph16.1 kmh 30.55 in1034.5 mb 0.00 in0.0 mm 0.00 in/hr0.0 mm/hr 0.00 in0.0 mm
09:39 PM 36.0°F2.2°C 26.1°F-3.3°C 67% 1.0 mph S1.6 kmh S 10.0 mph16.1 kmh 30.55 in1034.5 mb 0.00 in0.0 mm 0.00 in/hr0.0 mm/hr 0.00 in0.0 mm
09:38 PM 36.0°F2.2°C 26.1°F-3.3°C 67% 2.0 mph S3.2 kmh S 10.0 mph16.1 kmh 30.55 in1034.5 mb 0.00 in0.0 mm 0.00 in/hr0.0 mm/hr 0.00 in0.0 mm
09:35 PM 36.0°F2.2°C 26.5°F-3.1°C 68% 4.0 mph S6.4 kmh S 10.0 mph16.1 kmh 30.55 in1034.5 mb 0.00 in0.0 mm 0.00 in/hr0.0 mm/hr 0.00 in0.0 mm
09:34 PM 36.0°F2.2°C 26.5°F-3.1°C 68% 2.0 mph S3.2 kmh S 10.0 mph16.1 kmh 30.55 in1034.5 mb 0.00 in0.0 mm 0.00 in/hr0.0 mm/hr 0.00 in0.0 mm
09:33 PM 36.0°F2.2°C 26.5°F-3.1°C 68% 1.0 mph S1.6 kmh S 10.0 mph16.1 kmh 30.55 in1034.5 mb 0.00 in0.0 mm 0.00 in/hr0.0 mm/hr 0.00 in0.0 mm
09:30 PM 36.0°F2.2°C 26.5°F-3.1°C 68% 4.0 mph S6.4 kmh S 10.0 mph16.1 kmh 30.55 in1034.5 mb 0.00 in0.0 mm 0.00 in/hr0.0 mm/hr 0.00 in0.0 mm
09:29 PM 36.0°F2.2°C 26.5°F-3.1°C 68% 4.0 mph S6.4 kmh S 10.0 mph16.1 kmh 30.55 in1034.5 mb 0.00 in0.0 mm 0.00 in/hr0.0 mm/hr 0.00 in0.0 mm
09:28 PM 36.0°F2.2°C 26.5°F-3.1°C 68% 5.0 mph S8.0 kmh S 10.0 mph16.1 kmh 30.55 in1034.5 mb 0.00 in0.0 mm 0.00 in/hr0.0 mm/hr 0.00 in0.0 mm
09:25 PM 36.0°F2.2°C 26.5°F-3.1°C 68% 2.0 mph S3.2 kmh S 10.0 mph16.1 kmh 30.55 in1034.5 mb 0.00 in0.0 mm 0.00 in/hr0.0 mm/hr 0.00 in0.0 mm
09:24 PM 36.0°F2.2°C 26.5°F-3.1°C 68% 2.0 mph S3.2 kmh S 10.0 mph16.1 kmh 30.55 in1034.5 mb 0.00 in0.0 mm 0.00 in/hr0.0 mm/hr 0.00 in0.0 mm
09:23 PM 36.0°F2.2°C 26.5°F-3.1°C 68% 2.0 mph S3.2 kmh S 10.0 mph16.1 kmh 30.55 in1034.5 mb 0.00 in0.0 mm 0.00 in/hr0.0 mm/hr 0.00 in0.0 mm
09:20 PM 36.0°F2.2°C 26.5°F-3.1°C 68% 2.0 mph S3.2 kmh S 10.0 mph16.1 kmh 30.55 in1034.5 mb 0.00 in0.0 mm 0.00 in/hr0.0 mm/hr 0.00 in0.0 mm
09:19 PM 36.0°F2.2°C 26.5°F-3.1°C 68% 4.0 mph S6.4 kmh S 10.0 mph16.1 kmh 30.55 in1034.5 mb 0.00 in0.0 mm 0.00 in/hr0.0 mm/hr 0.00 in0.0 mm
09:18 PM 36.0°F2.2°C 26.5°F-3.1°C 68% 1.0 mph S1.6 kmh S 10.0 mph16.1 kmh 30.55 in1034.5 mb 0.00 in0.0 mm 0.00 in/hr0.0 mm/hr 0.00 in0.0 mm
09:15 PM 36.0°F2.2°C 26.5°F-3.1°C 68% 4.0 mph S6.4 kmh S 10.0 mph16.1 kmh 30.55 in1034.5 mb 0.00 in0.0 mm 0.00 in/hr0.0 mm/hr 0.00 in0.0 mm
09:14 PM 36.0°F2.2°C 26.5°F-3.1°C 68% 4.0 mph S6.4 kmh S 10.0 mph16.1 kmh 30.55 in1034.5 mb 0.00 in0.0 mm 0.00 in/hr0.0 mm/hr 0.00 in0.0 mm
09:13 PM 36.0°F2.2°C 26.8°F-2.9°C 69% 4.0 mph S6.4 kmh S 10.0 mph16.1 kmh 30.55 in1034.5 mb 0.00 in0.0 mm 0.00 in/hr0.0 mm/hr 0.00 in0.0 mm
09:10 PM 36.0°F2.2°C 26.8°F-2.9°C 69% 2.0 mph S3.2 kmh S 10.0 mph16.1 kmh 30.55 in1034.5 mb 0.00 in0.0 mm 0.00 in/hr0.0 mm/hr 0.00 in0.0 mm
09:09 PM 36.1°F2.3°C 26.9°F-2.8°C 69% 4.0 mph S6.4 kmh S 10.0 mph16.1 kmh 30.55 in1034.5 mb 0.00 in0.0 mm 0.00 in/hr0.0 mm/hr 0.00 in0.0 mm
09:08 PM 36.1°F2.3°C 26.9°F-2.8°C 69% 2.0 mph S3.2 kmh S 10.0 mph16.1 kmh 30.55 in1034.5 mb 0.00 in0.0 mm 0.00 in/hr0.0 mm/hr 0.00 in0.0 mm
09:05 PM 36.1°F2.3°C 26.9°F-2.8°C 69% 5.0 mph S8.0 kmh S 10.0 mph16.1 kmh 30.55 in1034.5 mb 0.00 in0.0 mm 0.00 in/hr0.0 mm/hr 0.00 in0.0 mm
09:04 PM 36.1°F2.3°C 26.9°F-2.8°C 69% 5.0 mph S8.0 kmh S 10.0 mph16.1 kmh 30.55 in1034.5 mb 0.00 in0.0 mm 0.00 in/hr0.0 mm/hr 0.00 in0.0 mm
09:03 PM 36.1°F2.3°C 26.9°F-2.8°C 69% 5.0 mph S8.0 kmh S 10.0 mph16.1 kmh 30.54 in1034.2 mb 0.00 in0.0 mm 0.00 in/hr0.0 mm/hr 0.00 in0.0 mm
09:00 PM 36.1°F2.3°C 26.9°F-2.8°C 69% 7.0 mph S11.3 kmh S 7.0 mph11.3 kmh 30.55 in1034.5 mb 0.00 in0.0 mm 0.00 in/hr0.0 mm/hr 0.00 in0.0 mm
08:59 PM 36.1°F2.3°C 26.9°F-2.8°C 69% 5.0 mph S8.0 kmh S 11.0 mph17.7 kmh 30.55 in1034.5 mb 0.00 in0.0 mm 0.00 in/hr0.0 mm/hr 0.00 in0.0 mm
08:58 PM 36.1°F2.3°C 26.9°F-2.8°C 69% 5.0 mph S8.0 kmh S 11.0 mph17.7 kmh 30.55 in1034.5 mb 0.00 in0.0 mm 0.00 in/hr0.0 mm/hr 0.00 in0.0 mm
08:55 PM 36.1°F2.3°C 26.9°F-2.8°C 69% 1.0 mph S1.6 kmh S 11.0 mph17.7 kmh 30.54 in1034.2 mb 0.00 in0.0 mm 0.00 in/hr0.0 mm/hr 0.00 in0.0 mm
08:54 PM 36.1°F2.3°C 26.9°F-2.8°C 69% 1.0 mph S1.6 kmh S 11.0 mph17.7 kmh 30.54 in1034.2 mb 0.00 in0.0 mm 0.00 in/hr0.0 mm/hr 0.00 in0.0 mm
08:53 PM 36.1°F2.3°C 26.6°F-3.0°C 68% 2.0 mph S3.2 kmh S 11.0 mph17.7 kmh 30.54 in1034.2 mb 0.00 in0.0 mm 0.00 in/hr0.0 mm/hr 0.00 in0.0 mm
08:50 PM 36.1°F2.3°C 26.6°F-3.0°C 68% 2.0 mph S3.2 kmh S 11.0 mph17.7 kmh 30.54 in1034.2 mb 0.00 in0.0 mm 0.00 in/hr0.0 mm/hr 0.00 in0.0 mm
08:49 PM 36.1°F2.3°C 26.6°F-3.0°C 68% 10.0 mph S16.1 kmh S 10.0 mph16.1 kmh 30.54 in1034.2 mb 0.00 in0.0 mm 0.00 in/hr0.0 mm/hr 0.00 in0.0 mm
08:48 PM 36.1°F2.3°C 26.6°F-3.0°C 68% 5.0 mph S8.0 kmh S 10.0 mph16.1 kmh 30.54 in1034.2 mb 0.00 in0.0 mm 0.00 in/hr0.0 mm/hr 0.00 in0.0 mm
08:45 PM 36.1°F2.3°C 26.6°F-3.0°C 68% 5.0 mph S8.0 kmh S 10.0 mph16.1 kmh 30.54 in1034.2 mb 0.00 in0.0 mm 0.00 in/hr0.0 mm/hr 0.00 in0.0 mm
08:44 PM 36.0°F2.2°C 26.5°F-3.1°C 68% 5.0 mph S8.0 kmh S 10.0 mph16.1 kmh 30.54 in1034.2 mb 0.00 in0.0 mm 0.00 in/hr0.0 mm/hr 0.00 in0.0 mm
08:43 PM 36.0°F2.2°C 26.5°F-3.1°C 68% 4.0 mph S6.4 kmh S 10.0 mph16.1 kmh 30.54 in1034.2 mb 0.00 in0.0 mm 0.00 in/hr0.0 mm/hr 0.00 in0.0 mm
08:40 PM 36.0°F2.2°C 26.5°F-3.1°C 68% 4.0 mph S6.4 kmh S 10.0 mph16.1 kmh 30.54 in1034.2 mb 0.00 in0.0 mm 0.00 in/hr0.0 mm/hr 0.00 in0.0 mm
08:39 PM 36.0°F2.2°C 26.5°F-3.1°C 68% 6.0 mph S9.7 kmh S 10.0 mph16.1 kmh 30.54 in1034.2 mb 0.00 in0.0 mm 0.00 in/hr0.0 mm/hr 0.00 in0.0 mm
08:38 PM 36.0°F2.2°C 26.5°F-3.1°C 68% 6.0 mph S9.7 kmh S 10.0 mph16.1 kmh 30.54 in1034.2 mb 0.00 in0.0 mm 0.00 in/hr0.0 mm/hr 0.00 in0.0 mm
08:35 PM 36.1°F2.3°C 26.6°F-3.0°C 68% 7.0 mph S11.3 kmh S 10.0 mph16.1 kmh 30.54 in1034.2 mb 0.00 in0.0 mm 0.00 in/hr0.0 mm/hr 0.00 in0.0 mm
08:34 PM 36.1°F2.3°C 26.6°F-3.0°C 68% 4.0 mph S6.4 kmh S 10.0 mph16.1 kmh 30.53 in1033.9 mb 0.00 in0.0 mm 0.00 in/hr0.0 mm/hr 0.00 in0.0 mm
08:33 PM 36.1°F2.3°C 26.6°F-3.0°C 68% 2.0 mph S3.2 kmh S 10.0 mph16.1 kmh 30.53 in1033.9 mb 0.00 in0.0 mm 0.00 in/hr0.0 mm/hr 0.00 in0.0 mm
08:30 PM 36.1°F2.3°C 26.6°F-3.0°C 68% 2.0 mph S3.2 kmh S 10.0 mph16.1 kmh 30.53 in1033.9 mb 0.00 in0.0 mm 0.00 in/hr0.0 mm/hr 0.00 in0.0 mm
08:29 PM 36.1°F2.3°C 26.2°F-3.2°C 67% 1.0 mph S1.6 kmh S 10.0 mph16.1 kmh 30.53 in1033.9 mb 0.00 in0.0 mm 0.00 in/hr0.0 mm/hr 0.00 in0.0 mm
08:28 PM 36.1°F2.3°C 26.2°F-3.2°C 67% 5.0 mph S8.0 kmh S 10.0 mph16.1 kmh 30.53 in1033.9 mb 0.00 in0.0 mm 0.00 in/hr0.0 mm/hr 0.00 in0.0 mm
08:25 PM 36.2°F2.3°C 26.3°F-3.2°C 67% 2.0 mph S3.2 kmh S 10.0 mph16.1 kmh 30.53 in1033.9 mb 0.00 in0.0 mm 0.00 in/hr0.0 mm/hr 0.00 in0.0 mm
08:24 PM 36.2°F2.3°C 26.3°F-3.2°C 67% 4.0 mph S6.4 kmh S 10.0 mph16.1 kmh 30.53 in1033.9 mb 0.00 in0.0 mm 0.00 in/hr0.0 mm/hr 0.00 in0.0 mm
08:23 PM 36.2°F2.3°C 26.3°F-3.2°C 67% 4.0 mph S6.4 kmh S 10.0 mph16.1 kmh 30.53 in1033.9 mb 0.00 in0.0 mm 0.00 in/hr0.0 mm/hr 0.00 in0.0 mm
08:20 PM 36.3°F2.4°C 26.4°F-3.1°C 67% 6.0 mph S9.7 kmh S 10.0 mph16.1 kmh 30.53 in1033.9 mb 0.00 in0.0 mm 0.00 in/hr0.0 mm/hr 0.00 in0.0 mm
08:19 PM 36.3°F2.4°C 26.4°F-3.1°C 67% 2.0 mph S3.2 kmh S 10.0 mph16.1 kmh 30.53 in1033.9 mb 0.00 in0.0 mm 0.00 in/hr0.0 mm/hr 0.00 in0.0 mm
08:18 PM 36.3°F2.4°C 26.4°F-3.1°C 67% 10.0 mph S16.1 kmh S 10.0 mph16.1 kmh 30.53 in1033.9 mb 0.00 in0.0 mm 0.00 in/hr0.0 mm/hr 0.00 in0.0 mm
08:15 PM 36.4°F2.4°C 26.5°F-3.1°C 67% 5.0 mph S8.0 kmh S 9.0 mph14.5 kmh 30.53 in1033.9 mb 0.00 in0.0 mm 0.00 in/hr0.0 mm/hr 0.00 in0.0 mm
08:14 PM 36.5°F2.5°C 26.6°F-3.0°C 67% 4.0 mph S6.4 kmh S 9.0 mph14.5 kmh 30.53 in1033.9 mb 0.00 in0.0 mm 0.00 in/hr0.0 mm/hr 0.00 in0.0 mm
08:13 PM 36.5°F2.5°C 26.6°F-3.0°C 67% 1.0 mph S1.6 kmh S 9.0 mph14.5 kmh 30.52 in1033.5 mb 0.00 in0.0 mm 0.00 in/hr0.0 mm/hr 0.00 in0.0 mm
08:10 PM 36.4°F2.4°C 26.5°F-3.1°C 67% 2.0 mph S3.2 kmh S 9.0 mph14.5 kmh 30.52 in1033.5 mb 0.00 in0.0 mm 0.00 in/hr0.0 mm/hr 0.00 in0.0 mm
08:09 PM 36.4°F2.4°C 26.1°F-3.3°C 66% 4.0 mph S6.4 kmh S 9.0 mph14.5 kmh 30.52 in1033.5 mb 0.00 in0.0 mm 0.00 in/hr0.0 mm/hr 0.00 in0.0 mm
08:08 PM 36.4°F2.4°C 26.1°F-3.3°C 66% 4.0 mph S6.4 kmh S 9.0 mph14.5 kmh 30.52 in1033.5 mb 0.00 in0.0 mm 0.00 in/hr0.0 mm/hr 0.00 in0.0 mm
08:05 PM 36.5°F2.5°C 26.2°F-3.2°C 66% 3.0 mph S4.8 kmh S 9.0 mph14.5 kmh 30.52 in1033.5 mb 0.00 in0.0 mm 0.00 in/hr0.0 mm/hr 0.00 in0.0 mm
08:04 PM 36.6°F2.6°C 26.3°F-3.2°C 66% 5.0 mph S8.0 kmh S 7.0 mph11.3 kmh 30.52 in1033.5 mb 0.00 in0.0 mm 0.00 in/hr0.0 mm/hr 0.00 in0.0 mm
08:03 PM 36.6°F2.6°C 26.3°F-3.2°C 66% 3.0 mph S4.8 kmh S 6.0 mph9.7 kmh 30.52 in1033.5 mb 0.00 in0.0 mm 0.00 in/hr0.0 mm/hr 0.00 in0.0 mm
08:00 PM 36.6°F2.6°C 26.3°F-3.2°C 66% 2.0 mph S3.2 kmh S 2.0 mph3.2 kmh 30.52 in1033.5 mb 0.00 in0.0 mm 0.00 in/hr0.0 mm/hr 0.00 in0.0 mm
07:59 PM 36.6°F2.6°C 26.3°F-3.2°C 66% 2.0 mph S3.2 kmh S 11.0 mph17.7 kmh 30.52 in1033.5 mb 0.00 in0.0 mm 0.00 in/hr0.0 mm/hr 0.00 in0.0 mm
07:58 PM 36.7°F2.6°C 26.4°F-3.1°C 66% 5.0 mph S8.0 kmh S 11.0 mph17.7 kmh 30.52 in1033.5 mb 0.00 in0.0 mm 0.00 in/hr0.0 mm/hr 0.00 in0.0 mm
07:55 PM 36.6°F2.6°C 26.3°F-3.2°C 66% 2.0 mph S3.2 kmh S 11.0 mph17.7 kmh 30.52 in1033.5 mb 0.00 in0.0 mm 0.00 in/hr0.0 mm/hr 0.00 in0.0 mm
07:54 PM 36.6°F2.6°C 26.3°F-3.2°C 66% 1.0 mph S1.6 kmh S 11.0 mph17.7 kmh 30.52 in1033.5 mb 0.00 in0.0 mm 0.00 in/hr0.0 mm/hr 0.00 in0.0 mm
07:53 PM 36.7°F2.6°C 26.4°F-3.1°C 66% 2.0 mph S3.2 kmh S 11.0 mph17.7 kmh 30.52 in1033.5 mb 0.00 in0.0 mm 0.00 in/hr0.0 mm/hr 0.00 in0.0 mm
07:50 PM 36.7°F2.6°C 26.4°F-3.1°C 66% 4.0 mph S6.4 kmh S 11.0 mph17.7 kmh 30.52 in1033.5 mb 0.00 in0.0 mm 0.00 in/hr0.0 mm/hr 0.00 in0.0 mm
07:49 PM 36.7°F2.6°C 26.4°F-3.1°C 66% 3.0 mph S4.8 kmh S 11.0 mph17.7 kmh 30.52 in1033.5 mb 0.00 in0.0 mm 0.00 in/hr0.0 mm/hr 0.00 in0.0 mm
07:48 PM 36.7°F2.6°C 26.4°F-3.1°C 66% 2.0 mph S3.2 kmh S 11.0 mph17.7 kmh 30.52 in1033.5 mb 0.00 in0.0 mm 0.00 in/hr0.0 mm/hr 0.00 in0.0 mm
07:45 PM 36.9°F2.7°C 27.0°F-2.8°C 67% 5.0 mph S8.0 kmh S 11.0 mph17.7 kmh 30.52 in1033.5 mb 0.00 in0.0 mm 0.00 in/hr0.0 mm/hr 0.00 in0.0 mm
07:44 PM 36.9°F2.7°C 27.0°F-2.8°C 67% 3.0 mph S4.8 kmh S 11.0 mph17.7 kmh 30.52 in1033.5 mb 0.00 in0.0 mm 0.00 in/hr0.0 mm/hr 0.00 in0.0 mm
07:43 PM 36.9°F2.7°C 26.6°F-3.0°C 66% 3.0 mph S4.8 kmh S 11.0 mph17.7 kmh 30.52 in1033.5 mb 0.00 in0.0 mm 0.00 in/hr0.0 mm/hr 0.00 in0.0 mm
07:40 PM 36.9°F2.7°C 26.6°F-3.0°C 66% 2.0 mph S3.2 kmh S 11.0 mph17.7 kmh 30.52 in1033.5 mb 0.00 in0.0 mm 0.00 in/hr0.0 mm/hr 0.00 in0.0 mm
07:39 PM 36.9°F2.7°C 26.6°F-3.0°C 66% 5.0 mph S8.0 kmh S 11.0 mph17.7 kmh 30.52 in1033.5 mb 0.00 in0.0 mm 0.00 in/hr0.0 mm/hr 0.00 in0.0 mm
07:38 PM 37.0°F2.8°C 26.7°F-2.9°C 66% 8.0 mph S12.9 kmh S 11.0 mph17.7 kmh 30.52 in1033.5 mb 0.00 in0.0 mm 0.00 in/hr0.0 mm/hr 0.00 in0.0 mm
07:35 PM 37.3°F2.9°C 27.0°F-2.8°C 66% 8.0 mph S12.9 kmh S 11.0 mph17.7 kmh 30.52 in1033.5 mb 0.00 in0.0 mm 0.00 in/hr0.0 mm/hr 0.00 in0.0 mm
07:34 PM 37.4°F3.0°C 27.1°F-2.7°C 66% 6.0 mph S9.7 kmh S 11.0 mph17.7 kmh 30.52 in1033.5 mb 0.00 in0.0 mm 0.00 in/hr0.0 mm/hr 0.00 in0.0 mm
07:33 PM 37.4°F3.0°C 27.1°F-2.7°C 66% 4.0 mph S6.4 kmh S 11.0 mph17.7 kmh 30.52 in1033.5 mb 0.00 in0.0 mm 0.00 in/hr0.0 mm/hr 0.00 in0.0 mm
07:30 PM 37.4°F3.0°C 27.1°F-2.7°C 66% 2.0 mph S3.2 kmh S 11.0 mph17.7 kmh 30.52 in1033.5 mb 0.00 in0.0 mm 0.00 in/hr0.0 mm/hr 0.00 in0.0 mm
07:29 PM 37.4°F3.0°C 26.7°F-2.9°C 65% 7.0 mph S11.3 kmh S 11.0 mph17.7 kmh 30.52 in1033.5 mb 0.00 in0.0 mm 0.00 in/hr0.0 mm/hr 0.00 in0.0 mm
07:28 PM 37.5°F3.1°C 27.2°F-2.7°C 66% 4.0 mph S6.4 kmh S 11.0 mph17.7 kmh 30.52 in1033.5 mb 0.00 in0.0 mm 0.00 in/hr0.0 mm/hr 0.00 in0.0 mm
07:25 PM 37.6°F3.1°C 26.9°F-2.8°C 65% 2.0 mph S3.2 kmh S 11.0 mph17.7 kmh 30.52 in1033.5 mb 0.00 in0.0 mm 0.00 in/hr0.0 mm/hr 0.00 in0.0 mm
07:24 PM 37.7°F3.2°C 27.0°F-2.8°C 65% 9.0 mph S14.5 kmh S 11.0 mph17.7 kmh 30.52 in1033.5 mb 0.00 in0.0 mm 0.00 in/hr0.0 mm/hr 0.00 in0.0 mm
07:23 PM 37.7°F3.2°C 27.0°F-2.8°C 65% 5.0 mph S8.0 kmh S 11.0 mph17.7 kmh 30.52 in1033.5 mb 0.00 in0.0 mm 0.00 in/hr0.0 mm/hr 0.00 in0.0 mm
07:20 PM 37.9°F3.3°C 27.2°F-2.7°C 65% 2.0 mph S3.2 kmh S 11.0 mph17.7 kmh 30.52 in1033.5 mb 0.00 in0.0 mm 0.00 in/hr0.0 mm/hr 0.00 in0.0 mm
07:19 PM 37.9°F3.3°C 27.2°F-2.7°C 65% 6.0 mph S9.7 kmh S 11.0 mph17.7 kmh 30.52 in1033.5 mb 0.00 in0.0 mm 0.00 in/hr0.0 mm/hr 0.00 in0.0 mm
07:18 PM 37.9°F3.3°C 27.2°F-2.7°C 65% 6.0 mph S9.7 kmh S 11.0 mph17.7 kmh 30.52 in1033.5 mb 0.00 in0.0 mm 0.00 in/hr0.0 mm/hr 0.00 in0.0 mm
07:15 PM 38.0°F3.3°C 27.3°F-2.6°C 65% 2.0 mph S3.2 kmh S 11.0 mph17.7 kmh 30.52 in1033.5 mb 0.00 in0.0 mm 0.00 in/hr0.0 mm/hr 0.00 in0.0 mm
07:14 PM 38.0°F3.3°C 27.3°F-2.6°C 65% 6.0 mph S9.7 kmh S 11.0 mph17.7 kmh 30.52 in1033.5 mb 0.00 in0.0 mm 0.00 in/hr0.0 mm/hr 0.00 in0.0 mm
07:13 PM 38.1°F3.4°C 27.4°F-2.6°C 65% 8.0 mph S12.9 kmh S 11.0 mph17.7 kmh 30.52 in1033.5 mb 0.00 in0.0 mm 0.00 in/hr0.0 mm/hr 0.00 in0.0 mm
07:10 PM 38.1°F3.4°C 26.6°F-3.0°C 63% 6.0 mph S9.7 kmh S 10.0 mph16.1 kmh 30.52 in1033.5 mb 0.00 in0.0 mm 0.00 in/hr0.0 mm/hr 0.00 in0.0 mm
07:09 PM 38.2°F3.4°C 26.7°F-2.9°C 63% 2.0 mph S3.2 kmh S 10.0 mph16.1 kmh 30.52 in1033.5 mb 0.00 in0.0 mm 0.00 in/hr0.0 mm/hr 0.00 in0.0 mm
07:08 PM 38.4°F3.6°C 26.9°F-2.8°C 63% 3.0 mph S4.8 kmh S 10.0 mph16.1 kmh 30.52 in1033.5 mb 0.00 in0.0 mm 0.00 in/hr0.0 mm/hr 0.00 in0.0 mm
07:05 PM 38.4°F3.6°C 26.9°F-2.8°C 63% 10.0 mph S16.1 kmh S 10.0 mph16.1 kmh 30.52 in1033.5 mb 0.00 in0.0 mm 0.00 in/hr0.0 mm/hr 0.00 in0.0 mm
07:04 PM 38.4°F3.6°C 26.9°F-2.8°C 63% 5.0 mph S8.0 kmh S 8.0 mph12.9 kmh 30.52 in1033.5 mb 0.00 in0.0 mm 0.00 in/hr0.0 mm/hr 0.00 in0.0 mm
07:03 PM 38.5°F3.6°C 27.0°F-2.8°C 63% 1.0 mph S1.6 kmh S 8.0 mph12.9 kmh 30.52 in1033.5 mb 0.00 in0.0 mm 0.00 in/hr0.0 mm/hr 0.00 in0.0 mm
07:00 PM 38.4°F3.6°C 26.9°F-2.8°C 63% 1.0 mph S1.6 kmh S 3.0 mph4.8 kmh 30.52 in1033.5 mb 0.00 in0.0 mm 0.00 in/hr0.0 mm/hr 0.00 in0.0 mm
06:59 PM 38.3°F3.5°C 26.8°F-2.9°C 63% 2.0 mph S3.2 kmh S 13.0 mph20.9 kmh 30.52 in1033.5 mb 0.00 in0.0 mm 0.00 in/hr0.0 mm/hr 0.00 in0.0 mm
06:58 PM 38.3°F3.5°C 26.4°F-3.1°C 62% 2.0 mph S3.2 kmh S 13.0 mph20.9 kmh 30.52 in1033.5 mb 0.00 in0.0 mm 0.00 in/hr0.0 mm/hr 0.00 in0.0 mm
06:55 PM 38.2°F3.4°C 26.3°F-3.2°C 62% 3.0 mph SSW4.8 kmh SSW 13.0 mph20.9 kmh 30.52 in1033.5 mb 0.00 in0.0 mm 0.00 in/hr0.0 mm/hr 0.00 in0.0 mm
06:54 PM 38.2°F3.4°C 26.3°F-3.2°C 62% 3.0 mph SSW4.8 kmh SSW 13.0 mph20.9 kmh 30.52 in1033.5 mb 0.00 in0.0 mm 0.00 in/hr0.0 mm/hr 0.00 in0.0 mm
06:53 PM 38.2°F3.4°C 26.3°F-3.2°C 62% 3.0 mph SSW4.8 kmh SSW 13.0 mph20.9 kmh 30.52 in1033.5 mb 0.00 in0.0 mm 0.00 in/hr0.0 mm/hr 0.00 in0.0 mm
06:50 PM 38.3°F3.5°C 26.4°F-3.1°C 62% 2.0 mph SSW3.2 kmh SSW 13.0 mph20.9 kmh 30.52 in1033.5 mb 0.00 in0.0 mm 0.00 in/hr0.0 mm/hr 0.00 in0.0 mm
06:49 PM 38.3°F3.5°C 26.1°F-3.3°C 61% 5.0 mph SSW8.0 kmh SSW 13.0 mph20.9 kmh 30.52 in1033.5 mb 0.00 in0.0 mm 0.00 in/hr0.0 mm/hr 0.00 in0.0 mm
06:48 PM 38.3°F3.5°C 26.1°F-3.3°C 61% 6.0 mph SSW9.7 kmh SSW 13.0 mph20.9 kmh 30.52 in1033.5 mb 0.00 in0.0 mm 0.00 in/hr0.0 mm/hr 0.00 in0.0 mm
06:45 PM 38.5°F3.6°C 26.2°F-3.2°C 61% 6.0 mph S9.7 kmh S 13.0 mph20.9 kmh 30.52 in1033.5 mb 0.00 in0.0 mm 0.00 in/hr0.0 mm/hr 0.00 in0.0 mm
06:44 PM 38.6°F3.7°C 26.3°F-3.2°C 61% 6.0 mph S9.7 kmh S 13.0 mph20.9 kmh 30.52 in1033.5 mb 0.00 in0.0 mm 0.00 in/hr0.0 mm/hr 0.00 in0.0 mm
06:43 PM 38.7°F3.7°C 26.8°F-2.9°C 62% 5.0 mph S8.0 kmh S 13.0 mph20.9 kmh 30.52 in1033.5 mb 0.00 in0.0 mm 0.00 in/hr0.0 mm/hr 0.00 in0.0 mm
06:40 PM 38.9°F3.8°C 27.0°F-2.8°C 62% 5.0 mph S8.0 kmh S 13.0 mph20.9 kmh 30.51 in1033.2 mb 0.00 in0.0 mm 0.00 in/hr0.0 mm/hr 0.00 in0.0 mm
06:39 PM 38.9°F3.8°C 27.0°F-2.8°C 62% 4.0 mph S6.4 kmh S 13.0 mph20.9 kmh 30.51 in1033.2 mb 0.00 in0.0 mm 0.00 in/hr0.0 mm/hr 0.00 in0.0 mm
06:38 PM 39.0°F3.9°C 27.1°F-2.7°C 62% 3.0 mph S4.8 kmh S 13.0 mph20.9 kmh 30.51 in1033.2 mb 0.00 in0.0 mm 0.00 in/hr0.0 mm/hr 0.00 in0.0 mm
06:35 PM 39.0°F3.9°C 27.1°F-2.7°C 62% 4.0 mph S6.4 kmh S 13.0 mph20.9 kmh 30.51 in1033.2 mb 0.00 in0.0 mm 0.00 in/hr0.0 mm/hr 0.00 in0.0 mm
06:34 PM 39.0°F3.9°C 27.1°F-2.7°C 62% 6.0 mph S9.7 kmh S 13.0 mph20.9 kmh 30.51 in1033.2 mb 0.00 in0.0 mm 0.00 in/hr0.0 mm/hr 0.00 in0.0 mm
06:33 PM 38.9°F3.8°C 27.0°F-2.8°C 62% 3.0 mph S4.8 kmh S 13.0 mph20.9 kmh 30.51 in1033.2 mb 0.00 in0.0 mm 0.00 in/hr0.0 mm/hr 0.00 in0.0 mm
06:30 PM 38.9°F3.8°C 27.0°F-2.8°C 62% 13.0 mph S20.9 kmh S 13.0 mph20.9 kmh 30.51 in1033.2 mb 0.00 in0.0 mm 0.00 in/hr0.0 mm/hr 0.00 in0.0 mm
06:29 PM 38.8°F3.8°C 26.5°F-3.1°C 61% 4.0 mph S6.4 kmh S 13.0 mph20.9 kmh 30.51 in1033.2 mb 0.00 in0.0 mm 0.00 in/hr0.0 mm/hr 0.00 in0.0 mm
06:28 PM 38.8°F3.8°C 26.5°F-3.1°C 61% 1.0 mph S1.6 kmh S 13.0 mph20.9 kmh 30.52 in1033.5 mb 0.00 in0.0 mm 0.00 in/hr0.0 mm/hr 0.00 in0.0 mm
06:25 PM 38.8°F3.8°C 26.9°F-2.8°C 62% 2.0 mph S3.2 kmh S 13.0 mph20.9 kmh 30.51 in1033.2 mb 0.00 in0.0 mm 0.00 in/hr0.0 mm/hr 0.00 in0.0 mm
06:24 PM 38.7°F3.7°C 27.2°F-2.7°C 63% 5.0 mph S8.0 kmh S 13.0 mph20.9 kmh 30.51 in1033.2 mb 0.00 in0.0 mm 0.00 in/hr0.0 mm/hr 0.00 in0.0 mm
06:23 PM 38.6°F3.7°C 26.7°F-2.9°C 62% 6.0 mph S9.7 kmh S 13.0 mph20.9 kmh 30.51 in1033.2 mb 0.00 in0.0 mm 0.00 in/hr0.0 mm/hr 0.00 in0.0 mm
06:20 PM 38.4°F3.6°C 26.5°F-3.1°C 62% 7.0 mph S11.3 kmh S 13.0 mph20.9 kmh 30.51 in1033.2 mb 0.00 in0.0 mm 0.00 in/hr0.0 mm/hr 0.00 in0.0 mm
06:19 PM 38.3°F3.5°C 26.4°F-3.1°C 62% 4.0 mph S6.4 kmh S 13.0 mph20.9 kmh 30.51 in1033.2 mb 0.00 in0.0 mm 0.00 in/hr0.0 mm/hr 0.00 in0.0 mm
06:18 PM 38.3°F3.5°C 26.4°F-3.1°C 62% 5.0 mph SSE8.0 kmh SSE 13.0 mph20.9 kmh 30.51 in1033.2 mb 0.00 in0.0 mm 0.00 in/hr0.0 mm/hr 0.00 in0.0 mm
06:15 PM 38.5°F3.6°C 26.6°F-3.0°C 62% 8.0 mph SSE12.9 kmh SSE 13.0 mph20.9 kmh 30.51 in1033.2 mb 0.00 in0.0 mm 0.00 in/hr0.0 mm/hr 0.00 in0.0 mm
06:14 PM 38.6°F3.7°C 26.7°F-2.9°C 62% 6.0 mph SSE9.7 kmh SSE 13.0 mph20.9 kmh 30.51 in1033.2 mb 0.00 in0.0 mm 0.00 in/hr0.0 mm/hr 0.00 in0.0 mm
06:13 PM 38.6°F3.7°C 26.7°F-2.9°C 62% 6.0 mph SSE9.7 kmh SSE 13.0 mph20.9 kmh 30.51 in1033.2 mb 0.00 in0.0 mm 0.00 in/hr0.0 mm/hr 0.00 in0.0 mm
06:10 PM 38.7°F3.7°C 26.4°F-3.1°C 61% 6.0 mph SE9.7 kmh SE 13.0 mph20.9 kmh 30.51 in1033.2 mb 0.00 in0.0 mm 0.00 in/hr0.0 mm/hr 0.00 in0.0 mm
06:09 PM 38.8°F3.8°C 26.9°F-2.8°C 62% 12.0 mph SE19.3 kmh SE 13.0 mph20.9 kmh 30.51 in1033.2 mb 0.00 in0.0 mm 0.00 in/hr0.0 mm/hr 0.00 in0.0 mm
06:08 PM 38.8°F3.8°C 26.9°F-2.8°C 62% 4.0 mph SSE6.4 kmh SSE 11.0 mph17.7 kmh 30.51 in1033.2 mb 0.00 in0.0 mm 0.00 in/hr0.0 mm/hr 0.00 in0.0 mm
06:05 PM 38.8°F3.8°C 26.9°F-2.8°C 62% 10.0 mph SSE16.1 kmh SSE 11.0 mph17.7 kmh 30.51 in1033.2 mb 0.00 in0.0 mm 0.00 in/hr0.0 mm/hr 0.00 in0.0 mm
06:04 PM 38.8°F3.8°C 27.3°F-2.6°C 63% 7.0 mph S11.3 kmh S 11.0 mph17.7 kmh 30.51 in1033.2 mb 0.00 in0.0 mm 0.00 in/hr0.0 mm/hr 0.00 in0.0 mm
06:03 PM 38.7°F3.7°C 27.2°F-2.7°C 63% 5.0 mph S8.0 kmh S 11.0 mph17.7 kmh 30.51 in1033.2 mb 0.00 in0.0 mm 0.00 in/hr0.0 mm/hr 0.00 in0.0 mm
06:00 PM 38.5°F3.6°C 26.6°F-3.0°C 62% 11.0 mph S17.7 kmh S 11.0 mph17.7 kmh 30.51 in1033.2 mb 0.00 in0.0 mm 0.00 in/hr0.0 mm/hr 0.00 in0.0 mm
05:59 PM 38.5°F3.6°C 26.6°F-3.0°C 62% 8.0 mph S12.9 kmh S 15.0 mph24.1 kmh 30.51 in1033.2 mb 0.00 in0.0 mm 0.00 in/hr0.0 mm/hr 0.00 in0.0 mm
05:58 PM 38.5°F3.6°C 26.6°F-3.0°C 62% 5.0 mph S8.0 kmh S 15.0 mph24.1 kmh 30.51 in1033.2 mb 0.00 in0.0 mm 0.00 in/hr0.0 mm/hr 0.00 in0.0 mm
05:55 PM 38.6°F3.7°C 27.1°F-2.7°C 63% 7.0 mph S11.3 kmh S 15.0 mph24.1 kmh 30.51 in1033.2 mb 0.00 in0.0 mm 0.00 in/hr0.0 mm/hr 0.00 in0.0 mm
05:54 PM 38.6°F3.7°C 26.7°F-2.9°C 62% 6.0 mph S9.7 kmh S 15.0 mph24.1 kmh 30.51 in1033.2 mb 0.00 in0.0 mm 0.00 in/hr0.0 mm/hr 0.00 in0.0 mm
05:53 PM 38.5°F3.6°C 26.6°F-3.0°C 62% 8.0 mph S12.9 kmh S 15.0 mph24.1 kmh 30.51 in1033.2 mb 0.00 in0.0 mm 0.00 in/hr0.0 mm/hr 0.00 in0.0 mm
05:50 PM 38.5°F3.6°C 27.0°F-2.8°C 63% 4.0 mph S6.4 kmh S 15.0 mph24.1 kmh 30.51 in1033.2 mb 0.00 in0.0 mm 0.00 in/hr0.0 mm/hr 0.00 in0.0 mm
05:49 PM 38.5°F3.6°C 27.4°F-2.6°C 64% 7.0 mph SSE11.3 kmh SSE 15.0 mph24.1 kmh 30.51 in1033.2 mb 0.00 in0.0 mm 0.00 in/hr0.0 mm/hr 0.00 in0.0 mm
05:48 PM 38.5°F3.6°C 27.0°F-2.8°C 63% 5.0 mph SSE8.0 kmh SSE 15.0 mph24.1 kmh 30.51 in1033.2 mb 0.00 in0.0 mm 0.00 in/hr0.0 mm/hr 0.00 in0.0 mm
05:45 PM 38.4°F3.6°C 27.3°F-2.6°C 64% 6.0 mph S9.7 kmh S 14.0 mph22.5 kmh 30.51 in1033.2 mb 0.00 in0.0 mm 0.00 in/hr0.0 mm/hr 0.00 in0.0 mm
05:44 PM 38.3°F3.5°C 26.8°F-2.9°C 63% 4.0 mph S6.4 kmh S 14.0 mph22.5 kmh 30.51 in1033.2 mb 0.00 in0.0 mm 0.00 in/hr0.0 mm/hr 0.00 in0.0 mm
05:43 PM 38.3°F3.5°C 26.8°F-2.9°C 63% 5.0 mph S8.0 kmh S 14.0 mph22.5 kmh 30.51 in1033.2 mb 0.00 in0.0 mm 0.00 in/hr0.0 mm/hr 0.00 in0.0 mm
05:40 PM 38.5°F3.6°C 26.6°F-3.0°C 62% 10.0 mph S16.1 kmh S 14.0 mph22.5 kmh 30.51 in1033.2 mb 0.00 in0.0 mm 0.00 in/hr0.0 mm/hr 0.00 in0.0 mm
05:39 PM 38.5°F3.6°C 26.2°F-3.2°C 61% 6.0 mph S9.7 kmh S 14.0 mph22.5 kmh 30.51 in1033.2 mb 0.00 in0.0 mm 0.00 in/hr0.0 mm/hr 0.00 in0.0 mm
05:38 PM 38.7°F3.7°C 26.8°F-2.9°C 62% 7.0 mph S11.3 kmh S 14.0 mph22.5 kmh 30.51 in1033.2 mb 0.00 in0.0 mm 0.00 in/hr0.0 mm/hr 0.00 in0.0 mm
05:35 PM 38.7°F3.7°C 26.8°F-2.9°C 62% 6.0 mph SSE9.7 kmh SSE 14.0 mph22.5 kmh 30.51 in1033.2 mb 0.00 in0.0 mm 0.00 in/hr0.0 mm/hr 0.00 in0.0 mm
05:34 PM 38.7°F3.7°C 27.2°F-2.7°C 63% 5.0 mph SSE8.0 kmh SSE 14.0 mph22.5 kmh 30.51 in1033.2 mb 0.00 in0.0 mm 0.00 in/hr0.0 mm/hr 0.00 in0.0 mm
05:33 PM 38.6°F3.7°C 27.1°F-2.7°C 63% 6.0 mph S9.7 kmh S 14.0 mph22.5 kmh 30.51 in1033.2 mb 0.00 in0.0 mm 0.00 in/hr0.0 mm/hr 0.00 in0.0 mm
05:30 PM 38.3°F3.5°C 26.4°F-3.1°C 62% 4.0 mph S6.4 kmh S 14.0 mph22.5 kmh 30.51 in1033.2 mb 0.00 in0.0 mm 0.00 in/hr0.0 mm/hr 0.00 in0.0 mm
05:29 PM 38.3°F3.5°C 26.4°F-3.1°C 62% 8.0 mph S12.9 kmh S 14.0 mph22.5 kmh 30.51 in1033.2 mb 0.00 in0.0 mm 0.00 in/hr0.0 mm/hr 0.00 in0.0 mm
05:28 PM 38.4°F3.6°C 26.5°F-3.1°C 62% 7.0 mph S11.3 kmh S 14.0 mph22.5 kmh 30.51 in1033.2 mb 0.00 in0.0 mm 0.00 in/hr0.0 mm/hr 0.00 in0.0 mm
05:25 PM 38.5°F3.6°C 27.0°F-2.8°C 63% 5.0 mph SSE8.0 kmh SSE 13.0 mph20.9 kmh 30.51 in1033.2 mb 0.00 in0.0 mm 0.00 in/hr0.0 mm/hr 0.00 in0.0 mm
05:24 PM 38.4°F3.6°C 26.5°F-3.1°C 62% 4.0 mph SSE6.4 kmh SSE 13.0 mph20.9 kmh 30.51 in1033.2 mb 0.00 in0.0 mm 0.00 in/hr0.0 mm/hr 0.00 in0.0 mm
05:23 PM 38.4°F3.6°C 26.1°F-3.3°C 61% 8.0 mph SSE12.9 kmh SSE 13.0 mph20.9 kmh 30.51 in1033.2 mb 0.00 in0.0 mm 0.00 in/hr0.0 mm/hr 0.00 in0.0 mm
05:20 PM 38.5°F3.6°C 26.2°F-3.2°C 61% 10.0 mph SSE16.1 kmh SSE 13.0 mph20.9 kmh 30.51 in1033.2 mb 0.00 in0.0 mm 0.00 in/hr0.0 mm/hr 0.00 in0.0 mm
05:19 PM 38.6°F3.7°C 26.7°F-2.9°C 62% 9.0 mph SSE14.5 kmh SSE 13.0 mph20.9 kmh 30.51 in1033.2 mb 0.00 in0.0 mm 0.00 in/hr0.0 mm/hr 0.00 in0.0 mm
05:18 PM 38.6°F3.7°C 26.7°F-2.9°C 62% 6.0 mph SSE9.7 kmh SSE 13.0 mph20.9 kmh 30.51 in1033.2 mb 0.00 in0.0 mm 0.00 in/hr0.0 mm/hr 0.00 in0.0 mm
05:15 PM 38.5°F3.6°C 26.6°F-3.0°C 62% 7.0 mph S11.3 kmh S 13.0 mph20.9 kmh 30.51 in1033.2 mb 0.00 in0.0 mm 0.00 in/hr0.0 mm/hr 0.00 in0.0 mm
05:14 PM 38.6°F3.7°C 26.7°F-2.9°C 62% 9.0 mph S14.5 kmh S 13.0 mph20.9 kmh 30.51 in1033.2 mb 0.00 in0.0 mm 0.00 in/hr0.0 mm/hr 0.00 in0.0 mm
05:13 PM 38.5°F3.6°C 26.6°F-3.0°C 62% 5.0 mph S8.0 kmh S 13.0 mph20.9 kmh 30.51 in1033.2 mb 0.00 in0.0 mm 0.00 in/hr0.0 mm/hr 0.00 in0.0 mm
05:10 PM 38.2°F3.4°C 26.0°F-3.3°C 61% 7.0 mph S11.3 kmh S 13.0 mph20.9 kmh 30.50 in1032.8 mb 0.00 in0.0 mm 0.00 in/hr0.0 mm/hr 0.00 in0.0 mm
05:09 PM 38.2°F3.4°C 26.3°F-3.2°C 62% 7.0 mph S11.3 kmh S 13.0 mph20.9 kmh 30.50 in1032.8 mb 0.00 in0.0 mm 0.00 in/hr0.0 mm/hr 0.00 in0.0 mm
05:08 PM 38.3°F3.5°C 26.4°F-3.1°C 62% 11.0 mph S17.7 kmh S 13.0 mph20.9 kmh 30.50 in1032.8 mb 0.00 in0.0 mm 0.00 in/hr0.0 mm/hr 0.00 in0.0 mm
05:05 PM 38.4°F3.6°C 26.5°F-3.1°C 62% 7.0 mph S11.3 kmh S 13.0 mph20.9 kmh 30.51 in1033.2 mb 0.00 in0.0 mm 0.00 in/hr0.0 mm/hr 0.00 in0.0 mm
05:04 PM 38.3°F3.5°C 26.1°F-3.3°C 61% 7.0 mph S11.3 kmh S 13.0 mph20.9 kmh 30.51 in1033.2 mb 0.00 in0.0 mm 0.00 in/hr0.0 mm/hr 0.00 in0.0 mm
05:03 PM 38.1°F3.4°C 25.5°F-3.6°C 60% 6.0 mph S9.7 kmh S 13.0 mph20.9 kmh 30.50 in1032.8 mb 0.00 in0.0 mm 0.00 in/hr0.0 mm/hr 0.00 in0.0 mm
05:00 PM 38.3°F3.5°C 25.2°F-3.8°C 59% 7.0 mph SSW11.3 kmh SSW 7.0 mph11.3 kmh 30.50 in1032.8 mb 0.00 in0.0 mm 0.00 in/hr0.0 mm/hr 0.00 in0.0 mm
04:59 PM 38.3°F3.5°C 24.8°F-4.0°C 58% 5.0 mph SSW8.0 kmh SSW 16.0 mph25.7 kmh 30.50 in1032.8 mb 0.00 in0.0 mm 0.00 in/hr0.0 mm/hr 0.00 in0.0 mm
04:58 PM 38.5°F3.6°C 25.8°F-3.4°C 60% 9.0 mph SSW14.5 kmh SSW 16.0 mph25.7 kmh 30.50 in1032.8 mb 0.00 in0.0 mm 0.00 in/hr0.0 mm/hr 0.00 in0.0 mm
04:55 PM 38.4°F3.6°C 25.7°F-3.5°C 60% 2.0 mph S3.2 kmh S 16.0 mph25.7 kmh 30.50 in1032.8 mb 0.00 in0.0 mm 0.00 in/hr0.0 mm/hr 0.00 in0.0 mm
04:54 PM 38.4°F3.6°C 25.7°F-3.5°C 60% 5.0 mph S8.0 kmh S 16.0 mph25.7 kmh 30.50 in1032.8 mb 0.00 in0.0 mm 0.00 in/hr0.0 mm/hr 0.00 in0.0 mm
04:53 PM 38.3°F3.5°C 25.7°F-3.5°C 60% 4.0 mph S6.4 kmh S 16.0 mph25.7 kmh 30.50 in1032.8 mb 0.00 in0.0 mm 0.00 in/hr0.0 mm/hr 0.00 in0.0 mm
04:50 PM 38.2°F3.4°C 26.0°F-3.3°C 61% 6.0 mph S9.7 kmh S 16.0 mph25.7 kmh 30.50 in1032.8 mb 0.00 in0.0 mm 0.00 in/hr0.0 mm/hr 0.00 in0.0 mm
04:49 PM 38.1°F3.4°C 25.9°F-3.4°C 61% 4.0 mph SSE6.4 kmh SSE 16.0 mph25.7 kmh 30.50 in1032.8 mb 0.00 in0.0 mm 0.00 in/hr0.0 mm/hr 0.00 in0.0 mm
04:48 PM 38.1°F3.4°C 25.9°F-3.4°C 61% 11.0 mph SSE17.7 kmh SSE 16.0 mph25.7 kmh 30.50 in1032.8 mb 0.00 in0.0 mm 0.00 in/hr0.0 mm/hr 0.00 in0.0 mm
04:45 PM 38.3°F3.5°C 26.8°F-2.9°C 63% 7.0 mph SSE11.3 kmh SSE 16.0 mph25.7 kmh 30.50 in1032.8 mb 0.00 in0.0 mm 0.00 in/hr0.0 mm/hr 0.00 in0.0 mm
04:44 PM 38.3°F3.5°C 26.1°F-3.3°C 61% 4.0 mph SSE6.4 kmh SSE 16.0 mph25.7 kmh 30.50 in1032.8 mb 0.00 in0.0 mm 0.00 in/hr0.0 mm/hr 0.00 in0.0 mm
04:43 PM 38.3°F3.5°C 26.1°F-3.3°C 61% 8.0 mph SSE12.9 kmh SSE 16.0 mph25.7 kmh 30.50 in1032.8 mb 0.00 in0.0 mm 0.00 in/hr0.0 mm/hr 0.00 in0.0 mm
04:40 PM 38.3°F3.5°C 26.1°F-3.3°C 61% 6.0 mph S9.7 kmh S 16.0 mph25.7 kmh 30.50 in1032.8 mb 0.00 in0.0 mm 0.00 in/hr0.0 mm/hr 0.00 in0.0 mm
04:39 PM 38.2°F3.4°C 26.0°F-3.3°C 61% 6.0 mph S9.7 kmh S 16.0 mph25.7 kmh 30.50 in1032.8 mb 0.00 in0.0 mm 0.00 in/hr0.0 mm/hr 0.00 in0.0 mm
04:38 PM 38.2°F3.4°C 25.2°F-3.8°C 59% 7.0 mph S11.3 kmh S 16.0 mph25.7 kmh 30.50 in1032.8 mb 0.00 in0.0 mm 0.00 in/hr0.0 mm/hr 0.00 in0.0 mm
04:35 PM 38.6°F3.7°C 25.5°F-3.6°C 59% 9.0 mph S14.5 kmh S 16.0 mph25.7 kmh 30.50 in1032.8 mb 0.00 in0.0 mm 0.00 in/hr0.0 mm/hr 0.00 in0.0 mm
04:34 PM 38.7°F3.7°C 26.0°F-3.3°C 60% 10.0 mph S16.1 kmh S 16.0 mph25.7 kmh 30.50 in1032.8 mb 0.00 in0.0 mm 0.00 in/hr0.0 mm/hr 0.00 in0.0 mm
04:33 PM 38.8°F3.8°C 25.7°F-3.5°C 59% 7.0 mph S11.3 kmh S 16.0 mph25.7 kmh 30.50 in1032.8 mb 0.00 in0.0 mm 0.00 in/hr0.0 mm/hr 0.00 in0.0 mm
04:30 PM 39.0°F3.9°C 26.3°F-3.2°C 60% 6.0 mph S9.7 kmh S 16.0 mph25.7 kmh 30.50 in1032.8 mb 0.00 in0.0 mm 0.00 in/hr0.0 mm/hr 0.00 in0.0 mm
04:29 PM 39.0°F3.9°C 26.7°F-2.9°C 61% 7.0 mph S11.3 kmh S 16.0 mph25.7 kmh 30.50 in1032.8 mb 0.00 in0.0 mm 0.00 in/hr0.0 mm/hr 0.00 in0.0 mm
04:28 PM 39.1°F3.9°C 26.8°F-2.9°C 61% 10.0 mph S16.1 kmh S 16.0 mph25.7 kmh 30.50 in1032.8 mb 0.00 in0.0 mm 0.00 in/hr0.0 mm/hr 0.00 in0.0 mm
04:25 PM 39.4°F4.1°C 27.1°F-2.7°C 61% 11.0 mph SSE17.7 kmh SSE 16.0 mph25.7 kmh 30.50 in1032.8 mb 0.00 in0.0 mm 0.00 in/hr0.0 mm/hr 0.00 in0.0 mm
04:24 PM 39.3°F4.1°C 27.0°F-2.8°C 61% 6.0 mph SSE9.7 kmh SSE 16.0 mph25.7 kmh 30.50 in1032.8 mb 0.00 in0.0 mm 0.00 in/hr0.0 mm/hr 0.00 in0.0 mm
04:23 PM 39.2°F4.0°C 26.5°F-3.1°C 60% 4.0 mph S6.4 kmh S 16.0 mph25.7 kmh 30.50 in1032.8 mb 0.00 in0.0 mm 0.00 in/hr0.0 mm/hr 0.00 in0.0 mm
04:20 PM 39.0°F3.9°C 25.9°F-3.4°C 59% 3.0 mph S4.8 kmh S 16.0 mph25.7 kmh 30.50 in1032.8 mb 0.00 in0.0 mm 0.00 in/hr0.0 mm/hr 0.00 in0.0 mm
04:19 PM 39.0°F3.9°C 25.9°F-3.4°C 59% 7.0 mph S11.3 kmh S 16.0 mph25.7 kmh 30.50 in1032.8 mb 0.00 in0.0 mm 0.00 in/hr0.0 mm/hr 0.00 in0.0 mm
04:18 PM 39.0°F3.9°C 25.5°F-3.6°C 58% 6.0 mph S9.7 kmh S 16.0 mph25.7 kmh 30.50 in1032.8 mb 0.00 in0.0 mm 0.00 in/hr0.0 mm/hr 0.00 in0.0 mm
04:15 PM 38.9°F3.8°C 25.0°F-3.9°C 57% 6.0 mph S9.7 kmh S 16.0 mph25.7 kmh 30.50 in1032.8 mb 0.00 in0.0 mm 0.00 in/hr0.0 mm/hr 0.00 in0.0 mm
04:14 PM 38.8°F3.8°C 25.3°F-3.7°C 58% 6.0 mph S9.7 kmh S 16.0 mph25.7 kmh 30.50 in1032.8 mb 0.00 in0.0 mm 0.00 in/hr0.0 mm/hr 0.00 in0.0 mm
04:13 PM 38.8°F3.8°C 24.9°F-3.9°C 57% 12.0 mph SSE19.3 kmh SSE 16.0 mph25.7 kmh 30.50 in1032.8 mb 0.00 in0.0 mm 0.00 in/hr0.0 mm/hr 0.00 in0.0 mm
04:10 PM 39.1°F3.9°C 25.6°F-3.6°C 58% 9.0 mph S14.5 kmh S 16.0 mph25.7 kmh 30.50 in1032.8 mb 0.00 in0.0 mm 0.00 in/hr0.0 mm/hr 0.00 in0.0 mm
04:09 PM 39.2°F4.0°C 25.7°F-3.5°C 58% 14.0 mph S22.5 kmh S 15.0 mph24.1 kmh 30.50 in1032.8 mb 0.00 in0.0 mm 0.00 in/hr0.0 mm/hr 0.00 in0.0 mm
04:08 PM 39.2°F4.0°C 25.7°F-3.5°C 58% 10.0 mph S16.1 kmh S 15.0 mph24.1 kmh 30.50 in1032.8 mb 0.00 in0.0 mm 0.00 in/hr0.0 mm/hr 0.00 in0.0 mm
04:05 PM 39.2°F4.0°C 24.8°F-4.0°C 56% 6.0 mph S9.7 kmh S 15.0 mph24.1 kmh 30.50 in1032.8 mb 0.00 in0.0 mm 0.00 in/hr0.0 mm/hr 0.00 in0.0 mm
04:04 PM 39.3°F4.1°C 25.4°F-3.7°C 57% 4.0 mph S6.4 kmh S 15.0 mph24.1 kmh 30.50 in1032.8 mb 0.00 in0.0 mm 0.00 in/hr0.0 mm/hr 0.00 in0.0 mm
04:03 PM 39.2°F4.0°C 25.7°F-3.5°C 58% 7.0 mph SSE11.3 kmh SSE 15.0 mph24.1 kmh 30.50 in1032.8 mb 0.00 in0.0 mm 0.00 in/hr0.0 mm/hr 0.00 in0.0 mm
04:00 PM 39.1°F3.9°C 25.2°F-3.8°C 57% 8.0 mph SSW12.9 kmh SSW 8.0 mph12.9 kmh 30.50 in1032.8 mb 0.00 in0.0 mm 0.00 in/hr0.0 mm/hr 0.00 in0.0 mm
03:59 PM 39.2°F4.0°C 25.3°F-3.7°C 57% 7.0 mph SSW11.3 kmh SSW 19.0 mph30.6 kmh 30.50 in1032.8 mb 0.00 in0.0 mm 0.00 in/hr0.0 mm/hr 0.00 in0.0 mm
03:58 PM 39.3°F4.1°C 25.4°F-3.7°C 57% 8.0 mph SSW12.9 kmh SSW 19.0 mph30.6 kmh 30.50 in1032.8 mb 0.00 in0.0 mm 0.00 in/hr0.0 mm/hr 0.00 in0.0 mm
03:55 PM 39.0°F3.9°C 26.7°F-2.9°C 61% 8.0 mph S12.9 kmh S 19.0 mph30.6 kmh 30.50 in1032.8 mb 0.00 in0.0 mm 0.00 in/hr0.0 mm/hr 0.00 in0.0 mm
03:54 PM 38.9°F3.8°C 26.6°F-3.0°C 61% 5.0 mph S8.0 kmh S 19.0 mph30.6 kmh 30.50 in1032.8 mb 0.00 in0.0 mm 0.00 in/hr0.0 mm/hr 0.00 in0.0 mm
03:53 PM 38.8°F3.8°C 26.5°F-3.1°C 61% 9.0 mph S14.5 kmh S 19.0 mph30.6 kmh 30.50 in1032.8 mb 0.00 in0.0 mm 0.00 in/hr0.0 mm/hr 0.00 in0.0 mm
03:50 PM 38.5°F3.6°C 25.0°F-3.9°C 58% 9.0 mph S14.5 kmh S 19.0 mph30.6 kmh 30.50 in1032.8 mb 0.00 in0.0 mm 0.00 in/hr0.0 mm/hr 0.00 in0.0 mm
03:49 PM 38.5°F3.6°C 25.0°F-3.9°C 58% 8.0 mph SSE12.9 kmh SSE 19.0 mph30.6 kmh 30.50 in1032.8 mb 0.00 in0.0 mm 0.00 in/hr0.0 mm/hr 0.00 in0.0 mm
03:48 PM 38.5°F3.6°C 25.0°F-3.9°C 58% 5.0 mph S8.0 kmh S 19.0 mph30.6 kmh 30.50 in1032.8 mb 0.00 in0.0 mm 0.00 in/hr0.0 mm/hr 0.00 in0.0 mm
03:45 PM 38.4°F3.6°C 24.5°F-4.2°C 57% 11.0 mph S17.7 kmh S 19.0 mph30.6 kmh 30.50 in1032.8 mb 0.00 in0.0 mm 0.00 in/hr0.0 mm/hr 0.00 in0.0 mm
03:44 PM 38.4°F3.6°C 24.1°F-4.4°C 56% 5.0 mph S8.0 kmh S 19.0 mph30.6 kmh 30.50 in1032.8 mb 0.00 in0.0 mm 0.00 in/hr0.0 mm/hr 0.00 in0.0 mm
03:43 PM 38.6°F3.7°C 23.8°F-4.6°C 55% 9.0 mph S14.5 kmh S 19.0 mph30.6 kmh 30.50 in1032.8 mb 0.00 in0.0 mm 0.00 in/hr0.0 mm/hr 0.00 in0.0 mm
03:40 PM 39.0°F3.9°C 23.8°F-4.6°C 54% 6.0 mph S9.7 kmh S 19.0 mph30.6 kmh 30.50 in1032.8 mb 0.00 in0.0 mm 0.00 in/hr0.0 mm/hr 0.00 in0.0 mm
03:39 PM 39.0°F3.9°C 25.1°F-3.8°C 57% 10.0 mph SSW16.1 kmh SSW 19.0 mph30.6 kmh 30.50 in1032.8 mb 0.00 in0.0 mm 0.00 in/hr0.0 mm/hr 0.00 in0.0 mm
03:38 PM 39.0°F3.9°C 25.1°F-3.8°C 57% 11.0 mph SSW17.7 kmh SSW 19.0 mph30.6 kmh 30.50 in1032.8 mb 0.00 in0.0 mm 0.00 in/hr0.0 mm/hr 0.00 in0.0 mm
03:35 PM 38.7°F3.7°C 24.4°F-4.2°C 56% 6.0 mph S9.7 kmh S 19.0 mph30.6 kmh 30.50 in1032.8 mb 0.00 in0.0 mm 0.00 in/hr0.0 mm/hr 0.00 in0.0 mm
03:34 PM 38.7°F3.7°C 24.4°F-4.2°C 56% 8.0 mph S12.9 kmh S 19.0 mph30.6 kmh 30.50 in1032.8 mb 0.00 in0.0 mm 0.00 in/hr0.0 mm/hr 0.00 in0.0 mm
03:33 PM 38.7°F3.7°C 24.4°F-4.2°C 56% 8.0 mph S12.9 kmh S 19.0 mph30.6 kmh 30.50 in1032.8 mb 0.00 in0.0 mm 0.00 in/hr0.0 mm/hr 0.00 in0.0 mm
03:30 PM 38.8°F3.8°C 24.9°F-3.9°C 57% 10.0 mph SSE16.1 kmh SSE 19.0 mph30.6 kmh 30.50 in1032.8 mb 0.00 in0.0 mm 0.00 in/hr0.0 mm/hr 0.00 in0.0 mm
03:29 PM 38.7°F3.7°C 24.8°F-4.0°C 57% 9.0 mph SSE14.5 kmh SSE 19.0 mph30.6 kmh 30.50 in1032.8 mb 0.00 in0.0 mm 0.00 in/hr0.0 mm/hr 0.00 in0.0 mm
03:28 PM 38.6°F3.7°C 24.7°F-4.1°C 57% 8.0 mph S12.9 kmh S 19.0 mph30.6 kmh 30.50 in1032.8 mb 0.00 in0.0 mm 0.00 in/hr0.0 mm/hr 0.00 in0.0 mm
03:25 PM 38.0°F3.3°C 24.6°F-4.1°C 58% 5.0 mph S8.0 kmh S 19.0 mph30.6 kmh 30.50 in1032.8 mb 0.00 in0.0 mm 0.00 in/hr0.0 mm/hr 0.00 in0.0 mm
03:24 PM 37.8°F3.2°C 24.4°F-4.2°C 58% 7.0 mph S11.3 kmh S 19.0 mph30.6 kmh 30.50 in1032.8 mb 0.00 in0.0 mm 0.00 in/hr0.0 mm/hr 0.00 in0.0 mm
03:23 PM 37.6°F3.1°C 23.8°F-4.6°C 57% 4.0 mph S6.4 kmh S 19.0 mph30.6 kmh 30.50 in1032.8 mb 0.00 in0.0 mm 0.00 in/hr0.0 mm/hr 0.00 in0.0 mm
03:20 PM 37.5°F3.1°C 24.5°F-4.2°C 59% 5.0 mph S8.0 kmh S 19.0 mph30.6 kmh 30.50 in1032.8 mb 0.00 in0.0 mm 0.00 in/hr0.0 mm/hr 0.00 in0.0 mm
03:19 PM 37.4°F3.0°C 24.8°F-4.0°C 60% 3.0 mph S4.8 kmh S 19.0 mph30.6 kmh 30.50 in1032.8 mb 0.00 in0.0 mm 0.00 in/hr0.0 mm/hr 0.00 in0.0 mm
03:18 PM 37.3°F2.9°C 24.3°F-4.3°C 59% 2.0 mph S3.2 kmh S 19.0 mph30.6 kmh 30.50 in1032.8 mb 0.00 in0.0 mm 0.00 in/hr0.0 mm/hr 0.00 in0.0 mm
03:15 PM 37.3°F2.9°C 24.3°F-4.3°C 59% 8.0 mph S12.9 kmh S 19.0 mph30.6 kmh 30.50 in1032.8 mb 0.00 in0.0 mm 0.00 in/hr0.0 mm/hr 0.00 in0.0 mm
03:14 PM 37.3°F2.9°C 24.3°F-4.3°C 59% 4.0 mph S6.4 kmh S 19.0 mph30.6 kmh 30.50 in1032.8 mb 0.00 in0.0 mm 0.00 in/hr0.0 mm/hr 0.00 in0.0 mm
03:13 PM 37.3°F2.9°C 23.9°F-4.5°C 58% 3.0 mph S4.8 kmh S 19.0 mph30.6 kmh 30.50 in1032.8 mb 0.00 in0.0 mm 0.00 in/hr0.0 mm/hr 0.00 in0.0 mm
03:10 PM 37.4°F3.0°C 24.0°F-4.4°C 58% 4.0 mph S6.4 kmh S 19.0 mph30.6 kmh 30.50 in1032.8 mb 0.00 in0.0 mm 0.00 in/hr0.0 mm/hr 0.00 in0.0 mm
03:09 PM 37.3°F2.9°C 23.9°F-4.5°C 58% 5.0 mph S8.0 kmh S 19.0 mph30.6 kmh 30.50 in1032.8 mb 0.00 in0.0 mm 0.00 in/hr0.0 mm/hr 0.00 in0.0 mm
03:08 PM 37.3°F2.9°C 23.9°F-4.5°C 58% 7.0 mph S11.3 kmh S 19.0 mph30.6 kmh 30.50 in1032.8 mb 0.00 in0.0 mm 0.00 in/hr0.0 mm/hr 0.00 in0.0 mm
03:05 PM 37.2°F2.9°C 24.2°F-4.3°C 59% 9.0 mph S14.5 kmh S 19.0 mph30.6 kmh 30.50 in1032.8 mb 0.00 in0.0 mm 0.00 in/hr0.0 mm/hr 0.00 in0.0 mm
03:04 PM 37.1°F2.8°C 24.1°F-4.4°C 59% 3.0 mph S4.8 kmh S 19.0 mph30.6 kmh 30.50 in1032.8 mb 0.00 in0.0 mm 0.00 in/hr0.0 mm/hr 0.00 in0.0 mm
03:03 PM 37.2°F2.9°C 24.2°F-4.3°C 59% 14.0 mph S22.5 kmh S 19.0 mph30.6 kmh 30.50 in1032.8 mb 0.00 in0.0 mm 0.00 in/hr0.0 mm/hr 0.00 in0.0 mm
03:00 PM 37.3°F2.9°C 24.7°F-4.1°C 60% 5.0 mph S8.0 kmh S 5.0 mph8.0 kmh 30.50 in1032.8 mb 0.00 in0.0 mm 0.00 in/hr0.0 mm/hr 0.00 in0.0 mm
02:59 PM 37.4°F3.0°C 24.8°F-4.0°C 60% 7.0 mph S11.3 kmh S 15.0 mph24.1 kmh 30.50 in1032.8 mb 0.00 in0.0 mm 0.00 in/hr0.0 mm/hr 0.00 in0.0 mm
02:58 PM 37.4°F3.0°C 24.8°F-4.0°C 60% 7.0 mph S11.3 kmh S 15.0 mph24.1 kmh 30.50 in1032.8 mb 0.00 in0.0 mm 0.00 in/hr0.0 mm/hr 0.00 in0.0 mm
02:55 PM 37.4°F3.0°C 24.0°F-4.4°C 58% 3.0 mph S4.8 kmh S 15.0 mph24.1 kmh 30.50 in1032.8 mb 0.00 in0.0 mm 0.00 in/hr0.0 mm/hr 0.00 in0.0 mm
02:54 PM 37.5°F3.1°C 24.1°F-4.4°C 58% 2.0 mph S3.2 kmh S 15.0 mph24.1 kmh 30.50 in1032.8 mb 0.00 in0.0 mm 0.00 in/hr0.0 mm/hr 0.00 in0.0 mm
02:53 PM 37.5°F3.1°C 23.7°F-4.6°C 57% 4.0 mph S6.4 kmh S 15.0 mph24.1 kmh 30.51 in1033.2 mb 0.00 in0.0 mm 0.00 in/hr0.0 mm/hr 0.00 in0.0 mm
02:50 PM 37.4°F3.0°C 23.6°F-4.7°C 57% 2.0 mph SSE3.2 kmh SSE 15.0 mph24.1 kmh 30.50 in1032.8 mb 0.00 in0.0 mm 0.00 in/hr0.0 mm/hr 0.00 in0.0 mm
02:49 PM 37.4°F3.0°C 24.4°F-4.2°C 59% 5.0 mph SSE8.0 kmh SSE 15.0 mph24.1 kmh 30.50 in1032.8 mb 0.00 in0.0 mm 0.00 in/hr0.0 mm/hr 0.00 in0.0 mm
02:48 PM 37.3°F2.9°C 23.9°F-4.5°C 58% 7.0 mph SSE11.3 kmh SSE 15.0 mph24.1 kmh 30.51 in1033.2 mb 0.00 in0.0 mm 0.00 in/hr0.0 mm/hr 0.00 in0.0 mm
02:45 PM 37.4°F3.0°C 24.4°F-4.2°C 59% 8.0 mph SSE12.9 kmh SSE 15.0 mph24.1 kmh 30.51 in1033.2 mb 0.00 in0.0 mm 0.00 in/hr0.0 mm/hr 0.00 in0.0 mm
02:44 PM 37.4°F3.0°C 24.4°F-4.2°C 59% 6.0 mph SSE9.7 kmh SSE 15.0 mph24.1 kmh 30.51 in1033.2 mb 0.00 in0.0 mm 0.00 in/hr0.0 mm/hr 0.00 in0.0 mm
02:43 PM 37.4°F3.0°C 24.4°F-4.2°C 59% 9.0 mph SSE14.5 kmh SSE 15.0 mph24.1 kmh 30.51 in1033.2 mb 0.00 in0.0 mm 0.00 in/hr0.0 mm/hr 0.00 in0.0 mm
02:40 PM 37.4°F3.0°C 24.4°F-4.2°C 59% 7.0 mph SSE11.3 kmh SSE 13.0 mph20.9 kmh 30.51 in1033.2 mb 0.00 in0.0 mm 0.00 in/hr0.0 mm/hr 0.00 in0.0 mm
02:39 PM 37.5°F3.1°C 24.5°F-4.2°C 59% 7.0 mph SSE11.3 kmh SSE 13.0 mph20.9 kmh 30.51 in1033.2 mb 0.00 in0.0 mm 0.00 in/hr0.0 mm/hr 0.00 in0.0 mm
02:38 PM 37.5°F3.1°C 24.1°F-4.4°C 58% 5.0 mph SSE8.0 kmh SSE 13.0 mph20.9 kmh 30.51 in1033.2 mb 0.00 in0.0 mm 0.00 in/hr0.0 mm/hr 0.00 in0.0 mm
02:35 PM 37.8°F3.2°C 24.0°F-4.4°C 57% 9.0 mph S14.5 kmh S 13.0 mph20.9 kmh 30.51 in1033.2 mb 0.00 in0.0 mm 0.00 in/hr0.0 mm/hr 0.00 in0.0 mm
02:34 PM 37.8°F3.2°C 24.0°F-4.4°C 57% 6.0 mph S9.7 kmh S 12.0 mph19.3 kmh 30.51 in1033.2 mb 0.00 in0.0 mm 0.00 in/hr0.0 mm/hr 0.00 in0.0 mm
02:33 PM 37.8°F3.2°C 24.0°F-4.4°C 57% 3.0 mph S4.8 kmh S 12.0 mph19.3 kmh 30.51 in1033.2 mb 0.00 in0.0 mm 0.00 in/hr0.0 mm/hr 0.00 in0.0 mm
02:30 PM 37.9°F3.3°C 25.3°F-3.7°C 60% 6.0 mph SSE9.7 kmh SSE 12.0 mph19.3 kmh 30.51 in1033.2 mb 0.00 in0.0 mm 0.00 in/hr0.0 mm/hr 0.00 in0.0 mm
02:29 PM 37.9°F3.3°C 24.9°F-3.9°C 59% 7.0 mph SSE11.3 kmh SSE 12.0 mph19.3 kmh 30.51 in1033.2 mb 0.00 in0.0 mm 0.00 in/hr0.0 mm/hr 0.00 in0.0 mm
02:28 PM 37.8°F3.2°C 24.8°F-4.0°C 59% 9.0 mph SSE14.5 kmh SSE 12.0 mph19.3 kmh 30.51 in1033.2 mb 0.00 in0.0 mm 0.00 in/hr0.0 mm/hr 0.00 in0.0 mm
02:25 PM 37.6°F3.1°C 23.8°F-4.6°C 57% 6.0 mph SSE9.7 kmh SSE 12.0 mph19.3 kmh 30.51 in1033.2 mb 0.00 in0.0 mm 0.00 in/hr0.0 mm/hr 0.00 in0.0 mm
02:24 PM 37.5°F3.1°C 23.7°F-4.6°C 57% 2.0 mph SSE3.2 kmh SSE 12.0 mph19.3 kmh 30.51 in1033.2 mb 0.00 in0.0 mm 0.00 in/hr0.0 mm/hr 0.00 in0.0 mm
02:23 PM 37.5°F3.1°C 24.9°F-3.9°C 60% 2.0 mph SSE3.2 kmh SSE 12.0 mph19.3 kmh 30.51 in1033.2 mb 0.00 in0.0 mm 0.00 in/hr0.0 mm/hr 0.00 in0.0 mm
02:20 PM 37.4°F3.0°C 25.2°F-3.8°C 61% 5.0 mph S8.0 kmh S 12.0 mph19.3 kmh 30.51 in1033.2 mb 0.00 in0.0 mm 0.00 in/hr0.0 mm/hr 0.00 in0.0 mm
02:19 PM 37.3°F2.9°C 25.1°F-3.8°C 61% 5.0 mph S8.0 kmh S 12.0 mph19.3 kmh 30.51 in1033.2 mb 0.00 in0.0 mm 0.00 in/hr0.0 mm/hr 0.00 in0.0 mm
02:18 PM 37.2°F2.9°C 25.0°F-3.9°C 61% 6.0 mph S9.7 kmh S 12.0 mph19.3 kmh 30.51 in1033.2 mb 0.00 in0.0 mm 0.00 in/hr0.0 mm/hr 0.00 in0.0 mm
02:15 PM 37.1°F2.8°C 25.3°F-3.7°C 62% 5.0 mph S8.0 kmh S 12.0 mph19.3 kmh 30.52 in1033.5 mb 0.00 in0.0 mm 0.00 in/hr0.0 mm/hr 0.00 in0.0 mm
02:14 PM 37.2°F2.9°C 25.4°F-3.7°C 62% 5.0 mph S8.0 kmh S 12.0 mph19.3 kmh 30.52 in1033.5 mb 0.00 in0.0 mm 0.00 in/hr0.0 mm/hr 0.00 in0.0 mm
02:13 PM 37.2°F2.9°C 25.0°F-3.9°C 61% 6.0 mph S9.7 kmh S 12.0 mph19.3 kmh 30.52 in1033.5 mb 0.00 in0.0 mm 0.00 in/hr0.0 mm/hr 0.00 in0.0 mm
02:10 PM 37.2°F2.9°C 25.0°F-3.9°C 61% 6.0 mph S9.7 kmh S 12.0 mph19.3 kmh 30.52 in1033.5 mb 0.00 in0.0 mm 0.00 in/hr0.0 mm/hr 0.00 in0.0 mm
02:09 PM 37.1°F2.8°C 24.9°F-3.9°C 61% 5.0 mph S8.0 kmh S 12.0 mph19.3 kmh 30.52 in1033.5 mb 0.00 in0.0 mm 0.00 in/hr0.0 mm/hr 0.00 in0.0 mm
02:08 PM 37.2°F2.9°C 25.0°F-3.9°C 61% 7.0 mph S11.3 kmh S 12.0 mph19.3 kmh 30.52 in1033.5 mb 0.00 in0.0 mm 0.00 in/hr0.0 mm/hr 0.00 in0.0 mm
02:05 PM 37.4°F3.0°C 25.6°F-3.6°C 62% 7.0 mph SSE11.3 kmh SSE 12.0 mph19.3 kmh 30.52 in1033.5 mb 0.00 in0.0 mm 0.00 in/hr0.0 mm/hr 0.00 in0.0 mm
02:04 PM 37.5°F3.1°C 25.7°F-3.5°C 62% 5.0 mph SSE8.0 kmh SSE 12.0 mph19.3 kmh 30.52 in1033.5 mb 0.00 in0.0 mm 0.00 in/hr0.0 mm/hr 0.00 in0.0 mm
02:03 PM 37.5°F3.1°C 25.3°F-3.7°C 61% 4.0 mph SSE6.4 kmh SSE 12.0 mph19.3 kmh 30.52 in1033.5 mb 0.00 in0.0 mm 0.00 in/hr0.0 mm/hr 0.00 in0.0 mm
02:00 PM 38.0°F3.3°C 25.8°F-3.4°C 61% 4.0 mph SSE6.4 kmh SSE 5.0 mph8.0 kmh 30.51 in1033.2 mb 0.00 in0.0 mm 0.00 in/hr0.0 mm/hr 0.00 in0.0 mm
01:59 PM 38.1°F3.4°C 25.9°F-3.4°C 61% 9.0 mph SSE14.5 kmh SSE 14.0 mph22.5 kmh 30.51 in1033.2 mb 0.00 in0.0 mm 0.00 in/hr0.0 mm/hr 0.00 in0.0 mm
01:58 PM 38.0°F3.3°C 25.8°F-3.4°C 61% 5.0 mph S8.0 kmh S 12.0 mph19.3 kmh 30.51 in1033.2 mb 0.00 in0.0 mm 0.00 in/hr0.0 mm/hr 0.00 in0.0 mm
01:55 PM 37.9°F3.3°C 26.8°F-2.9°C 64% 4.0 mph S6.4 kmh S 12.0 mph19.3 kmh 30.52 in1033.5 mb 0.00 in0.0 mm 0.00 in/hr0.0 mm/hr 0.00 in0.0 mm
01:54 PM 37.7°F3.2°C 25.9°F-3.4°C 62% 4.0 mph S6.4 kmh S 12.0 mph19.3 kmh 30.52 in1033.5 mb 0.00 in0.0 mm 0.00 in/hr0.0 mm/hr 0.00 in0.0 mm
01:53 PM 37.4°F3.0°C 26.0°F-3.3°C 63% 4.0 mph S6.4 kmh S 12.0 mph19.3 kmh 30.52 in1033.5 mb 0.00 in0.0 mm 0.00 in/hr0.0 mm/hr 0.00 in0.0 mm
01:50 PM 37.1°F2.8°C 25.7°F-3.5°C 63% 4.0 mph SSE6.4 kmh SSE 12.0 mph19.3 kmh 30.52 in1033.5 mb 0.00 in0.0 mm 0.00 in/hr0.0 mm/hr 0.00 in0.0 mm
01:49 PM 37.1°F2.8°C 25.7°F-3.5°C 63% 8.0 mph SSE12.9 kmh SSE 12.0 mph19.3 kmh 30.52 in1033.5 mb 0.00 in0.0 mm 0.00 in/hr0.0 mm/hr 0.00 in0.0 mm
01:48 PM 36.9°F2.7°C 25.5°F-3.6°C 63% 4.0 mph S6.4 kmh S 12.0 mph19.3 kmh 30.52 in1033.5 mb 0.00 in0.0 mm 0.00 in/hr0.0 mm/hr 0.00 in0.0 mm
01:45 PM 36.9°F2.7°C 25.1°F-3.8°C 62% 6.0 mph SSE9.7 kmh SSE 12.0 mph19.3 kmh 30.52 in1033.5 mb 0.00 in0.0 mm 0.00 in/hr0.0 mm/hr 0.00 in0.0 mm
01:44 PM 36.9°F2.7°C 25.1°F-3.8°C 62% 4.0 mph SSE6.4 kmh SSE 12.0 mph19.3 kmh 30.52 in1033.5 mb 0.00 in0.0 mm 0.00 in/hr0.0 mm/hr 0.00 in0.0 mm
01:43 PM 36.9°F2.7°C 24.7°F-4.1°C 61% 9.0 mph SSE14.5 kmh SSE 12.0 mph19.3 kmh 30.52 in1033.5 mb 0.00 in0.0 mm 0.00 in/hr0.0 mm/hr 0.00 in0.0 mm
01:40 PM 37.0°F2.8°C 25.2°F-3.8°C 62% 10.0 mph S16.1 kmh S 12.0 mph19.3 kmh 30.52 in1033.5 mb 0.00 in0.0 mm 0.00 in/hr0.0 mm/hr 0.00 in0.0 mm
01:39 PM 36.9°F2.7°C 25.1°F-3.8°C 62% 4.0 mph SSE6.4 kmh SSE 12.0 mph19.3 kmh 30.52 in1033.5 mb 0.00 in0.0 mm 0.00 in/hr0.0 mm/hr 0.00 in0.0 mm
01:38 PM 36.8°F2.7°C 25.0°F-3.9°C 62% 6.0 mph SSE9.7 kmh SSE 12.0 mph19.3 kmh 30.52 in1033.5 mb 0.00 in0.0 mm 0.00 in/hr0.0 mm/hr 0.00 in0.0 mm
01:35 PM 36.5°F2.5°C 25.9°F-3.4°C 65% 5.0 mph SSE8.0 kmh SSE 12.0 mph19.3 kmh 30.52 in1033.5 mb 0.00 in0.0 mm 0.00 in/hr0.0 mm/hr 0.00 in0.0 mm
01:34 PM 36.3°F2.4°C 26.1°F-3.3°C 66% 6.0 mph SSE9.7 kmh SSE 12.0 mph19.3 kmh 30.52 in1033.5 mb 0.00 in0.0 mm 0.00 in/hr0.0 mm/hr 0.00 in0.0 mm
01:33 PM 36.3°F2.4°C 25.7°F-3.5°C 65% 7.0 mph SSE11.3 kmh SSE 12.0 mph19.3 kmh 30.52 in1033.5 mb 0.00 in0.0 mm 0.00 in/hr0.0 mm/hr 0.00 in0.0 mm
01:30 PM 36.1°F2.3°C 25.5°F-3.6°C 65% 5.0 mph SSE8.0 kmh SSE 12.0 mph19.3 kmh 30.52 in1033.5 mb 0.00 in0.0 mm 0.00 in/hr0.0 mm/hr 0.00 in0.0 mm
01:29 PM 35.9°F2.2°C 25.3°F-3.7°C 65% 5.0 mph SSE8.0 kmh SSE 12.0 mph19.3 kmh 30.52 in1033.5 mb 0.00 in0.0 mm 0.00 in/hr0.0 mm/hr 0.00 in0.0 mm
01:28 PM 35.9°F2.2°C 25.7°F-3.5°C 66% 2.0 mph SSE3.2 kmh SSE 12.0 mph19.3 kmh 30.52 in1033.5 mb 0.00 in0.0 mm 0.00 in/hr0.0 mm/hr 0.00 in0.0 mm
01:25 PM 35.5°F1.9°C 25.3°F-3.7°C 66% 6.0 mph SSE9.7 kmh SSE 12.0 mph19.3 kmh 30.52 in1033.5 mb 0.00 in0.0 mm 0.00 in/hr0.0 mm/hr 0.00 in0.0 mm
01:24 PM 35.4°F1.9°C 25.2°F-3.8°C 66% 2.0 mph SSE3.2 kmh SSE 12.0 mph19.3 kmh 30.52 in1033.5 mb 0.00 in0.0 mm 0.00 in/hr0.0 mm/hr 0.00 in0.0 mm
01:23 PM 35.4°F1.9°C 24.8°F-4.0°C 65% 6.0 mph SSE9.7 kmh SSE 12.0 mph19.3 kmh 30.52 in1033.5 mb 0.00 in0.0 mm 0.00 in/hr0.0 mm/hr 0.00 in0.0 mm
01:20 PM 35.3°F1.8°C 24.7°F-4.1°C 65% 7.0 mph SSE11.3 kmh SSE 12.0 mph19.3 kmh 30.52 in1033.5 mb 0.00 in0.0 mm 0.00 in/hr0.0 mm/hr 0.00 in0.0 mm
01:19 PM 35.3°F1.8°C 24.7°F-4.1°C 65% 5.0 mph SSE8.0 kmh SSE 12.0 mph19.3 kmh 30.52 in1033.5 mb 0.00 in0.0 mm 0.00 in/hr0.0 mm/hr 0.00 in0.0 mm
01:18 PM 35.4°F1.9°C 24.8°F-4.0°C 65% 8.0 mph SSE12.9 kmh SSE 12.0 mph19.3 kmh 30.52 in1033.5 mb 0.00 in0.0 mm 0.00 in/hr0.0 mm/hr 0.00 in0.0 mm
01:15 PM 35.7°F2.1°C 25.1°F-3.8°C 65% 2.0 mph SSE3.2 kmh SSE 12.0 mph19.3 kmh 30.52 in1033.5 mb 0.00 in0.0 mm 0.00 in/hr0.0 mm/hr 0.00 in0.0 mm
01:14 PM 35.8°F2.1°C 25.6°F-3.6°C 66% 11.0 mph SSE17.7 kmh SSE 12.0 mph19.3 kmh 30.52 in1033.5 mb 0.00 in0.0 mm 0.00 in/hr0.0 mm/hr 0.00 in0.0 mm
01:13 PM 35.7°F2.1°C 25.8°F-3.4°C 67% 6.0 mph SSE9.7 kmh SSE 11.0 mph17.7 kmh 30.52 in1033.5 mb 0.00 in0.0 mm 0.00 in/hr0.0 mm/hr 0.00 in0.0 mm
01:10 PM 35.4°F1.9°C 25.6°F-3.6°C 67% 5.0 mph SSE8.0 kmh SSE 11.0 mph17.7 kmh 30.52 in1033.5 mb 0.00 in0.0 mm 0.00 in/hr0.0 mm/hr 0.00 in0.0 mm
01:09 PM 35.4°F1.9°C 25.6°F-3.6°C 67% 6.0 mph SSE9.7 kmh SSE 11.0 mph17.7 kmh 30.52 in1033.5 mb 0.00 in0.0 mm 0.00 in/hr0.0 mm/hr 0.00 in0.0 mm
01:08 PM 35.3°F1.8°C 25.5°F-3.6°C 67% 5.0 mph SSE8.0 kmh SSE 11.0 mph17.7 kmh 30.52 in1033.5 mb 0.00 in0.0 mm 0.00 in/hr0.0 mm/hr 0.00 in0.0 mm
01:05 PM 34.8°F1.6°C 24.6°F-4.1°C 66% 5.0 mph SSE8.0 kmh SSE 11.0 mph17.7 kmh 30.52 in1033.5 mb 0.00 in0.0 mm 0.00 in/hr0.0 mm/hr 0.00 in0.0 mm
01:04 PM 34.8°F1.6°C 24.6°F-4.1°C 66% 7.0 mph SSE11.3 kmh SSE 11.0 mph17.7 kmh 30.52 in1033.5 mb 0.00 in0.0 mm 0.00 in/hr0.0 mm/hr 0.00 in0.0 mm
01:03 PM 34.9°F1.6°C 24.7°F-4.1°C 66% 11.0 mph SSE17.7 kmh SSE 11.0 mph17.7 kmh 30.52 in1033.5 mb 0.00 in0.0 mm 0.00 in/hr0.0 mm/hr 0.00 in0.0 mm
01:00 PM 34.8°F1.6°C 24.6°F-4.1°C 66% 6.0 mph SSE9.7 kmh SSE 7.0 mph11.3 kmh 30.52 in1033.5 mb 0.00 in0.0 mm 0.00 in/hr0.0 mm/hr 0.00 in0.0 mm
12:59 PM 34.6°F1.4°C 24.4°F-4.2°C 66% 5.0 mph SSE8.0 kmh SSE 13.0 mph20.9 kmh 30.52 in1033.5 mb 0.00 in0.0 mm 0.00 in/hr0.0 mm/hr 0.00 in0.0 mm
12:58 PM 34.5°F1.4°C 24.3°F-4.3°C 66% 5.0 mph SSE8.0 kmh SSE 13.0 mph20.9 kmh 30.52 in1033.5 mb 0.00 in0.0 mm 0.00 in/hr0.0 mm/hr 0.00 in0.0 mm
12:55 PM 34.4°F1.3°C 23.9°F-4.5°C 65% 5.0 mph SSE8.0 kmh SSE 13.0 mph20.9 kmh 30.52 in1033.5 mb 0.00 in0.0 mm 0.00 in/hr0.0 mm/hr 0.00 in0.0 mm
12:54 PM 34.5°F1.4°C 23.6°F-4.7°C 64% 6.0 mph SSE9.7 kmh SSE 13.0 mph20.9 kmh 30.52 in1033.5 mb 0.00 in0.0 mm 0.00 in/hr0.0 mm/hr 0.00 in0.0 mm
12:53 PM 34.7°F1.5°C 23.8°F-4.6°C 64% 8.0 mph SSE12.9 kmh SSE 13.0 mph20.9 kmh 30.52 in1033.5 mb 0.00 in0.0 mm 0.00 in/hr0.0 mm/hr 0.00 in0.0 mm
12:50 PM 34.8°F1.6°C 24.3°F-4.3°C 65% 7.0 mph SSE11.3 kmh SSE 13.0 mph20.9 kmh 30.52 in1033.5 mb 0.00 in0.0 mm 0.00 in/hr0.0 mm/hr 0.00 in0.0 mm
12:49 PM 34.7°F1.5°C 23.8°F-4.6°C 64% 6.0 mph SSE9.7 kmh SSE 13.0 mph20.9 kmh 30.52 in1033.5 mb 0.00 in0.0 mm 0.00 in/hr0.0 mm/hr 0.00 in0.0 mm
12:48 PM 34.7°F1.5°C 23.8°F-4.6°C 64% 6.0 mph SSE9.7 kmh SSE 13.0 mph20.9 kmh 30.52 in1033.5 mb 0.00 in0.0 mm 0.00 in/hr0.0 mm/hr 0.00 in0.0 mm
12:45 PM 34.6°F1.4°C 24.1°F-4.4°C 65% 4.0 mph S6.4 kmh S 13.0 mph20.9 kmh 30.52 in1033.5 mb 0.00 in0.0 mm 0.00 in/hr0.0 mm/hr 0.00 in0.0 mm
12:44 PM 34.3°F1.3°C 23.8°F-4.6°C 65% 5.0 mph S8.0 kmh S 13.0 mph20.9 kmh 30.52 in1033.5 mb 0.00 in0.0 mm 0.00 in/hr0.0 mm/hr 0.00 in0.0 mm
12:43 PM 34.1°F1.2°C 24.0°F-4.4°C 66% 7.0 mph S11.3 kmh S 13.0 mph20.9 kmh 30.52 in1033.5 mb 0.00 in0.0 mm 0.00 in/hr0.0 mm/hr 0.00 in0.0 mm
12:40 PM 33.7°F0.9°C 23.6°F-4.7°C 66% 4.0 mph S6.4 kmh S 13.0 mph20.9 kmh 30.52 in1033.5 mb 0.00 in0.0 mm 0.00 in/hr0.0 mm/hr 0.00 in0.0 mm
12:39 PM 33.6°F0.9°C 23.5°F-4.7°C 66% 6.0 mph S9.7 kmh S 13.0 mph20.9 kmh 30.52 in1033.5 mb 0.00 in0.0 mm 0.00 in/hr0.0 mm/hr 0.00 in0.0 mm
12:38 PM 33.5°F0.8°C 23.0°F-5.0°C 65% 4.0 mph SSE6.4 kmh SSE 13.0 mph20.9 kmh 30.52 in1033.5 mb 0.00 in0.0 mm 0.00 in/hr0.0 mm/hr 0.00 in0.0 mm
12:35 PM 33.6°F0.9°C 23.1°F-4.9°C 65% 7.0 mph SSE11.3 kmh SSE 13.0 mph20.9 kmh 30.52 in1033.5 mb 0.00 in0.0 mm 0.00 in/hr0.0 mm/hr 0.00 in0.0 mm
12:34 PM 33.7°F0.9°C 23.2°F-4.9°C 65% 10.0 mph S16.1 kmh S 13.0 mph20.9 kmh 30.52 in1033.5 mb 0.00 in0.0 mm 0.00 in/hr0.0 mm/hr 0.00 in0.0 mm
12:33 PM 33.7°F0.9°C 23.2°F-4.9°C 65% 6.0 mph S9.7 kmh S 13.0 mph20.9 kmh 30.52 in1033.5 mb 0.00 in0.0 mm 0.00 in/hr0.0 mm/hr 0.00 in0.0 mm
12:30 PM 33.6°F0.9°C 23.5°F-4.7°C 66% 5.0 mph S8.0 kmh S 13.0 mph20.9 kmh 30.52 in1033.5 mb 0.00 in0.0 mm 0.00 in/hr0.0 mm/hr 0.00 in0.0 mm
12:29 PM 33.6°F0.9°C 23.5°F-4.7°C 66% 5.0 mph S8.0 kmh S 13.0 mph20.9 kmh 30.52 in1033.5 mb 0.00 in0.0 mm 0.00 in/hr0.0 mm/hr 0.00 in0.0 mm
12:28 PM 33.5°F0.8°C 23.4°F-4.8°C 66% 5.0 mph SSE8.0 kmh SSE 13.0 mph20.9 kmh 30.52 in1033.5 mb 0.00 in0.0 mm 0.00 in/hr0.0 mm/hr 0.00 in0.0 mm
12:25 PM 33.4°F0.8°C 22.9°F-5.1°C 65% 5.0 mph S8.0 kmh S 13.0 mph20.9 kmh 30.52 in1033.5 mb 0.00 in0.0 mm 0.00 in/hr0.0 mm/hr 0.00 in0.0 mm
12:24 PM 33.4°F0.8°C 22.9°F-5.1°C 65% 5.0 mph S8.0 kmh S 13.0 mph20.9 kmh 30.52 in1033.5 mb 0.00 in0.0 mm 0.00 in/hr0.0 mm/hr 0.00 in0.0 mm
12:23 PM 33.5°F0.8°C 23.0°F-5.0°C 65% 7.0 mph S11.3 kmh S 13.0 mph20.9 kmh 30.52 in1033.5 mb 0.00 in0.0 mm 0.00 in/hr0.0 mm/hr 0.00 in0.0 mm
12:20 PM 33.5°F0.8°C 23.0°F-5.0°C 65% 4.0 mph S6.4 kmh S 13.0 mph20.9 kmh 30.52 in1033.5 mb 0.00 in0.0 mm 0.00 in/hr0.0 mm/hr 0.00 in0.0 mm
12:19 PM 33.6°F0.9°C 23.1°F-4.9°C 65% 7.0 mph S11.3 kmh S 13.0 mph20.9 kmh 30.52 in1033.5 mb 0.00 in0.0 mm 0.00 in/hr0.0 mm/hr 0.00 in0.0 mm
12:18 PM 33.5°F0.8°C 23.0°F-5.0°C 65% 6.0 mph S9.7 kmh S 13.0 mph20.9 kmh 30.52 in1033.5 mb 0.00 in0.0 mm 0.00 in/hr0.0 mm/hr 0.00 in0.0 mm
12:15 PM 33.2°F0.7°C 22.7°F-5.2°C 65% 6.0 mph S9.7 kmh S 13.0 mph20.9 kmh 30.52 in1033.5 mb 0.00 in0.0 mm 0.00 in/hr0.0 mm/hr 0.00 in0.0 mm
12:14 PM 33.0°F0.6°C 22.9°F-5.1°C 66% 3.0 mph S4.8 kmh S 13.0 mph20.9 kmh 30.52 in1033.5 mb 0.00 in0.0 mm 0.00 in/hr0.0 mm/hr 0.00 in0.0 mm
12:13 PM 32.8°F0.4°C 22.3°F-5.4°C 65% 2.0 mph S3.2 kmh S 13.0 mph20.9 kmh 30.52 in1033.5 mb 0.00 in0.0 mm 0.00 in/hr0.0 mm/hr 0.00 in0.0 mm
12:10 PM 32.4°F0.2°C 21.6°F-5.8°C 64% 4.0 mph S6.4 kmh S 13.0 mph20.9 kmh 30.52 in1033.5 mb 0.00 in0.0 mm 0.00 in/hr0.0 mm/hr 0.00 in0.0 mm
12:09 PM 32.5°F0.3°C 21.7°F-5.7°C 64% 9.0 mph S14.5 kmh S 13.0 mph20.9 kmh 30.53 in1033.9 mb 0.00 in0.0 mm 0.00 in/hr0.0 mm/hr 0.00 in0.0 mm
12:08 PM 32.5°F0.3°C 21.7°F-5.7°C 64% 8.0 mph SSE12.9 kmh SSE 13.0 mph20.9 kmh 30.52 in1033.5 mb 0.00 in0.0 mm 0.00 in/hr0.0 mm/hr 0.00 in0.0 mm
12:05 PM 33.0°F0.6°C 21.8°F-5.7°C 63% 9.0 mph SSE14.5 kmh SSE 12.0 mph19.3 kmh 30.52 in1033.5 mb 0.00 in0.0 mm 0.00 in/hr0.0 mm/hr 0.00 in0.0 mm
12:04 PM 33.0°F0.6°C 21.8°F-5.7°C 63% 7.0 mph S11.3 kmh S 12.0 mph19.3 kmh 30.52 in1033.5 mb 0.00 in0.0 mm 0.00 in/hr0.0 mm/hr 0.00 in0.0 mm
12:03 PM 33.0°F0.6°C 21.8°F-5.7°C 63% 2.0 mph SSE3.2 kmh SSE 12.0 mph19.3 kmh 30.52 in1033.5 mb 0.00 in0.0 mm 0.00 in/hr0.0 mm/hr 0.00 in0.0 mm
12:00 PM 33.0°F0.6°C 22.2°F-5.4°C 64% 4.0 mph S6.4 kmh S 5.0 mph8.0 kmh 30.52 in1033.5 mb 0.00 in0.0 mm 0.00 in/hr0.0 mm/hr 0.00 in0.0 mm
11:59 AM 33.0°F0.6°C 22.2°F-5.4°C 64% 6.0 mph S9.7 kmh S 13.0 mph20.9 kmh 30.52 in1033.5 mb 0.00 in0.0 mm 0.00 in/hr0.0 mm/hr 0.00 in0.0 mm
11:58 AM 32.8°F0.4°C 22.3°F-5.4°C 65% 2.0 mph S3.2 kmh S 13.0 mph20.9 kmh 30.52 in1033.5 mb 0.00 in0.0 mm 0.00 in/hr0.0 mm/hr 0.00 in0.0 mm
11:55 AM 32.5°F0.3°C 21.3°F-5.9°C 63% 8.0 mph S12.9 kmh S 13.0 mph20.9 kmh 30.52 in1033.5 mb 0.00 in0.0 mm 0.00 in/hr0.0 mm/hr 0.00 in0.0 mm
11:54 AM 32.5°F0.3°C 21.3°F-5.9°C 63% 8.0 mph S12.9 kmh S 13.0 mph20.9 kmh 30.52 in1033.5 mb 0.00 in0.0 mm 0.00 in/hr0.0 mm/hr 0.00 in0.0 mm
11:53 AM 32.5°F0.3°C 21.3°F-5.9°C 63% 7.0 mph S11.3 kmh S 13.0 mph20.9 kmh 30.52 in1033.5 mb 0.00 in0.0 mm 0.00 in/hr0.0 mm/hr 0.00 in0.0 mm
11:50 AM 32.5°F0.3°C 21.3°F-5.9°C 63% 5.0 mph S8.0 kmh S 13.0 mph20.9 kmh 30.52 in1033.5 mb 0.00 in0.0 mm 0.00 in/hr0.0 mm/hr 0.00 in0.0 mm
11:49 AM 32.5°F0.3°C 21.3°F-5.9°C 63% 2.0 mph S3.2 kmh S 13.0 mph20.9 kmh 30.52 in1033.5 mb 0.00 in0.0 mm 0.00 in/hr0.0 mm/hr 0.00 in0.0 mm
11:48 AM 32.5°F0.3°C 21.3°F-5.9°C 63% 5.0 mph S8.0 kmh S 13.0 mph20.9 kmh 30.52 in1033.5 mb 0.00 in0.0 mm 0.00 in/hr0.0 mm/hr 0.00 in0.0 mm
11:45 AM 32.6°F0.3°C 21.4°F-5.9°C 63% 2.0 mph S3.2 kmh S 12.0 mph19.3 kmh 30.52 in1033.5 mb 0.00 in0.0 mm 0.00 in/hr0.0 mm/hr 0.00 in0.0 mm
11:44 AM 32.5°F0.3°C 20.9°F-6.2°C 62% 5.0 mph S8.0 kmh S 12.0 mph19.3 kmh 30.52 in1033.5 mb 0.00 in0.0 mm 0.00 in/hr0.0 mm/hr 0.00 in0.0 mm
11:43 AM 32.4°F0.2°C 20.9°F-6.2°C 62% 2.0 mph S3.2 kmh S 12.0 mph19.3 kmh 30.52 in1033.5 mb 0.00 in0.0 mm 0.00 in/hr0.0 mm/hr 0.00 in0.0 mm
11:40 AM 32.5°F0.3°C 20.9°F-6.2°C 62% 10.0 mph S16.1 kmh S 12.0 mph19.3 kmh 30.52 in1033.5 mb 0.00 in0.0 mm 0.00 in/hr0.0 mm/hr 0.00 in0.0 mm
11:39 AM 32.4°F0.2°C 20.5°F-6.4°C 61% 12.0 mph S19.3 kmh S 12.0 mph19.3 kmh 30.52 in1033.5 mb 0.00 in0.0 mm 0.00 in/hr0.0 mm/hr 0.00 in0.0 mm
11:38 AM 32.4°F0.2°C 20.1°F-6.6°C 60% 7.0 mph S11.3 kmh S 12.0 mph19.3 kmh 30.52 in1033.5 mb 0.00 in0.0 mm 0.00 in/hr0.0 mm/hr 0.00 in0.0 mm
11:35 AM 32.5°F0.3°C 19.8°F-6.8°C 59% 7.0 mph S11.3 kmh S 12.0 mph19.3 kmh 30.52 in1033.5 mb 0.00 in0.0 mm 0.00 in/hr0.0 mm/hr 0.00 in0.0 mm
11:34 AM 32.4°F0.2°C 20.1°F-6.6°C 60% 5.0 mph S8.0 kmh S 12.0 mph19.3 kmh 30.52 in1033.5 mb 0.00 in0.0 mm 0.00 in/hr0.0 mm/hr 0.00 in0.0 mm
11:33 AM 32.3°F0.2°C 19.6°F-6.9°C 59% 7.0 mph S11.3 kmh S 12.0 mph19.3 kmh 30.52 in1033.5 mb 0.00 in0.0 mm 0.00 in/hr0.0 mm/hr 0.00 in0.0 mm
11:30 AM 32.5°F0.3°C 19.8°F-6.8°C 59% 6.0 mph S9.7 kmh S 12.0 mph19.3 kmh 30.52 in1033.5 mb 0.00 in0.0 mm 0.00 in/hr0.0 mm/hr 0.00 in0.0 mm
11:29 AM 32.5°F0.3°C 19.8°F-6.8°C 59% 7.0 mph S11.3 kmh S 12.0 mph19.3 kmh 30.52 in1033.5 mb 0.00 in0.0 mm 0.00 in/hr0.0 mm/hr 0.00 in0.0 mm
11:28 AM 32.5°F0.3°C 19.8°F-6.8°C 59% 4.0 mph S6.4 kmh S 12.0 mph19.3 kmh 30.51 in1033.2 mb 0.00 in0.0 mm 0.00 in/hr0.0 mm/hr 0.00 in0.0 mm
11:25 AM 32.2°F0.1°C 19.5°F-6.9°C 59% 9.0 mph S14.5 kmh S 12.0 mph19.3 kmh 30.52 in1033.5 mb 0.00 in0.0 mm 0.00 in/hr0.0 mm/hr 0.00 in0.0 mm
11:24 AM 32.1°F0.1°C 19.4°F-7.0°C 59% 6.0 mph S9.7 kmh S 12.0 mph19.3 kmh 30.52 in1033.5 mb 0.00 in0.0 mm 0.00 in/hr0.0 mm/hr 0.00 in0.0 mm
11:23 AM 32.0°F0.0°C 18.9°F-7.3°C 58% 5.0 mph S8.0 kmh S 12.0 mph19.3 kmh 30.52 in1033.5 mb 0.00 in0.0 mm 0.00 in/hr0.0 mm/hr 0.00 in0.0 mm
11:20 AM 31.9°F-0.1°C 18.4°F-7.6°C 57% 5.0 mph S8.0 kmh S 12.0 mph19.3 kmh 30.52 in1033.5 mb 0.00 in0.0 mm 0.00 in/hr0.0 mm/hr 0.00 in0.0 mm
11:19 AM 31.8°F-0.1°C 18.3°F-7.6°C 57% 4.0 mph S6.4 kmh S 12.0 mph19.3 kmh 30.52 in1033.5 mb 0.00 in0.0 mm 0.00 in/hr0.0 mm/hr 0.00 in0.0 mm
11:18 AM 31.9°F-0.1°C 18.4°F-7.6°C 57% 5.0 mph S8.0 kmh S 12.0 mph19.3 kmh 30.52 in1033.5 mb 0.00 in0.0 mm 0.00 in/hr0.0 mm/hr 0.00 in0.0 mm
11:15 AM 31.8°F-0.1°C 19.1°F-7.2°C 59% 7.0 mph S11.3 kmh S 12.0 mph19.3 kmh 30.51 in1033.2 mb 0.00 in0.0 mm 0.00 in/hr0.0 mm/hr 0.00 in0.0 mm
11:14 AM 31.6°F-0.2°C 18.9°F-7.3°C 59% 4.0 mph S6.4 kmh S 12.0 mph19.3 kmh 30.51 in1033.2 mb 0.00 in0.0 mm 0.00 in/hr0.0 mm/hr 0.00 in0.0 mm
11:13 AM 31.5°F-0.3°C 18.8°F-7.3°C 59% 4.0 mph S6.4 kmh S 12.0 mph19.3 kmh 30.51 in1033.2 mb 0.00 in0.0 mm 0.00 in/hr0.0 mm/hr 0.00 in0.0 mm
11:10 AM 31.5°F-0.3°C 18.0°F-7.8°C 57% 6.0 mph S9.7 kmh S 12.0 mph19.3 kmh 30.51 in1033.2 mb 0.00 in0.0 mm 0.00 in/hr0.0 mm/hr 0.00 in0.0 mm
11:09 AM 31.5°F-0.3°C 17.6°F-8.0°C 56% 3.0 mph S4.8 kmh S 12.0 mph19.3 kmh 30.51 in1033.2 mb 0.00 in0.0 mm 0.00 in/hr0.0 mm/hr 0.00 in0.0 mm
11:08 AM 31.6°F-0.2°C 18.1°F-7.7°C 57% 5.0 mph S8.0 kmh S 12.0 mph19.3 kmh 30.51 in1033.2 mb 0.00 in0.0 mm 0.00 in/hr0.0 mm/hr 0.00 in0.0 mm
11:05 AM 31.7°F-0.2°C 19.0°F-7.2°C 59% 5.0 mph S8.0 kmh S 10.0 mph16.1 kmh 30.51 in1033.2 mb 0.00 in0.0 mm 0.00 in/hr0.0 mm/hr 0.00 in0.0 mm
11:04 AM 31.6°F-0.2°C 18.5°F-7.5°C 58% 6.0 mph S9.7 kmh S 10.0 mph16.1 kmh 30.51 in1033.2 mb 0.00 in0.0 mm 0.00 in/hr0.0 mm/hr 0.00 in0.0 mm
11:03 AM 31.5°F-0.3°C 18.4°F-7.6°C 58% 6.0 mph S9.7 kmh S 10.0 mph16.1 kmh 30.51 in1033.2 mb 0.00 in0.0 mm 0.00 in/hr0.0 mm/hr 0.00 in0.0 mm
11:00 AM 31.4°F-0.3°C 17.9°F-7.8°C 57% 4.0 mph S6.4 kmh S 4.0 mph6.4 kmh 30.51 in1033.2 mb 0.00 in0.0 mm 0.00 in/hr0.0 mm/hr 0.00 in0.0 mm
10:59 AM 31.4°F-0.3°C 17.9°F-7.8°C 57% 7.0 mph S11.3 kmh S 12.0 mph19.3 kmh 30.51 in1033.2 mb 0.00 in0.0 mm 0.00 in/hr0.0 mm/hr 0.00 in0.0 mm
10:58 AM 31.4°F-0.3°C 17.9°F-7.8°C 57% 3.0 mph S4.8 kmh S 12.0 mph19.3 kmh 30.51 in1033.2 mb 0.00 in0.0 mm 0.00 in/hr0.0 mm/hr 0.00 in0.0 mm
10:55 AM 31.5°F-0.3°C 18.0°F-7.8°C 57% 6.0 mph S9.7 kmh S 12.0 mph19.3 kmh 30.51 in1033.2 mb 0.00 in0.0 mm 0.00 in/hr0.0 mm/hr 0.00 in0.0 mm
10:54 AM 31.5°F-0.3°C 18.0°F-7.8°C 57% 4.0 mph S6.4 kmh S 12.0 mph19.3 kmh 30.51 in1033.2 mb 0.00 in0.0 mm 0.00 in/hr0.0 mm/hr 0.00 in0.0 mm
10:53 AM 31.6°F-0.2°C 18.1°F-7.7°C 57% 4.0 mph S6.4 kmh S 12.0 mph19.3 kmh 30.50 in1032.8 mb 0.00 in0.0 mm 0.00 in/hr0.0 mm/hr 0.00 in0.0 mm
10:50 AM 31.9°F-0.1°C 18.8°F-7.3°C 58% 10.0 mph S16.1 kmh S 11.0 mph17.7 kmh 30.50 in1032.8 mb 0.00 in0.0 mm 0.00 in/hr0.0 mm/hr 0.00 in0.0 mm
10:49 AM 31.7°F-0.2°C 19.0°F-7.2°C 59% 5.0 mph S8.0 kmh S 10.0 mph16.1 kmh 30.50 in1032.8 mb 0.00 in0.0 mm 0.00 in/hr0.0 mm/hr 0.00 in0.0 mm
10:48 AM 31.5°F-0.3°C 18.8°F-7.3°C 59% 1.0 mph S1.6 kmh S 10.0 mph16.1 kmh 30.50 in1032.8 mb 0.00 in0.0 mm 0.00 in/hr0.0 mm/hr 0.00 in0.0 mm
10:45 AM 31.2°F-0.4°C 18.6°F-7.4°C 59% 6.0 mph S9.7 kmh S 10.0 mph16.1 kmh 30.50 in1032.8 mb 0.00 in0.0 mm 0.00 in/hr0.0 mm/hr 0.00 in0.0 mm
10:44 AM 31.0°F-0.6°C 18.0°F-7.8°C 58% 4.0 mph S6.4 kmh S 10.0 mph16.1 kmh 30.50 in1032.8 mb 0.00 in0.0 mm 0.00 in/hr0.0 mm/hr 0.00 in0.0 mm
10:43 AM 30.9°F-0.6°C 17.9°F-7.8°C 58% 3.0 mph S4.8 kmh S 10.0 mph16.1 kmh 30.50 in1032.8 mb 0.00 in0.0 mm 0.00 in/hr0.0 mm/hr 0.00 in0.0 mm
10:40 AM 30.7°F-0.7°C 17.7°F-7.9°C 58% 5.0 mph S8.0 kmh S 10.0 mph16.1 kmh 30.50 in1032.8 mb 0.00 in0.0 mm 0.00 in/hr0.0 mm/hr 0.00 in0.0 mm
10:39 AM 30.7°F-0.7°C 17.3°F-8.2°C 57% 1.0 mph S1.6 kmh S 10.0 mph16.1 kmh 30.50 in1032.8 mb 0.00 in0.0 mm 0.00 in/hr0.0 mm/hr 0.00 in0.0 mm
10:38 AM 30.6°F-0.8°C 17.2°F-8.2°C 57% 3.0 mph S4.8 kmh S 10.0 mph16.1 kmh 30.50 in1032.8 mb 0.00 in0.0 mm 0.00 in/hr0.0 mm/hr 0.00 in0.0 mm
10:35 AM 30.7°F-0.7°C 18.1°F-7.7°C 59% 5.0 mph S8.0 kmh S 10.0 mph16.1 kmh 30.50 in1032.8 mb 0.00 in0.0 mm 0.00 in/hr0.0 mm/hr 0.00 in0.0 mm
10:34 AM 30.6°F-0.8°C 17.6°F-8.0°C 58% 6.0 mph S9.7 kmh S 10.0 mph16.1 kmh 30.50 in1032.8 mb 0.00 in0.0 mm 0.00 in/hr0.0 mm/hr 0.00 in0.0 mm
10:33 AM 30.6°F-0.8°C 17.6°F-8.0°C 58% 4.0 mph S6.4 kmh S 10.0 mph16.1 kmh 30.50 in1032.8 mb 0.00 in0.0 mm 0.00 in/hr0.0 mm/hr 0.00 in0.0 mm
10:30 AM 30.5°F-0.8°C 17.1°F-8.3°C 57% 4.0 mph S6.4 kmh S 10.0 mph16.1 kmh 30.50 in1032.8 mb 0.00 in0.0 mm 0.00 in/hr0.0 mm/hr 0.00 in0.0 mm
10:29 AM 30.5°F-0.8°C 17.1°F-8.3°C 57% 1.0 mph S1.6 kmh S 10.0 mph16.1 kmh 30.49 in1032.5 mb 0.00 in0.0 mm 0.00 in/hr0.0 mm/hr 0.00 in0.0 mm
10:28 AM 30.6°F-0.8°C 17.2°F-8.2°C 57% 5.0 mph S8.0 kmh S 10.0 mph16.1 kmh 30.49 in1032.5 mb 0.00 in0.0 mm 0.00 in/hr0.0 mm/hr 0.00 in0.0 mm
10:25 AM 30.4°F-0.9°C 17.4°F-8.1°C 58% 5.0 mph S8.0 kmh S 10.0 mph16.1 kmh 30.49 in1032.5 mb 0.00 in0.0 mm 0.00 in/hr0.0 mm/hr 0.00 in0.0 mm
10:24 AM 30.4°F-0.9°C 17.8°F-7.9°C 59% 3.0 mph S4.8 kmh S 10.0 mph16.1 kmh 30.49 in1032.5 mb 0.00 in0.0 mm 0.00 in/hr0.0 mm/hr 0.00 in0.0 mm
10:23 AM 30.3°F-0.9°C 17.7°F-7.9°C 59% 3.0 mph S4.8 kmh S 10.0 mph16.1 kmh 30.49 in1032.5 mb 0.00 in0.0 mm 0.00 in/hr0.0 mm/hr 0.00 in0.0 mm
10:20 AM 30.1°F-1.1°C 17.1°F-8.3°C 58% 3.0 mph S4.8 kmh S 10.0 mph16.1 kmh 30.49 in1032.5 mb 0.00 in0.0 mm 0.00 in/hr0.0 mm/hr 0.00 in0.0 mm
10:19 AM 30.1°F-1.1°C 17.1°F-8.3°C 58% 5.0 mph S8.0 kmh S 10.0 mph16.1 kmh 30.49 in1032.5 mb 0.00 in0.0 mm 0.00 in/hr0.0 mm/hr 0.00 in0.0 mm
10:18 AM 30.1°F-1.1°C 17.1°F-8.3°C 58% 5.0 mph S8.0 kmh S 10.0 mph16.1 kmh 30.49 in1032.5 mb 0.00 in0.0 mm 0.00 in/hr0.0 mm/hr 0.00 in0.0 mm
10:15 AM 30.2°F-1.0°C 16.8°F-8.4°C 57% 4.0 mph S6.4 kmh S 10.0 mph16.1 kmh 30.49 in1032.5 mb 0.00 in0.0 mm 0.00 in/hr0.0 mm/hr 0.00 in0.0 mm
10:14 AM 30.2°F-1.0°C 17.2°F-8.2°C 58% 5.0 mph S8.0 kmh S 10.0 mph16.1 kmh 30.49 in1032.5 mb 0.00 in0.0 mm 0.00 in/hr0.0 mm/hr 0.00 in0.0 mm
10:13 AM 30.2°F-1.0°C 17.2°F-8.2°C 58% 4.0 mph S6.4 kmh S 9.0 mph14.5 kmh 30.49 in1032.5 mb 0.00 in0.0 mm 0.00 in/hr0.0 mm/hr 0.00 in0.0 mm
10:10 AM 30.1°F-1.1°C 16.7°F-8.5°C 57% 3.0 mph SW4.8 kmh SW 8.0 mph12.9 kmh 30.48 in1032.2 mb 0.00 in0.0 mm 0.00 in/hr0.0 mm/hr 0.00 in0.0 mm
10:09 AM 30.1°F-1.1°C 16.7°F-8.5°C 57% 2.0 mph SW3.2 kmh SW 8.0 mph12.9 kmh 30.49 in1032.5 mb 0.00 in0.0 mm 0.00 in/hr0.0 mm/hr 0.00 in0.0 mm
10:08 AM 30.1°F-1.1°C 16.7°F-8.5°C 57% 6.0 mph SW9.7 kmh SW 8.0 mph12.9 kmh 30.49 in1032.5 mb 0.00 in0.0 mm 0.00 in/hr0.0 mm/hr 0.00 in0.0 mm
10:05 AM 30.1°F-1.1°C 16.7°F-8.5°C 57% 3.0 mph SW4.8 kmh SW 8.0 mph12.9 kmh 30.48 in1032.2 mb 0.00 in0.0 mm 0.00 in/hr0.0 mm/hr 0.00 in0.0 mm
10:04 AM 30.1°F-1.1°C 16.3°F-8.7°C 56% 3.0 mph WSW4.8 kmh WSW 7.0 mph11.3 kmh 30.48 in1032.2 mb 0.00 in0.0 mm 0.00 in/hr0.0 mm/hr 0.00 in0.0 mm
10:03 AM 30.1°F-1.1°C 16.3°F-8.7°C 56% 5.0 mph WSW8.0 kmh WSW 7.0 mph11.3 kmh 30.48 in1032.2 mb 0.00 in0.0 mm 0.00 in/hr0.0 mm/hr 0.00 in0.0 mm
10:00 AM 30.1°F-1.1°C 16.7°F-8.5°C 57% 2.0 mph WSW3.2 kmh WSW 3.0 mph4.8 kmh 30.48 in1032.2 mb 0.00 in0.0 mm 0.00 in/hr0.0 mm/hr 0.00 in0.0 mm
09:59 AM 30.1°F-1.1°C 16.7°F-8.5°C 57% 2.0 mph WSW3.2 kmh WSW 9.0 mph14.5 kmh 30.48 in1032.2 mb 0.00 in0.0 mm 0.00 in/hr0.0 mm/hr 0.00 in0.0 mm
09:58 AM 30.1°F-1.1°C 16.7°F-8.5°C 57% 7.0 mph WSW11.3 kmh WSW 9.0 mph14.5 kmh 30.48 in1032.2 mb 0.00 in0.0 mm 0.00 in/hr0.0 mm/hr 0.00 in0.0 mm
09:55 AM 30.2°F-1.0°C 16.4°F-8.7°C 56% 3.0 mph WNW4.8 kmh WNW 7.0 mph11.3 kmh 30.48 in1032.2 mb 0.00 in0.0 mm 0.00 in/hr0.0 mm/hr 0.00 in0.0 mm
09:54 AM 30.2°F-1.0°C 16.4°F-8.7°C 56% 3.0 mph WNW4.8 kmh WNW 7.0 mph11.3 kmh 30.48 in1032.2 mb 0.00 in0.0 mm 0.00 in/hr0.0 mm/hr 0.00 in0.0 mm
09:53 AM 30.2°F-1.0°C 16.4°F-8.7°C 56% 3.0 mph WNW4.8 kmh WNW 7.0 mph11.3 kmh 30.48 in1032.2 mb 0.00 in0.0 mm 0.00 in/hr0.0 mm/hr 0.00 in0.0 mm
09:50 AM 30.1°F-1.1°C 16.3°F-8.7°C 56% Calm Calm 7.0 mph11.3 kmh 30.48 in1032.2 mb 0.00 in0.0 mm 0.00 in/hr0.0 mm/hr 0.00 in0.0 mm
09:49 AM 30.0°F-1.1°C 16.2°F-8.8°C 56% 4.0 mph NW6.4 kmh NW 7.0 mph11.3 kmh 30.48 in1032.2 mb 0.00 in0.0 mm 0.00 in/hr0.0 mm/hr 0.00 in0.0 mm
09:48 AM 29.9°F-1.2°C 18.1°F-7.7°C 61% Calm Calm 7.0 mph11.3 kmh 30.48 in1032.2 mb 0.00 in0.0 mm 0.00 in/hr0.0 mm/hr 0.00 in0.0 mm
09:45 AM 29.6°F-1.3°C 15.8°F-9.0°C 56% Calm Calm 7.0 mph11.3 kmh 30.47 in1031.8 mb 0.00 in0.0 mm 0.00 in/hr0.0 mm/hr 0.00 in0.0 mm
09:44 AM 29.5°F-1.4°C 15.3°F-9.3°C 55% Calm Calm 7.0 mph11.3 kmh 30.47 in1031.8 mb 0.00 in0.0 mm 0.00 in/hr0.0 mm/hr 0.00 in0.0 mm
09:43 AM 29.4°F-1.4°C 15.2°F-9.3°C 55% Calm Calm 7.0 mph11.3 kmh 30.47 in1031.8 mb 0.00 in0.0 mm 0.00 in/hr0.0 mm/hr 0.00 in0.0 mm
09:40 AM 29.3°F-1.5°C 15.6°F-9.1°C 56% 1.0 mph NW1.6 kmh NW 7.0 mph11.3 kmh 30.47 in1031.8 mb 0.00 in0.0 mm 0.00 in/hr0.0 mm/hr 0.00 in0.0 mm
09:39 AM 29.1°F-1.6°C 15.8°F-9.0°C 57% 3.0 mph NW4.8 kmh NW 7.0 mph11.3 kmh 30.47 in1031.8 mb 0.00 in0.0 mm 0.00 in/hr0.0 mm/hr 0.00 in0.0 mm
09:38 AM 29.1°F-1.6°C 15.8°F-9.0°C 57% 3.0 mph NW4.8 kmh NW 7.0 mph11.3 kmh 30.47 in1031.8 mb 0.00 in0.0 mm 0.00 in/hr0.0 mm/hr 0.00 in0.0 mm
09:35 AM 28.7°F-1.8°C 15.0°F-9.4°C 56% Calm Calm 7.0 mph11.3 kmh 30.47 in1031.8 mb 0.00 in0.0 mm 0.00 in/hr0.0 mm/hr 0.00 in0.0 mm
09:34 AM 28.6°F-1.9°C 14.9°F-9.5°C 56% Calm Calm 7.0 mph11.3 kmh 30.47 in1031.8 mb 0.00 in0.0 mm 0.00 in/hr0.0 mm/hr 0.00 in0.0 mm
09:33 AM 28.6°F-1.9°C 14.9°F-9.5°C 56% Calm Calm 7.0 mph11.3 kmh 30.47 in1031.8 mb 0.00 in0.0 mm 0.00 in/hr0.0 mm/hr 0.00 in0.0 mm
09:30 AM 28.4°F-2.0°C 14.3°F-9.8°C 55% 1.0 mph NW1.6 kmh NW 7.0 mph11.3 kmh 30.46 in1031.5 mb 0.00 in0.0 mm 0.00 in/hr0.0 mm/hr 0.00 in0.0 mm
09:29 AM 28.4°F-2.0°C 14.3°F-9.8°C 55% Calm Calm 7.0 mph11.3 kmh 30.46 in1031.5 mb 0.00 in0.0 mm 0.00 in/hr0.0 mm/hr 0.00 in0.0 mm
09:28 AM 28.4°F-2.0°C 14.3°F-9.8°C 55% 3.0 mph NW4.8 kmh NW 7.0 mph11.3 kmh 30.46 in1031.5 mb 0.00 in0.0 mm 0.00 in/hr0.0 mm/hr 0.00 in0.0 mm
09:25 AM 28.4°F-2.0°C 14.7°F-9.6°C 56% 4.0 mph NW6.4 kmh NW 7.0 mph11.3 kmh 30.46 in1031.5 mb 0.00 in0.0 mm 0.00 in/hr0.0 mm/hr 0.00 in0.0 mm
09:24 AM 28.4°F-2.0°C 14.3°F-9.8°C 55% 3.0 mph NW4.8 kmh NW 7.0 mph11.3 kmh 30.46 in1031.5 mb 0.00 in0.0 mm 0.00 in/hr0.0 mm/hr 0.00 in0.0 mm
09:23 AM 28.4°F-2.0°C 14.3°F-9.8°C 55% 3.0 mph NW4.8 kmh NW 7.0 mph11.3 kmh 30.46 in1031.5 mb 0.00 in0.0 mm 0.00 in/hr0.0 mm/hr 0.00 in0.0 mm
09:20 AM 28.4°F-2.0°C 13.9°F-10.1°C 54% 2.0 mph NW3.2 kmh NW 7.0 mph11.3 kmh 30.46 in1031.5 mb 0.00 in0.0 mm 0.00 in/hr0.0 mm/hr 0.00 in0.0 mm
09:19 AM 28.4°F-2.0°C 14.3°F-9.8°C 55% 4.0 mph NW6.4 kmh NW 7.0 mph11.3 kmh 30.46 in1031.5 mb 0.00 in0.0 mm 0.00 in/hr0.0 mm/hr 0.00 in0.0 mm
09:18 AM 28.4°F-2.0°C 14.3°F-9.8°C 55% 6.0 mph NW9.7 kmh NW 6.0 mph9.7 kmh 30.46 in1031.5 mb 0.00 in0.0 mm 0.00 in/hr0.0 mm/hr 0.00 in0.0 mm
09:15 AM 28.3°F-2.1°C 14.6°F-9.7°C 56% 2.0 mph NW3.2 kmh NW 6.0 mph9.7 kmh 30.46 in1031.5 mb 0.00 in0.0 mm 0.00 in/hr0.0 mm/hr 0.00 in0.0 mm
09:14 AM 28.2°F-2.1°C 14.1°F-9.9°C 55% 4.0 mph NW6.4 kmh NW 6.0 mph9.7 kmh 30.46 in1031.5 mb 0.00 in0.0 mm 0.00 in/hr0.0 mm/hr 0.00 in0.0 mm
09:13 AM 28.2°F-2.1°C 14.1°F-9.9°C 55% 4.0 mph NW6.4 kmh NW 6.0 mph9.7 kmh 30.46 in1031.5 mb 0.00 in0.0 mm 0.00 in/hr0.0 mm/hr 0.00 in0.0 mm
09:10 AM 28.1°F-2.2°C 14.8°F-9.6°C 57% 4.0 mph NW6.4 kmh NW 6.0 mph9.7 kmh 30.47 in1031.8 mb 0.00 in0.0 mm 0.00 in/hr0.0 mm/hr 0.00 in0.0 mm
09:09 AM 28.0°F-2.2°C 15.2°F-9.3°C 58% 3.0 mph NW4.8 kmh NW 4.0 mph6.4 kmh 30.46 in1031.5 mb 0.00 in0.0 mm 0.00 in/hr0.0 mm/hr 0.00 in0.0 mm
09:08 AM 27.8°F-2.3°C 15.0°F-9.4°C 58% 3.0 mph NW4.8 kmh NW 4.0 mph6.4 kmh 30.46 in1031.5 mb 0.00 in0.0 mm 0.00 in/hr0.0 mm/hr 0.00 in0.0 mm
09:05 AM 27.4°F-2.6°C 14.6°F-9.7°C 58% 1.0 mph NW1.6 kmh NW 4.0 mph6.4 kmh 30.46 in1031.5 mb 0.00 in0.0 mm 0.00 in/hr0.0 mm/hr 0.00 in0.0 mm
09:04 AM 27.3°F-2.6°C 14.5°F-9.7°C 58% 2.0 mph NW3.2 kmh NW 4.0 mph6.4 kmh 30.46 in1031.5 mb 0.00 in0.0 mm 0.00 in/hr0.0 mm/hr 0.00 in0.0 mm
09:03 AM 27.3°F-2.6°C 14.1°F-9.9°C 57% 1.0 mph NW1.6 kmh NW 4.0 mph6.4 kmh 30.46 in1031.5 mb 0.00 in0.0 mm 0.00 in/hr0.0 mm/hr 0.00 in0.0 mm
09:00 AM 27.4°F-2.6°C 14.2°F-9.9°C 57% 3.0 mph NW4.8 kmh NW 3.0 mph4.8 kmh 30.46 in1031.5 mb 0.00 in0.0 mm 0.00 in/hr0.0 mm/hr 0.00 in0.0 mm
08:59 AM 27.4°F-2.6°C 14.6°F-9.7°C 58% 3.0 mph NW4.8 kmh NW 6.0 mph9.7 kmh 30.46 in1031.5 mb 0.00 in0.0 mm 0.00 in/hr0.0 mm/hr 0.00 in0.0 mm
08:58 AM 27.4°F-2.6°C 14.6°F-9.7°C 58% 3.0 mph NW4.8 kmh NW 6.0 mph9.7 kmh 30.46 in1031.5 mb 0.00 in0.0 mm 0.00 in/hr0.0 mm/hr 0.00 in0.0 mm
08:55 AM 27.2°F-2.7°C 14.0°F-10.0°C 57% 3.0 mph NW4.8 kmh NW 6.0 mph9.7 kmh 30.46 in1031.5 mb 0.00 in0.0 mm 0.00 in/hr0.0 mm/hr 0.00 in0.0 mm
08:54 AM 27.2°F-2.7°C 14.0°F-10.0°C 57% 3.0 mph NW4.8 kmh NW 6.0 mph9.7 kmh 30.46 in1031.5 mb 0.00 in0.0 mm 0.00 in/hr0.0 mm/hr 0.00 in0.0 mm
08:53 AM 27.1°F-2.7°C 13.9°F-10.1°C 57% 3.0 mph NW4.8 kmh NW 6.0 mph9.7 kmh 30.46 in1031.5 mb 0.00 in0.0 mm 0.00 in/hr0.0 mm/hr 0.00 in0.0 mm
08:50 AM 27.0°F-2.8°C 13.8°F-10.1°C 57% 4.0 mph NW6.4 kmh NW 6.0 mph9.7 kmh 30.46 in1031.5 mb 0.00 in0.0 mm 0.00 in/hr0.0 mm/hr 0.00 in0.0 mm
08:49 AM 26.9°F-2.8°C 13.7°F-10.2°C 57% 2.0 mph NW3.2 kmh NW 6.0 mph9.7 kmh 30.45 in1031.2 mb 0.00 in0.0 mm 0.00 in/hr0.0 mm/hr 0.00 in0.0 mm
08:48 AM 26.9°F-2.8°C 14.1°F-9.9°C 58% 5.0 mph NW8.0 kmh NW 6.0 mph9.7 kmh 30.45 in1031.2 mb 0.00 in0.0 mm 0.00 in/hr0.0 mm/hr 0.00 in0.0 mm
08:45 AM 26.7°F-2.9°C 13.9°F-10.1°C 58% 3.0 mph NW4.8 kmh NW 6.0 mph9.7 kmh 30.46 in1031.5 mb 0.00 in0.0 mm 0.00 in/hr0.0 mm/hr 0.00 in0.0 mm
08:44 AM 26.6°F-3.0°C 13.8°F-10.1°C 58% 3.0 mph NW4.8 kmh NW 6.0 mph9.7 kmh 30.46 in1031.5 mb 0.00 in0.0 mm 0.00 in/hr0.0 mm/hr 0.00 in0.0 mm
08:43 AM 26.5°F-3.1°C 13.7°F-10.2°C 58% 5.0 mph NW8.0 kmh NW 6.0 mph9.7 kmh 30.45 in1031.2 mb 0.00 in0.0 mm 0.00 in/hr0.0 mm/hr 0.00 in0.0 mm
08:40 AM 26.3°F-3.2°C 13.2°F-10.4°C 57% 3.0 mph NW4.8 kmh NW 6.0 mph9.7 kmh 30.45 in1031.2 mb 0.00 in0.0 mm 0.00 in/hr0.0 mm/hr 0.00 in0.0 mm
08:39 AM 26.3°F-3.2°C 13.2°F-10.4°C 57% 4.0 mph NW6.4 kmh NW 6.0 mph9.7 kmh 30.45 in1031.2 mb 0.00 in0.0 mm 0.00 in/hr0.0 mm/hr 0.00 in0.0 mm
08:38 AM 26.3°F-3.2°C 13.2°F-10.4°C 57% 2.0 mph NW3.2 kmh NW 6.0 mph9.7 kmh 30.45 in1031.2 mb 0.00 in0.0 mm 0.00 in/hr0.0 mm/hr 0.00 in0.0 mm
08:35 AM 26.3°F-3.2°C 13.6°F-10.2°C 58% Calm Calm 6.0 mph9.7 kmh 30.45 in1031.2 mb 0.00 in0.0 mm 0.00 in/hr0.0 mm/hr 0.00 in0.0 mm
08:34 AM 26.2°F-3.2°C 13.5°F-10.3°C 58% 3.0 mph NW4.8 kmh NW 6.0 mph9.7 kmh 30.45 in1031.2 mb 0.00 in0.0 mm 0.00 in/hr0.0 mm/hr 0.00 in0.0 mm
08:33 AM 26.2°F-3.2°C 13.5°F-10.3°C 58% 4.0 mph NW6.4 kmh NW 6.0 mph9.7 kmh 30.45 in1031.2 mb 0.00 in0.0 mm 0.00 in/hr0.0 mm/hr 0.00 in0.0 mm
08:30 AM 26.1°F-3.3°C 13.4°F-10.3°C 58% 4.0 mph NW6.4 kmh NW 6.0 mph9.7 kmh 30.45 in1031.2 mb 0.00 in0.0 mm 0.00 in/hr0.0 mm/hr 0.00 in0.0 mm
08:29 AM 26.1°F-3.3°C 13.4°F-10.3°C 58% 5.0 mph NW8.0 kmh NW 6.0 mph9.7 kmh 30.45 in1031.2 mb 0.00 in0.0 mm 0.00 in/hr0.0 mm/hr 0.00 in0.0 mm
08:28 AM 26.1°F-3.3°C 13.4°F-10.3°C 58% 2.0 mph NW3.2 kmh NW 6.0 mph9.7 kmh 30.45 in1031.2 mb 0.00 in0.0 mm 0.00 in/hr0.0 mm/hr 0.00 in0.0 mm
08:25 AM 26.1°F-3.3°C 13.4°F-10.3°C 58% 2.0 mph NW3.2 kmh NW 6.0 mph9.7 kmh 30.44 in1030.8 mb 0.00 in0.0 mm 0.00 in/hr0.0 mm/hr 0.00 in0.0 mm
08:24 AM 26.0°F-3.3°C 13.3°F-10.4°C 58% 2.0 mph NW3.2 kmh NW 6.0 mph9.7 kmh 30.45 in1031.2 mb 0.00 in0.0 mm 0.00 in/hr0.0 mm/hr 0.00 in0.0 mm
08:23 AM 26.0°F-3.3°C 13.3°F-10.4°C 58% 4.0 mph NW6.4 kmh NW 6.0 mph9.7 kmh 30.45 in1031.2 mb 0.00 in0.0 mm 0.00 in/hr0.0 mm/hr 0.00 in0.0 mm
08:20 AM 25.9°F-3.4°C 13.2°F-10.4°C 58% 4.0 mph NW6.4 kmh NW 6.0 mph9.7 kmh 30.45 in1031.2 mb 0.00 in0.0 mm 0.00 in/hr0.0 mm/hr 0.00 in0.0 mm
08:19 AM 25.9°F-3.4°C 13.2°F-10.4°C 58% 2.0 mph NW3.2 kmh NW 6.0 mph9.7 kmh 30.45 in1031.2 mb 0.00 in0.0 mm 0.00 in/hr0.0 mm/hr 0.00 in0.0 mm
08:18 AM 25.9°F-3.4°C 13.2°F-10.4°C 58% 4.0 mph NW6.4 kmh NW 6.0 mph9.7 kmh 30.44 in1030.8 mb 0.00 in0.0 mm 0.00 in/hr0.0 mm/hr 0.00 in0.0 mm
08:15 AM 25.8°F-3.4°C 13.1°F-10.5°C 58% 1.0 mph NW1.6 kmh NW 6.0 mph9.7 kmh 30.45 in1031.2 mb 0.00 in0.0 mm 0.00 in/hr0.0 mm/hr 0.00 in0.0 mm
08:14 AM 25.7°F-3.5°C 13.0°F-10.6°C 58% 4.0 mph NW6.4 kmh NW 6.0 mph9.7 kmh 30.45 in1031.2 mb 0.00 in0.0 mm 0.00 in/hr0.0 mm/hr 0.00 in0.0 mm
08:13 AM 25.7°F-3.5°C 13.0°F-10.6°C 58% 4.0 mph NW6.4 kmh NW 6.0 mph9.7 kmh 30.45 in1031.2 mb 0.00 in0.0 mm 0.00 in/hr0.0 mm/hr 0.00 in0.0 mm
08:10 AM 25.9°F-3.4°C 13.6°F-10.2°C 59% 5.0 mph NW8.0 kmh NW 6.0 mph9.7 kmh 30.45 in1031.2 mb 0.00 in0.0 mm 0.00 in/hr0.0 mm/hr 0.00 in0.0 mm
08:09 AM 25.8°F-3.4°C 13.5°F-10.3°C 59% 4.0 mph NW6.4 kmh NW 6.0 mph9.7 kmh 30.44 in1030.8 mb 0.00 in0.0 mm 0.00 in/hr0.0 mm/hr 0.00 in0.0 mm
08:08 AM 25.8°F-3.4°C 13.5°F-10.3°C 59% 4.0 mph NW6.4 kmh NW 5.0 mph8.0 kmh 30.44 in1030.8 mb 0.00 in0.0 mm 0.00 in/hr0.0 mm/hr 0.00 in0.0 mm
08:05 AM 25.7°F-3.5°C 13.4°F-10.3°C 59% 4.0 mph NW6.4 kmh NW 5.0 mph8.0 kmh 30.44 in1030.8 mb 0.00 in0.0 mm 0.00 in/hr0.0 mm/hr 0.00 in0.0 mm
08:04 AM 25.7°F-3.5°C 13.4°F-10.3°C 59% 2.0 mph NW3.2 kmh NW 4.0 mph6.4 kmh 30.44 in1030.8 mb 0.00 in0.0 mm 0.00 in/hr0.0 mm/hr 0.00 in0.0 mm
08:03 AM 25.6°F-3.6°C 13.3°F-10.4°C 59% Calm Calm 4.0 mph6.4 kmh 30.44 in1030.8 mb 0.00 in0.0 mm 0.00 in/hr0.0 mm/hr 0.00 in0.0 mm
08:00 AM 25.5°F-3.6°C 12.8°F-10.7°C 58% 3.0 mph NW4.8 kmh NW 3.0 mph4.8 kmh 30.44 in1030.8 mb 0.00 in0.0 mm 0.00 in/hr0.0 mm/hr 0.00 in0.0 mm
07:59 AM 25.5°F-3.6°C 12.8°F-10.7°C 58% 3.0 mph NW4.8 kmh NW 7.0 mph11.3 kmh 30.44 in1030.8 mb 0.00 in0.0 mm 0.00 in/hr0.0 mm/hr 0.00 in0.0 mm
07:58 AM 25.4°F-3.7°C 12.7°F-10.7°C 58% 2.0 mph NW3.2 kmh NW 7.0 mph11.3 kmh 30.44 in1030.8 mb 0.00 in0.0 mm 0.00 in/hr0.0 mm/hr 0.00 in0.0 mm
07:55 AM 25.3°F-3.7°C 12.2°F-11.0°C 57% 3.0 mph NW4.8 kmh NW 7.0 mph11.3 kmh 30.44 in1030.8 mb 0.00 in0.0 mm 0.00 in/hr0.0 mm/hr 0.00 in0.0 mm
07:54 AM 25.3°F-3.7°C 12.2°F-11.0°C 57% 3.0 mph NW4.8 kmh NW 7.0 mph11.3 kmh 30.44 in1030.8 mb 0.00 in0.0 mm 0.00 in/hr0.0 mm/hr 0.00 in0.0 mm
07:53 AM 25.3°F-3.7°C 12.2°F-11.0°C 57% Calm Calm 7.0 mph11.3 kmh 30.43 in1030.5 mb 0.00 in0.0 mm 0.00 in/hr0.0 mm/hr 0.00 in0.0 mm
07:50 AM 25.3°F-3.7°C 13.0°F-10.6°C 59% 2.0 mph NW3.2 kmh NW 7.0 mph11.3 kmh 30.43 in1030.5 mb 0.00 in0.0 mm 0.00 in/hr0.0 mm/hr 0.00 in0.0 mm
07:49 AM 25.3°F-3.7°C 13.0°F-10.6°C 59% 2.0 mph NW3.2 kmh NW 7.0 mph11.3 kmh 30.43 in1030.5 mb 0.00 in0.0 mm 0.00 in/hr0.0 mm/hr 0.00 in0.0 mm
07:48 AM 25.3°F-3.7°C 13.0°F-10.6°C 59% 2.0 mph NW3.2 kmh NW 7.0 mph11.3 kmh 30.43 in1030.5 mb 0.00 in0.0 mm 0.00 in/hr0.0 mm/hr 0.00 in0.0 mm
07:45 AM 25.1°F-3.8°C 12.8°F-10.7°C 59% 2.0 mph NW3.2 kmh NW 7.0 mph11.3 kmh 30.43 in1030.5 mb 0.00 in0.0 mm 0.00 in/hr0.0 mm/hr 0.00 in0.0 mm
07:44 AM 25.1°F-3.8°C 12.8°F-10.7°C 59% 3.0 mph NW4.8 kmh NW 7.0 mph11.3 kmh 30.43 in1030.5 mb 0.00 in0.0 mm 0.00 in/hr0.0 mm/hr 0.00 in0.0 mm
07:43 AM 25.1°F-3.8°C 12.8°F-10.7°C 59% 3.0 mph NW4.8 kmh NW 7.0 mph11.3 kmh 30.43 in1030.5 mb 0.00 in0.0 mm 0.00 in/hr0.0 mm/hr 0.00 in0.0 mm
07:40 AM 25.0°F-3.9°C 13.1°F-10.5°C 60% 1.0 mph NW1.6 kmh NW 7.0 mph11.3 kmh 30.43 in1030.5 mb 0.00 in0.0 mm 0.00 in/hr0.0 mm/hr 0.00 in0.0 mm
07:39 AM 24.9°F-3.9°C 12.6°F-10.8°C 59% 2.0 mph NW3.2 kmh NW 7.0 mph11.3 kmh 30.42 in1030.1 mb 0.00 in0.0 mm 0.00 in/hr0.0 mm/hr 0.00 in0.0 mm
07:38 AM 24.9°F-3.9°C 13.0°F-10.6°C 60% 2.0 mph NW3.2 kmh NW 7.0 mph11.3 kmh 30.42 in1030.1 mb 0.00 in0.0 mm 0.00 in/hr0.0 mm/hr 0.00 in0.0 mm
07:35 AM 24.9°F-3.9°C 13.0°F-10.6°C 60% 5.0 mph NW8.0 kmh NW 7.0 mph11.3 kmh 30.42 in1030.1 mb 0.00 in0.0 mm 0.00 in/hr0.0 mm/hr 0.00 in0.0 mm
07:34 AM 24.9°F-3.9°C 13.0°F-10.6°C 60% 2.0 mph NW3.2 kmh NW 7.0 mph11.3 kmh 30.42 in1030.1 mb 0.00 in0.0 mm 0.00 in/hr0.0 mm/hr 0.00 in0.0 mm
07:33 AM 24.8°F-4.0°C 12.9°F-10.6°C 60% 3.0 mph NW4.8 kmh NW 7.0 mph11.3 kmh 30.42 in1030.1 mb 0.00 in0.0 mm 0.00 in/hr0.0 mm/hr 0.00 in0.0 mm
07:30 AM 24.8°F-4.0°C 12.9°F-10.6°C 60% 2.0 mph NW3.2 kmh NW 6.0 mph9.7 kmh 30.42 in1030.1 mb 0.00 in0.0 mm 0.00 in/hr0.0 mm/hr 0.00 in0.0 mm
07:29 AM 24.8°F-4.0°C 12.9°F-10.6°C 60% Calm Calm 6.0 mph9.7 kmh 30.42 in1030.1 mb 0.00 in0.0 mm 0.00 in/hr0.0 mm/hr 0.00 in0.0 mm
07:28 AM 24.8°F-4.0°C 12.9°F-10.6°C 60% 2.0 mph NW3.2 kmh NW 6.0 mph9.7 kmh 30.42 in1030.1 mb 0.00 in0.0 mm 0.00 in/hr0.0 mm/hr 0.00 in0.0 mm
07:25 AM 24.7°F-4.1°C 12.8°F-10.7°C 60% 3.0 mph NW4.8 kmh NW 6.0 mph9.7 kmh 30.41 in1029.8 mb 0.00 in0.0 mm 0.00 in/hr0.0 mm/hr 0.00 in0.0 mm
07:24 AM 24.7°F-4.1°C 12.8°F-10.7°C 60% 4.0 mph NW6.4 kmh NW 6.0 mph9.7 kmh 30.41 in1029.8 mb 0.00 in0.0 mm 0.00 in/hr0.0 mm/hr 0.00 in0.0 mm
07:23 AM 24.7°F-4.1°C 12.8°F-10.7°C 60% 3.0 mph NW4.8 kmh NW 6.0 mph9.7 kmh 30.41 in1029.8 mb 0.00 in0.0 mm 0.00 in/hr0.0 mm/hr 0.00 in0.0 mm
07:20 AM 24.7°F-4.1°C 12.8°F-10.7°C 60% 5.0 mph NW8.0 kmh NW 6.0 mph9.7 kmh 30.41 in1029.8 mb 0.00 in0.0 mm 0.00 in/hr0.0 mm/hr 0.00 in0.0 mm
07:19 AM 24.7°F-4.1°C 13.2°F-10.4°C 61% 4.0 mph NW6.4 kmh NW 6.0 mph9.7 kmh 30.41 in1029.8 mb 0.00 in0.0 mm 0.00 in/hr0.0 mm/hr 0.00 in0.0 mm
07:18 AM 24.6°F-4.1°C 13.1°F-10.5°C 61% 6.0 mph NW9.7 kmh NW 6.0 mph9.7 kmh 30.41 in1029.8 mb 0.00 in0.0 mm 0.00 in/hr0.0 mm/hr 0.00 in0.0 mm
07:15 AM 24.6°F-4.1°C 13.1°F-10.5°C 61% 1.0 mph NW1.6 kmh NW 6.0 mph9.7 kmh 30.41 in1029.8 mb 0.00 in0.0 mm 0.00 in/hr0.0 mm/hr 0.00 in0.0 mm
07:14 AM 24.5°F-4.2°C 13.0°F-10.6°C 61% 1.0 mph NW1.6 kmh NW 6.0 mph9.7 kmh 30.41 in1029.8 mb 0.00 in0.0 mm 0.00 in/hr0.0 mm/hr 0.00 in0.0 mm
07:13 AM 24.5°F-4.2°C 13.0°F-10.6°C 61% 4.0 mph NW6.4 kmh NW 6.0 mph9.7 kmh 30.41 in1029.8 mb 0.00 in0.0 mm 0.00 in/hr0.0 mm/hr 0.00 in0.0 mm
07:10 AM 24.5°F-4.2°C 13.0°F-10.6°C 61% 1.0 mph NW1.6 kmh NW 6.0 mph9.7 kmh 30.41 in1029.8 mb 0.00 in0.0 mm 0.00 in/hr0.0 mm/hr 0.00 in0.0 mm
07:09 AM 24.5°F-4.2°C 13.0°F-10.6°C 61% 3.0 mph NW4.8 kmh NW 6.0 mph9.7 kmh 30.41 in1029.8 mb 0.00 in0.0 mm 0.00 in/hr0.0 mm/hr 0.00 in0.0 mm
07:08 AM 24.5°F-4.2°C 13.0°F-10.6°C 61% 5.0 mph NW8.0 kmh NW 6.0 mph9.7 kmh 30.41 in1029.8 mb 0.00 in0.0 mm 0.00 in/hr0.0 mm/hr 0.00 in0.0 mm
07:05 AM 24.5°F-4.2°C 13.4°F-10.3°C 62% 2.0 mph NNW3.2 kmh NNW 5.0 mph8.0 kmh 30.40 in1029.5 mb 0.00 in0.0 mm 0.00 in/hr0.0 mm/hr 0.00 in0.0 mm
07:04 AM 24.5°F-4.2°C 13.4°F-10.3°C 62% 1.0 mph NNW1.6 kmh NNW 5.0 mph8.0 kmh 30.40 in1029.5 mb 0.00 in0.0 mm 0.00 in/hr0.0 mm/hr 0.00 in0.0 mm
07:03 AM 24.4°F-4.2°C 13.3°F-10.4°C 62% 4.0 mph NNW6.4 kmh NNW 5.0 mph8.0 kmh 30.40 in1029.5 mb 0.00 in0.0 mm 0.00 in/hr0.0 mm/hr 0.00 in0.0 mm
07:00 AM 24.4°F-4.2°C 13.3°F-10.4°C 62% 2.0 mph NNW3.2 kmh NNW 2.0 mph3.2 kmh 30.40 in1029.5 mb 0.00 in0.0 mm 0.00 in/hr0.0 mm/hr 0.00 in0.0 mm
06:59 AM 24.5°F-4.2°C 13.4°F-10.3°C 62% 3.0 mph NNW4.8 kmh NNW 6.0 mph9.7 kmh 30.40 in1029.5 mb 0.00 in0.0 mm 0.00 in/hr0.0 mm/hr 0.00 in0.0 mm
06:58 AM 24.4°F-4.2°C 13.3°F-10.4°C 62% 1.0 mph NNW1.6 kmh NNW 6.0 mph9.7 kmh 30.40 in1029.5 mb 0.00 in0.0 mm 0.00 in/hr0.0 mm/hr 0.00 in0.0 mm
06:55 AM 24.3°F-4.3°C 13.2°F-10.4°C 62% 2.0 mph NNW3.2 kmh NNW 6.0 mph9.7 kmh 30.39 in1029.1 mb 0.00 in0.0 mm 0.00 in/hr0.0 mm/hr 0.00 in0.0 mm
06:54 AM 24.3°F-4.3°C 13.2°F-10.4°C 62% 1.0 mph NNW1.6 kmh NNW 6.0 mph9.7 kmh 30.39 in1029.1 mb 0.00 in0.0 mm 0.00 in/hr0.0 mm/hr 0.00 in0.0 mm
06:53 AM 24.3°F-4.3°C 13.2°F-10.4°C 62% 3.0 mph NNW4.8 kmh NNW 6.0 mph9.7 kmh 30.39 in1029.1 mb 0.00 in0.0 mm 0.00 in/hr0.0 mm/hr 0.00 in0.0 mm
06:50 AM 24.3°F-4.3°C 13.2°F-10.4°C 62% 2.0 mph NNW3.2 kmh NNW 6.0 mph9.7 kmh 30.39 in1029.1 mb 0.00 in0.0 mm 0.00 in/hr0.0 mm/hr 0.00 in0.0 mm
06:49 AM 24.3°F-4.3°C 13.2°F-10.4°C 62% 2.0 mph NNW3.2 kmh NNW 6.0 mph9.7 kmh 30.39 in1029.1 mb 0.00 in0.0 mm 0.00 in/hr0.0 mm/hr 0.00 in0.0 mm
06:48 AM 24.3°F-4.3°C 13.2°F-10.4°C 62% 3.0 mph NNW4.8 kmh NNW 6.0 mph9.7 kmh 30.39 in1029.1 mb 0.00 in0.0 mm 0.00 in/hr0.0 mm/hr 0.00 in0.0 mm
06:45 AM 24.3°F-4.3°C 13.2°F-10.4°C 62% 1.0 mph NNW1.6 kmh NNW 6.0 mph9.7 kmh 30.39 in1029.1 mb 0.00 in0.0 mm 0.00 in/hr0.0 mm/hr 0.00 in0.0 mm
06:44 AM 24.3°F-4.3°C 13.2°F-10.4°C 62% 2.0 mph NNW3.2 kmh NNW 6.0 mph9.7 kmh 30.39 in1029.1 mb 0.00 in0.0 mm 0.00 in/hr0.0 mm/hr 0.00 in0.0 mm
06:43 AM 24.3°F-4.3°C 13.2°F-10.4°C 62% 1.0 mph NNW1.6 kmh NNW 6.0 mph9.7 kmh 30.39 in1029.1 mb 0.00 in0.0 mm 0.00 in/hr0.0 mm/hr 0.00 in0.0 mm
06:40 AM 24.3°F-4.3°C 13.2°F-10.4°C 62% 1.0 mph NNW1.6 kmh NNW 6.0 mph9.7 kmh 30.38 in1028.8 mb 0.00 in0.0 mm 0.00 in/hr0.0 mm/hr 0.00 in0.0 mm
06:39 AM 24.3°F-4.3°C 13.2°F-10.4°C 62% 2.0 mph NNW3.2 kmh NNW 6.0 mph9.7 kmh 30.38 in1028.8 mb 0.00 in0.0 mm 0.00 in/hr0.0 mm/hr 0.00 in0.0 mm
06:38 AM 24.3°F-4.3°C 13.2°F-10.4°C 62% 2.0 mph NNW3.2 kmh NNW 6.0 mph9.7 kmh 30.38 in1028.8 mb 0.00 in0.0 mm 0.00 in/hr0.0 mm/hr 0.00 in0.0 mm
06:35 AM 24.3°F-4.3°C 13.2°F-10.4°C 62% Calm Calm 6.0 mph9.7 kmh 30.37 in1028.4 mb 0.00 in0.0 mm 0.00 in/hr0.0 mm/hr 0.00 in0.0 mm
06:34 AM 24.3°F-4.3°C 13.2°F-10.4°C 62% 2.0 mph NNW3.2 kmh NNW 6.0 mph9.7 kmh 30.37 in1028.4 mb 0.00 in0.0 mm 0.00 in/hr0.0 mm/hr 0.00 in0.0 mm
06:33 AM 24.3°F-4.3°C 13.2°F-10.4°C 62% 2.0 mph NNW3.2 kmh NNW 6.0 mph9.7 kmh 30.38 in1028.8 mb 0.00 in0.0 mm 0.00 in/hr0.0 mm/hr 0.00 in0.0 mm
06:30 AM 24.3°F-4.3°C 12.8°F-10.7°C 61% 1.0 mph NNW1.6 kmh NNW 6.0 mph9.7 kmh 30.37 in1028.4 mb 0.00 in0.0 mm 0.00 in/hr0.0 mm/hr 0.00 in0.0 mm
06:29 AM 24.3°F-4.3°C 12.8°F-10.7°C 61% 3.0 mph NNW4.8 kmh NNW 6.0 mph9.7 kmh 30.37 in1028.4 mb 0.00 in0.0 mm 0.00 in/hr0.0 mm/hr 0.00 in0.0 mm
06:28 AM 24.3°F-4.3°C 12.8°F-10.7°C 61% 3.0 mph NNW4.8 kmh NNW 6.0 mph9.7 kmh 30.37 in1028.4 mb 0.00 in0.0 mm 0.00 in/hr0.0 mm/hr 0.00 in0.0 mm
06:25 AM 24.3°F-4.3°C 12.8°F-10.7°C 61% 4.0 mph NNW6.4 kmh NNW 6.0 mph9.7 kmh 30.37 in1028.4 mb 0.00 in0.0 mm 0.00 in/hr0.0 mm/hr 0.00 in0.0 mm
06:24 AM 24.3°F-4.3°C 12.8°F-10.7°C 61% 2.0 mph NNW3.2 kmh NNW 5.0 mph8.0 kmh 30.37 in1028.4 mb 0.00 in0.0 mm 0.00 in/hr0.0 mm/hr 0.00 in0.0 mm
06:23 AM 24.3°F-4.3°C 12.8°F-10.7°C 61% 5.0 mph NNW8.0 kmh NNW 5.0 mph8.0 kmh 30.37 in1028.4 mb 0.00 in0.0 mm 0.00 in/hr0.0 mm/hr 0.00 in0.0 mm
06:20 AM 24.4°F-4.2°C 12.9°F-10.6°C 61% 1.0 mph NNW1.6 kmh NNW 4.0 mph6.4 kmh 30.37 in1028.4 mb 0.00 in0.0 mm 0.00 in/hr0.0 mm/hr 0.00 in0.0 mm
06:19 AM 24.4°F-4.2°C 12.9°F-10.6°C 61% 2.0 mph NNW3.2 kmh NNW 4.0 mph6.4 kmh 30.36 in1028.1 mb 0.00 in0.0 mm 0.00 in/hr0.0 mm/hr 0.00 in0.0 mm
06:18 AM 24.4°F-4.2°C 12.9°F-10.6°C 61% 2.0 mph NNW3.2 kmh NNW 4.0 mph6.4 kmh 30.36 in1028.1 mb 0.00 in0.0 mm 0.00 in/hr0.0 mm/hr 0.00 in0.0 mm
06:15 AM 24.4°F-4.2°C 12.9°F-10.6°C 61% 3.0 mph NNW4.8 kmh NNW 4.0 mph6.4 kmh 30.36 in1028.1 mb 0.00 in0.0 mm 0.00 in/hr0.0 mm/hr 0.00 in0.0 mm
06:14 AM 24.4°F-4.2°C 12.9°F-10.6°C 61% 2.0 mph NNW3.2 kmh NNW 4.0 mph6.4 kmh 30.36 in1028.1 mb 0.00 in0.0 mm 0.00 in/hr0.0 mm/hr 0.00 in0.0 mm
06:13 AM 24.4°F-4.2°C 12.9°F-10.6°C 61% 2.0 mph NNW3.2 kmh NNW 4.0 mph6.4 kmh 30.36 in1028.1 mb 0.00 in0.0 mm 0.00 in/hr0.0 mm/hr 0.00 in0.0 mm
06:10 AM 24.4°F-4.2°C 12.9°F-10.6°C 61% 2.0 mph NNW3.2 kmh NNW 4.0 mph6.4 kmh 30.36 in1028.1 mb 0.00 in0.0 mm 0.00 in/hr0.0 mm/hr 0.00 in0.0 mm
06:09 AM 24.4°F-4.2°C 12.9°F-10.6°C 61% 2.0 mph NNW3.2 kmh NNW 4.0 mph6.4 kmh 30.36 in1028.1 mb 0.00 in0.0 mm 0.00 in/hr0.0 mm/hr 0.00 in0.0 mm
06:08 AM 24.4°F-4.2°C 12.9°F-10.6°C 61% 2.0 mph NNW3.2 kmh NNW 4.0 mph6.4 kmh 30.35 in1027.8 mb 0.00 in0.0 mm 0.00 in/hr0.0 mm/hr 0.00 in0.0 mm
06:05 AM 24.4°F-4.2°C 12.9°F-10.6°C 61% 4.0 mph NNW6.4 kmh NNW 4.0 mph6.4 kmh 30.35 in1027.8 mb 0.00 in0.0 mm 0.00 in/hr0.0 mm/hr 0.00 in0.0 mm
06:04 AM 24.4°F-4.2°C 12.9°F-10.6°C 61% 3.0 mph NNW4.8 kmh NNW 4.0 mph6.4 kmh 30.35 in1027.8 mb 0.00 in0.0 mm 0.00 in/hr0.0 mm/hr 0.00 in0.0 mm
06:03 AM 24.4°F-4.2°C 12.9°F-10.6°C 61% 4.0 mph NNW6.4 kmh NNW 4.0 mph6.4 kmh 30.35 in1027.8 mb 0.00 in0.0 mm 0.00 in/hr0.0 mm/hr 0.00 in0.0 mm
06:00 AM 24.4°F-4.2°C 12.9°F-10.6°C 61% 1.0 mph NNW1.6 kmh NNW 1.0 mph1.6 kmh 30.35 in1027.8 mb 0.00 in0.0 mm 0.00 in/hr0.0 mm/hr 0.00 in0.0 mm
05:59 AM 24.4°F-4.2°C 12.9°F-10.6°C 61% 2.0 mph NNW3.2 kmh NNW 9.0 mph14.5 kmh 30.34 in1027.4 mb 0.00 in0.0 mm 0.00 in/hr0.0 mm/hr 0.00 in0.0 mm
05:58 AM 24.3°F-4.3°C 12.8°F-10.7°C 61% 2.0 mph NNW3.2 kmh NNW 9.0 mph14.5 kmh 30.34 in1027.4 mb 0.00 in0.0 mm 0.00 in/hr0.0 mm/hr 0.00 in0.0 mm
05:55 AM 24.4°F-4.2°C 12.9°F-10.6°C 61% 4.0 mph NNW6.4 kmh NNW 9.0 mph14.5 kmh 30.34 in1027.4 mb 0.00 in0.0 mm 0.00 in/hr0.0 mm/hr 0.00 in0.0 mm
05:54 AM 24.4°F-4.2°C 12.9°F-10.6°C 61% 3.0 mph NNW4.8 kmh NNW 9.0 mph14.5 kmh 30.34 in1027.4 mb 0.00 in0.0 mm 0.00 in/hr0.0 mm/hr 0.00 in0.0 mm
05:53 AM 24.4°F-4.2°C 12.9°F-10.6°C 61% Calm Calm 9.0 mph14.5 kmh 30.34 in1027.4 mb 0.00 in0.0 mm 0.00 in/hr0.0 mm/hr 0.00 in0.0 mm
05:50 AM 24.4°F-4.2°C 12.9°F-10.6°C 61% 4.0 mph NNW6.4 kmh NNW 9.0 mph14.5 kmh 30.33 in1027.1 mb 0.00 in0.0 mm 0.00 in/hr0.0 mm/hr 0.00 in0.0 mm
05:49 AM 24.4°F-4.2°C 12.9°F-10.6°C 61% 2.0 mph NNW3.2 kmh NNW 9.0 mph14.5 kmh 30.33 in1027.1 mb 0.00 in0.0 mm 0.00 in/hr0.0 mm/hr 0.00 in0.0 mm
05:48 AM 24.3°F-4.3°C 12.8°F-10.7°C 61% Calm Calm 9.0 mph14.5 kmh 30.33 in1027.1 mb 0.00 in0.0 mm 0.00 in/hr0.0 mm/hr 0.00 in0.0 mm
05:45 AM 24.3°F-4.3°C 12.8°F-10.7°C 61% 4.0 mph NNW6.4 kmh NNW 9.0 mph14.5 kmh 30.33 in1027.1 mb 0.00 in0.0 mm 0.00 in/hr0.0 mm/hr 0.00 in0.0 mm
05:44 AM 24.3°F-4.3°C 12.8°F-10.7°C 61% 3.0 mph NNW4.8 kmh NNW 9.0 mph14.5 kmh 30.33 in1027.1 mb 0.00 in0.0 mm 0.00 in/hr0.0 mm/hr 0.00 in0.0 mm
05:43 AM 24.3°F-4.3°C 12.8°F-10.7°C 61% 3.0 mph NNW4.8 kmh NNW 9.0 mph14.5 kmh 30.33 in1027.1 mb 0.00 in0.0 mm 0.00 in/hr0.0 mm/hr 0.00 in0.0 mm
05:40 AM 24.4°F-4.2°C 12.9°F-10.6°C 61% 2.0 mph NNW3.2 kmh NNW 9.0 mph14.5 kmh 30.33 in1027.1 mb 0.00 in0.0 mm 0.00 in/hr0.0 mm/hr 0.00 in0.0 mm
05:39 AM 24.4°F-4.2°C 12.9°F-10.6°C 61% 1.0 mph NNW1.6 kmh NNW 9.0 mph14.5 kmh 30.33 in1027.1 mb 0.00 in0.0 mm 0.00 in/hr0.0 mm/hr 0.00 in0.0 mm
05:38 AM 24.4°F-4.2°C 12.9°F-10.6°C 61% 4.0 mph NNW6.4 kmh NNW 9.0 mph14.5 kmh 30.33 in1027.1 mb 0.00 in0.0 mm 0.00 in/hr0.0 mm/hr 0.00 in0.0 mm
05:35 AM 24.4°F-4.2°C 12.9°F-10.6°C 61% 2.0 mph NNW3.2 kmh NNW 9.0 mph14.5 kmh 30.32 in1026.8 mb 0.00 in0.0 mm 0.00 in/hr0.0 mm/hr 0.00 in0.0 mm
05:34 AM 24.3°F-4.3°C 12.8°F-10.7°C 61% 2.0 mph NNW3.2 kmh NNW 9.0 mph14.5 kmh 30.32 in1026.8 mb 0.00 in0.0 mm 0.00 in/hr0.0 mm/hr 0.00 in0.0 mm
05:33 AM 24.3°F-4.3°C 12.8°F-10.7°C 61% 4.0 mph NNW6.4 kmh NNW 9.0 mph14.5 kmh 30.32 in1026.8 mb 0.00 in0.0 mm 0.00 in/hr0.0 mm/hr 0.00 in0.0 mm
05:30 AM 24.3°F-4.3°C 12.8°F-10.7°C 61% 1.0 mph NW1.6 kmh NW 9.0 mph14.5 kmh 30.32 in1026.8 mb 0.00 in0.0 mm 0.00 in/hr0.0 mm/hr 0.00 in0.0 mm
05:29 AM 24.3°F-4.3°C 12.8°F-10.7°C 61% 4.0 mph NW6.4 kmh NW 9.0 mph14.5 kmh 30.32 in1026.8 mb 0.00 in0.0 mm 0.00 in/hr0.0 mm/hr 0.00 in0.0 mm
05:28 AM 24.3°F-4.3°C 12.8°F-10.7°C 61% 4.0 mph NW6.4 kmh NW 9.0 mph14.5 kmh 30.32 in1026.8 mb 0.00 in0.0 mm 0.00 in/hr0.0 mm/hr 0.00 in0.0 mm
05:25 AM 24.3°F-4.3°C 12.8°F-10.7°C 61% 3.0 mph NW4.8 kmh NW 9.0 mph14.5 kmh 30.32 in1026.8 mb 0.00 in0.0 mm 0.00 in/hr0.0 mm/hr 0.00 in0.0 mm
05:24 AM 24.3°F-4.3°C 12.8°F-10.7°C 61% 4.0 mph NW6.4 kmh NW 9.0 mph14.5 kmh 30.32 in1026.8 mb 0.00 in0.0 mm 0.00 in/hr0.0 mm/hr 0.00 in0.0 mm
05:23 AM 24.3°F-4.3°C 12.8°F-10.7°C 61% 6.0 mph NW9.7 kmh NW 9.0 mph14.5 kmh 30.32 in1026.8 mb 0.00 in0.0 mm 0.00 in/hr0.0 mm/hr 0.00 in0.0 mm
05:20 AM 24.2°F-4.3°C 12.7°F-10.7°C 61% 5.0 mph NW8.0 kmh NW 9.0 mph14.5 kmh 30.32 in1026.8 mb 0.00 in0.0 mm 0.00 in/hr0.0 mm/hr 0.00 in0.0 mm
05:19 AM 24.3°F-4.3°C 12.8°F-10.7°C 61% 2.0 mph NW3.2 kmh NW 9.0 mph14.5 kmh 30.32 in1026.8 mb 0.00 in0.0 mm 0.00 in/hr0.0 mm/hr 0.00 in0.0 mm
05:18 AM 24.3°F-4.3°C 12.8°F-10.7°C 61% 3.0 mph NW4.8 kmh NW 9.0 mph14.5 kmh 30.32 in1026.8 mb 0.00 in0.0 mm 0.00 in/hr0.0 mm/hr 0.00 in0.0 mm
05:15 AM 24.3°F-4.3°C 12.8°F-10.7°C 61% 4.0 mph NW6.4 kmh NW 9.0 mph14.5 kmh 30.32 in1026.8 mb 0.00 in0.0 mm 0.00 in/hr0.0 mm/hr 0.00 in0.0 mm
05:14 AM 24.3°F-4.3°C 12.8°F-10.7°C 61% 2.0 mph NW3.2 kmh NW 9.0 mph14.5 kmh 30.31 in1026.4 mb 0.00 in0.0 mm 0.00 in/hr0.0 mm/hr 0.00 in0.0 mm
05:13 AM 24.3°F-4.3°C 12.8°F-10.7°C 61% 2.0 mph NW3.2 kmh NW 9.0 mph14.5 kmh 30.31 in1026.4 mb 0.00 in0.0 mm 0.00 in/hr0.0 mm/hr 0.00 in0.0 mm
05:10 AM 24.3°F-4.3°C 12.8°F-10.7°C 61% 4.0 mph NW6.4 kmh NW 9.0 mph14.5 kmh 30.31 in1026.4 mb 0.00 in0.0 mm 0.00 in/hr0.0 mm/hr 0.00 in0.0 mm
05:09 AM 24.3°F-4.3°C 12.8°F-10.7°C 61% 8.0 mph NW12.9 kmh NW 9.0 mph14.5 kmh 30.31 in1026.4 mb 0.00 in0.0 mm 0.00 in/hr0.0 mm/hr 0.00 in0.0 mm
05:08 AM 24.3°F-4.3°C 12.8°F-10.7°C 61% 6.0 mph NW9.7 kmh NW 9.0 mph14.5 kmh 30.31 in1026.4 mb 0.00 in0.0 mm 0.00 in/hr0.0 mm/hr 0.00 in0.0 mm
05:05 AM 24.3°F-4.3°C 12.8°F-10.7°C 61% 4.0 mph NW6.4 kmh NW 9.0 mph14.5 kmh 30.30 in1026.1 mb 0.00 in0.0 mm 0.00 in/hr0.0 mm/hr 0.00 in0.0 mm
05:04 AM 24.3°F-4.3°C 12.8°F-10.7°C 61% 4.0 mph NW6.4 kmh NW 9.0 mph14.5 kmh 30.30 in1026.1 mb 0.00 in0.0 mm 0.00 in/hr0.0 mm/hr 0.00 in0.0 mm
05:03 AM 24.3°F-4.3°C 12.8°F-10.7°C 61% 7.0 mph NW11.3 kmh NW 9.0 mph14.5 kmh 30.30 in1026.1 mb 0.00 in0.0 mm 0.00 in/hr0.0 mm/hr 0.00 in0.0 mm
05:00 AM 24.3°F-4.3°C 12.8°F-10.7°C 61% 3.0 mph NW4.8 kmh NW 4.0 mph6.4 kmh 30.30 in1026.1 mb 0.00 in0.0 mm 0.00 in/hr0.0 mm/hr 0.00 in0.0 mm
04:59 AM 24.3°F-4.3°C 12.8°F-10.7°C 61% 3.0 mph NW4.8 kmh NW 13.0 mph20.9 kmh 30.30 in1026.1 mb 0.00 in0.0 mm 0.00 in/hr0.0 mm/hr 0.00 in0.0 mm
04:58 AM 24.3°F-4.3°C 12.8°F-10.7°C 61% 7.0 mph NW11.3 kmh NW 13.0 mph20.9 kmh 30.30 in1026.1 mb 0.00 in0.0 mm 0.00 in/hr0.0 mm/hr 0.00 in0.0 mm
04:55 AM 24.3°F-4.3°C 12.8°F-10.7°C 61% 4.0 mph NW6.4 kmh NW 13.0 mph20.9 kmh 30.30 in1026.1 mb 0.00 in0.0 mm 0.00 in/hr0.0 mm/hr 0.00 in0.0 mm
04:54 AM 24.3°F-4.3°C 12.8°F-10.7°C 61% 7.0 mph NW11.3 kmh NW 13.0 mph20.9 kmh 30.30 in1026.1 mb 0.00 in0.0 mm 0.00 in/hr0.0 mm/hr 0.00 in0.0 mm
04:53 AM 24.3°F-4.3°C 12.8°F-10.7°C 61% 2.0 mph NW3.2 kmh NW 13.0 mph20.9 kmh 30.30 in1026.1 mb 0.00 in0.0 mm 0.00 in/hr0.0 mm/hr 0.00 in0.0 mm
04:50 AM 24.3°F-4.3°C 12.8°F-10.7°C 61% 3.0 mph NW4.8 kmh NW 13.0 mph20.9 kmh 30.30 in1026.1 mb 0.00 in0.0 mm 0.00 in/hr0.0 mm/hr 0.00 in0.0 mm
04:49 AM 24.4°F-4.2°C 12.9°F-10.6°C 61% 6.0 mph NW9.7 kmh NW 13.0 mph20.9 kmh 30.30 in1026.1 mb 0.00 in0.0 mm 0.00 in/hr0.0 mm/hr 0.00 in0.0 mm
04:48 AM 24.4°F-4.2°C 12.9°F-10.6°C 61% 4.0 mph NW6.4 kmh NW 13.0 mph20.9 kmh 30.30 in1026.1 mb 0.00 in0.0 mm 0.00 in/hr0.0 mm/hr 0.00 in0.0 mm
04:45 AM 24.4°F-4.2°C 12.9°F-10.6°C 61% 4.0 mph NW6.4 kmh NW 13.0 mph20.9 kmh 30.30 in1026.1 mb 0.00 in0.0 mm 0.00 in/hr0.0 mm/hr 0.00 in0.0 mm
04:44 AM 24.3°F-4.3°C 12.8°F-10.7°C 61% 3.0 mph NW4.8 kmh NW 13.0 mph20.9 kmh 30.29 in1025.7 mb 0.00 in0.0 mm 0.00 in/hr0.0 mm/hr 0.00 in0.0 mm
04:43 AM 24.4°F-4.2°C 12.9°F-10.6°C 61% 2.0 mph NW3.2 kmh NW 13.0 mph20.9 kmh 30.29 in1025.7 mb 0.00 in0.0 mm 0.00 in/hr0.0 mm/hr 0.00 in0.0 mm
04:40 AM 24.4°F-4.2°C 12.9°F-10.6°C 61% 3.0 mph NW4.8 kmh NW 13.0 mph20.9 kmh 30.29 in1025.7 mb 0.00 in0.0 mm 0.00 in/hr0.0 mm/hr 0.00 in0.0 mm
04:39 AM 24.4°F-4.2°C 12.9°F-10.6°C 61% 5.0 mph NW8.0 kmh NW 13.0 mph20.9 kmh 30.29 in1025.7 mb 0.00 in0.0 mm 0.00 in/hr0.0 mm/hr 0.00 in0.0 mm
04:38 AM 24.4°F-4.2°C 12.9°F-10.6°C 61% 5.0 mph NW8.0 kmh NW 13.0 mph20.9 kmh 30.29 in1025.7 mb 0.00 in0.0 mm 0.00 in/hr0.0 mm/hr 0.00 in0.0 mm
04:35 AM 24.4°F-4.2°C 12.9°F-10.6°C 61% 4.0 mph NW6.4 kmh NW 13.0 mph20.9 kmh 30.29 in1025.7 mb 0.00 in0.0 mm 0.00 in/hr0.0 mm/hr 0.00 in0.0 mm
04:34 AM 24.4°F-4.2°C 12.9°F-10.6°C 61% 4.0 mph NW6.4 kmh NW 13.0 mph20.9 kmh 30.29 in1025.7 mb 0.00 in0.0 mm 0.00 in/hr0.0 mm/hr 0.00 in0.0 mm
04:33 AM 24.4°F-4.2°C 12.9°F-10.6°C 61% 9.0 mph NW14.5 kmh NW 13.0 mph20.9 kmh 30.29 in1025.7 mb 0.00 in0.0 mm 0.00 in/hr0.0 mm/hr 0.00 in0.0 mm
04:30 AM 24.4°F-4.2°C 13.3°F-10.4°C 62% 2.0 mph N3.2 kmh N 13.0 mph20.9 kmh 30.29 in1025.7 mb 0.00 in0.0 mm 0.00 in/hr0.0 mm/hr 0.00 in0.0 mm
04:29 AM 24.4°F-4.2°C 13.3°F-10.4°C 62% 4.0 mph N6.4 kmh N 13.0 mph20.9 kmh 30.29 in1025.7 mb 0.00 in0.0 mm 0.00 in/hr0.0 mm/hr 0.00 in0.0 mm
04:28 AM 24.4°F-4.2°C 12.9°F-10.6°C 61% 2.0 mph N3.2 kmh N 13.0 mph20.9 kmh 30.29 in1025.7 mb 0.00 in0.0 mm 0.00 in/hr0.0 mm/hr 0.00 in0.0 mm
04:25 AM 24.4°F-4.2°C 12.9°F-10.6°C 61% 5.0 mph NNW8.0 kmh NNW 13.0 mph20.9 kmh 30.29 in1025.7 mb 0.00 in0.0 mm 0.00 in/hr0.0 mm/hr 0.00 in0.0 mm
04:24 AM 24.4°F-4.2°C 12.9°F-10.6°C 61% 7.0 mph NNW11.3 kmh NNW 13.0 mph20.9 kmh 30.28 in1025.4 mb 0.00 in0.0 mm 0.00 in/hr0.0 mm/hr 0.00 in0.0 mm
04:23 AM 24.4°F-4.2°C 12.9°F-10.6°C 61% 4.0 mph N6.4 kmh N 13.0 mph20.9 kmh 30.28 in1025.4 mb 0.00 in0.0 mm 0.00 in/hr0.0 mm/hr 0.00 in0.0 mm
04:20 AM 24.5°F-4.2°C 13.0°F-10.6°C 61% 4.0 mph NW6.4 kmh NW 13.0 mph20.9 kmh 30.28 in1025.4 mb 0.00 in0.0 mm 0.00 in/hr0.0 mm/hr 0.00 in0.0 mm
04:19 AM 24.5°F-4.2°C 13.0°F-10.6°C 61% 3.0 mph NW4.8 kmh NW 13.0 mph20.9 kmh 30.28 in1025.4 mb 0.00 in0.0 mm 0.00 in/hr0.0 mm/hr 0.00 in0.0 mm
04:18 AM 24.5°F-4.2°C 13.0°F-10.6°C 61% 4.0 mph NW6.4 kmh NW 13.0 mph20.9 kmh 30.28 in1025.4 mb 0.00 in0.0 mm 0.00 in/hr0.0 mm/hr 0.00 in0.0 mm
04:15 AM 24.5°F-4.2°C 13.0°F-10.6°C 61% 4.0 mph NW6.4 kmh NW 13.0 mph20.9 kmh 30.28 in1025.4 mb 0.00 in0.0 mm 0.00 in/hr0.0 mm/hr 0.00 in0.0 mm
04:14 AM 24.4°F-4.2°C 12.9°F-10.6°C 61% 3.0 mph NW4.8 kmh NW 13.0 mph20.9 kmh 30.28 in1025.4 mb 0.00 in0.0 mm 0.00 in/hr0.0 mm/hr 0.00 in0.0 mm
04:13 AM 24.4°F-4.2°C 12.9°F-10.6°C 61% 4.0 mph NW6.4 kmh NW 13.0 mph20.9 kmh 30.28 in1025.4 mb 0.00 in0.0 mm 0.00 in/hr0.0 mm/hr 0.00 in0.0 mm
04:10 AM 24.4°F-4.2°C 12.9°F-10.6°C 61% 1.0 mph N1.6 kmh N 11.0 mph17.7 kmh 30.28 in1025.4 mb 0.00 in0.0 mm 0.00 in/hr0.0 mm/hr 0.00 in0.0 mm
04:09 AM 24.5°F-4.2°C 13.0°F-10.6°C 61% 6.0 mph N9.7 kmh N 11.0 mph17.7 kmh 30.27 in1025.1 mb 0.00 in0.0 mm 0.00 in/hr0.0 mm/hr 0.00 in0.0 mm
04:08 AM 24.5°F-4.2°C 13.0°F-10.6°C 61% 6.0 mph NNW9.7 kmh NNW 11.0 mph17.7 kmh 30.28 in1025.4 mb 0.00 in0.0 mm 0.00 in/hr0.0 mm/hr 0.00 in0.0 mm
04:05 AM 24.5°F-4.2°C 13.0°F-10.6°C 61% 5.0 mph NNW8.0 kmh NNW 11.0 mph17.7 kmh 30.27 in1025.1 mb 0.00 in0.0 mm 0.00 in/hr0.0 mm/hr 0.00 in0.0 mm
04:04 AM 24.6°F-4.1°C 13.1°F-10.5°C 61% 4.0 mph N6.4 kmh N 11.0 mph17.7 kmh 30.27 in1025.1 mb 0.00 in0.0 mm 0.00 in/hr0.0 mm/hr 0.00 in0.0 mm
04:03 AM 24.5°F-4.2°C 13.0°F-10.6°C 61% 2.0 mph NNW3.2 kmh NNW 11.0 mph17.7 kmh 30.27 in1025.1 mb 0.00 in0.0 mm 0.00 in/hr0.0 mm/hr 0.00 in0.0 mm
04:00 AM 24.5°F-4.2°C 13.0°F-10.6°C 61% 8.0 mph N12.9 kmh N 8.0 mph12.9 kmh 30.27 in1025.1 mb 0.00 in0.0 mm 0.00 in/hr0.0 mm/hr 0.00 in0.0 mm
03:59 AM 24.6°F-4.1°C 13.1°F-10.5°C 61% 8.0 mph NW12.9 kmh NW 16.0 mph25.7 kmh 30.27 in1025.1 mb 0.00 in0.0 mm 0.00 in/hr0.0 mm/hr 0.00 in0.0 mm
03:58 AM 24.6°F-4.1°C 13.1°F-10.5°C 61% 7.0 mph NW11.3 kmh NW 16.0 mph25.7 kmh 30.27 in1025.1 mb 0.00 in0.0 mm 0.00 in/hr0.0 mm/hr 0.00 in0.0 mm
03:55 AM 24.6°F-4.1°C 13.1°F-10.5°C 61% 4.0 mph NNW6.4 kmh NNW 16.0 mph25.7 kmh 30.26 in1024.7 mb 0.00 in0.0 mm 0.00 in/hr0.0 mm/hr 0.00 in0.0 mm
03:54 AM 24.6°F-4.1°C 13.1°F-10.5°C 61% 4.0 mph NNW6.4 kmh NNW 16.0 mph25.7 kmh 30.26 in1024.7 mb 0.00 in0.0 mm 0.00 in/hr0.0 mm/hr 0.00 in0.0 mm
03:53 AM 24.6°F-4.1°C 13.1°F-10.5°C 61% 8.0 mph NNW12.9 kmh NNW 16.0 mph25.7 kmh 30.26 in1024.7 mb 0.00 in0.0 mm 0.00 in/hr0.0 mm/hr 0.00 in0.0 mm
03:50 AM 24.6°F-4.1°C 13.1°F-10.5°C 61% 7.0 mph N11.3 kmh N 16.0 mph25.7 kmh 30.26 in1024.7 mb 0.00 in0.0 mm 0.00 in/hr0.0 mm/hr 0.00 in0.0 mm
03:49 AM 24.6°F-4.1°C 13.1°F-10.5°C 61% 7.0 mph N11.3 kmh N 16.0 mph25.7 kmh 30.26 in1024.7 mb 0.00 in0.0 mm 0.00 in/hr0.0 mm/hr 0.00 in0.0 mm
03:48 AM 24.6°F-4.1°C 13.1°F-10.5°C 61% 6.0 mph N9.7 kmh N 16.0 mph25.7 kmh 30.26 in1024.7 mb 0.00 in0.0 mm 0.00 in/hr0.0 mm/hr 0.00 in0.0 mm
03:45 AM 24.7°F-4.1°C 13.2°F-10.4°C 61% 2.0 mph NW3.2 kmh NW 16.0 mph25.7 kmh 30.26 in1024.7 mb 0.00 in0.0 mm 0.00 in/hr0.0 mm/hr 0.00 in0.0 mm
03:44 AM 24.7°F-4.1°C 13.2°F-10.4°C 61% 3.0 mph NW4.8 kmh NW 16.0 mph25.7 kmh 30.26 in1024.7 mb 0.00 in0.0 mm 0.00 in/hr0.0 mm/hr 0.00 in0.0 mm
03:43 AM 24.7°F-4.1°C 13.2°F-10.4°C 61% 3.0 mph NW4.8 kmh NW 16.0 mph25.7 kmh 30.26 in1024.7 mb 0.00 in0.0 mm 0.00 in/hr0.0 mm/hr 0.00 in0.0 mm
03:40 AM 24.8°F-4.0°C 13.3°F-10.4°C 61% 3.0 mph NW4.8 kmh NW 16.0 mph25.7 kmh 30.26 in1024.7 mb 0.00 in0.0 mm 0.00 in/hr0.0 mm/hr 0.00 in0.0 mm
03:39 AM 24.8°F-4.0°C 13.3°F-10.4°C 61% 5.0 mph NW8.0 kmh NW 16.0 mph25.7 kmh 30.26 in1024.7 mb 0.00 in0.0 mm 0.00 in/hr0.0 mm/hr 0.00 in0.0 mm
03:38 AM 24.8°F-4.0°C 13.3°F-10.4°C 61% 6.0 mph NW9.7 kmh NW 16.0 mph25.7 kmh 30.26 in1024.7 mb 0.00 in0.0 mm 0.00 in/hr0.0 mm/hr 0.00 in0.0 mm
03:35 AM 24.8°F-4.0°C 13.6°F-10.2°C 62% 10.0 mph N16.1 kmh N 16.0 mph25.7 kmh 30.26 in1024.7 mb 0.00 in0.0 mm 0.00 in/hr0.0 mm/hr 0.00 in0.0 mm
03:34 AM 24.8°F-4.0°C 13.3°F-10.4°C 61% 2.0 mph NNW3.2 kmh NNW 16.0 mph25.7 kmh 30.26 in1024.7 mb 0.00 in0.0 mm 0.00 in/hr0.0 mm/hr 0.00 in0.0 mm
03:33 AM 24.8°F-4.0°C 13.3°F-10.4°C 61% 4.0 mph NNW6.4 kmh NNW 16.0 mph25.7 kmh 30.26 in1024.7 mb 0.00 in0.0 mm 0.00 in/hr0.0 mm/hr 0.00 in0.0 mm
03:30 AM 24.7°F-4.1°C 13.2°F-10.4°C 61% 5.0 mph NW8.0 kmh NW 16.0 mph25.7 kmh 30.25 in1024.4 mb 0.00 in0.0 mm 0.00 in/hr0.0 mm/hr 0.00 in0.0 mm
03:29 AM 24.8°F-4.0°C 13.3°F-10.4°C 61% 8.0 mph NW12.9 kmh NW 16.0 mph25.7 kmh 30.25 in1024.4 mb 0.00 in0.0 mm 0.00 in/hr0.0 mm/hr 0.00 in0.0 mm
03:28 AM 24.7°F-4.1°C 13.2°F-10.4°C 61% 2.0 mph NNW3.2 kmh NNW 16.0 mph25.7 kmh 30.25 in1024.4 mb 0.00 in0.0 mm 0.00 in/hr0.0 mm/hr 0.00 in0.0 mm
03:25 AM 24.8°F-4.0°C 13.3°F-10.4°C 61% 7.0 mph NNW11.3 kmh NNW 16.0 mph25.7 kmh 30.25 in1024.4 mb 0.00 in0.0 mm 0.00 in/hr0.0 mm/hr 0.00 in0.0 mm
03:24 AM 24.8°F-4.0°C 13.3°F-10.4°C 61% 6.0 mph NNW9.7 kmh NNW 16.0 mph25.7 kmh 30.25 in1024.4 mb 0.00 in0.0 mm 0.00 in/hr0.0 mm/hr 0.00 in0.0 mm
03:23 AM 24.8°F-4.0°C 13.3°F-10.4°C 61% 3.0 mph NNW4.8 kmh NNW 16.0 mph25.7 kmh 30.25 in1024.4 mb 0.00 in0.0 mm 0.00 in/hr0.0 mm/hr 0.00 in0.0 mm
03:20 AM 24.8°F-4.0°C 13.3°F-10.4°C 61% 4.0 mph NNW6.4 kmh NNW 16.0 mph25.7 kmh 30.25 in1024.4 mb 0.00 in0.0 mm 0.00 in/hr0.0 mm/hr 0.00 in0.0 mm
03:19 AM 24.9°F-3.9°C 13.4°F-10.3°C 61% 2.0 mph N3.2 kmh N 16.0 mph25.7 kmh 30.25 in1024.4 mb 0.00 in0.0 mm 0.00 in/hr0.0 mm/hr 0.00 in0.0 mm
03:18 AM 24.9°F-3.9°C 13.4°F-10.3°C 61% 2.0 mph N3.2 kmh N 16.0 mph25.7 kmh 30.25 in1024.4 mb 0.00 in0.0 mm 0.00 in/hr0.0 mm/hr 0.00 in0.0 mm
03:15 AM 24.9°F-3.9°C 13.4°F-10.3°C 61% 1.0 mph N1.6 kmh N 16.0 mph25.7 kmh 30.25 in1024.4 mb 0.00 in0.0 mm 0.00 in/hr0.0 mm/hr 0.00 in0.0 mm
03:14 AM 24.9°F-3.9°C 13.0°F-10.6°C 60% 4.0 mph NNW6.4 kmh NNW 16.0 mph25.7 kmh 30.25 in1024.4 mb 0.00 in0.0 mm 0.00 in/hr0.0 mm/hr 0.00 in0.0 mm
03:13 AM 24.9°F-3.9°C 13.4°F-10.3°C 61% 3.0 mph NNW4.8 kmh NNW 16.0 mph25.7 kmh 30.25 in1024.4 mb 0.00 in0.0 mm 0.00 in/hr0.0 mm/hr 0.00 in0.0 mm
03:10 AM 24.9°F-3.9°C 13.0°F-10.6°C 60% 7.0 mph NE11.3 kmh NE 16.0 mph25.7 kmh 30.25 in1024.4 mb 0.00 in0.0 mm 0.00 in/hr0.0 mm/hr 0.00 in0.0 mm
03:09 AM 24.9°F-3.9°C 13.0°F-10.6°C 60% 6.0 mph NW9.7 kmh NW 16.0 mph25.7 kmh 30.25 in1024.4 mb 0.00 in0.0 mm 0.00 in/hr0.0 mm/hr 0.00 in0.0 mm
03:08 AM 24.9°F-3.9°C 13.0°F-10.6°C 60% 12.0 mph WNW19.3 kmh WNW 16.0 mph25.7 kmh 30.25 in1024.4 mb 0.00 in0.0 mm 0.00 in/hr0.0 mm/hr 0.00 in0.0 mm
03:05 AM 24.9°F-3.9°C 13.0°F-10.6°C 60% 6.0 mph NW9.7 kmh NW 16.0 mph25.7 kmh 30.25 in1024.4 mb 0.00 in0.0 mm 0.00 in/hr0.0 mm/hr 0.00 in0.0 mm
03:04 AM 25.0°F-3.9°C 13.1°F-10.5°C 60% 10.0 mph NW16.1 kmh NW 16.0 mph25.7 kmh 30.25 in1024.4 mb 0.00 in0.0 mm 0.00 in/hr0.0 mm/hr 0.00 in0.0 mm
03:03 AM 24.9°F-3.9°C 13.0°F-10.6°C 60% 2.0 mph N3.2 kmh N 16.0 mph25.7 kmh 30.25 in1024.4 mb 0.00 in0.0 mm 0.00 in/hr0.0 mm/hr 0.00 in0.0 mm
03:00 AM 25.0°F-3.9°C 13.1°F-10.5°C 60% 4.0 mph NNW6.4 kmh NNW 5.0 mph8.0 kmh 30.25 in1024.4 mb 0.00 in0.0 mm 0.00 in/hr0.0 mm/hr 0.00 in0.0 mm
02:59 AM 25.0°F-3.9°C 13.1°F-10.5°C 60% 4.0 mph NNW6.4 kmh NNW 14.0 mph22.5 kmh 30.25 in1024.4 mb 0.00 in0.0 mm 0.00 in/hr0.0 mm/hr 0.00 in0.0 mm
02:58 AM 24.9°F-3.9°C 13.0°F-10.6°C 60% 7.0 mph NNW11.3 kmh NNW 14.0 mph22.5 kmh 30.25 in1024.4 mb 0.00 in0.0 mm 0.00 in/hr0.0 mm/hr 0.00 in0.0 mm
02:55 AM 24.9°F-3.9°C 13.0°F-10.6°C 60% 7.0 mph N11.3 kmh N 14.0 mph22.5 kmh 30.25 in1024.4 mb 0.00 in0.0 mm 0.00 in/hr0.0 mm/hr 0.00 in0.0 mm
02:54 AM 24.9°F-3.9°C 13.0°F-10.6°C 60% 11.0 mph NW17.7 kmh NW 14.0 mph22.5 kmh 30.25 in1024.4 mb 0.00 in0.0 mm 0.00 in/hr0.0 mm/hr 0.00 in0.0 mm
02:53 AM 24.9°F-3.9°C 13.0°F-10.6°C 60% 4.0 mph NW6.4 kmh NW 14.0 mph22.5 kmh 30.25 in1024.4 mb 0.00 in0.0 mm 0.00 in/hr0.0 mm/hr 0.00 in0.0 mm
02:50 AM 24.9°F-3.9°C 13.0°F-10.6°C 60% 7.0 mph NW11.3 kmh NW 14.0 mph22.5 kmh 30.25 in1024.4 mb 0.00 in0.0 mm 0.00 in/hr0.0 mm/hr 0.00 in0.0 mm
02:49 AM 24.9°F-3.9°C 13.0°F-10.6°C 60% 5.0 mph NNW8.0 kmh NNW 14.0 mph22.5 kmh 30.25 in1024.4 mb 0.00 in0.0 mm 0.00 in/hr0.0 mm/hr 0.00 in0.0 mm
02:48 AM 24.9°F-3.9°C 13.0°F-10.6°C 60% 6.0 mph N9.7 kmh N 14.0 mph22.5 kmh 30.24 in1024.0 mb 0.00 in0.0 mm 0.00 in/hr0.0 mm/hr 0.00 in0.0 mm
02:45 AM 24.9°F-3.9°C 13.0°F-10.6°C 60% 1.0 mph NW1.6 kmh NW 14.0 mph22.5 kmh 30.24 in1024.0 mb 0.00 in0.0 mm 0.00 in/hr0.0 mm/hr 0.00 in0.0 mm
02:44 AM 24.9°F-3.9°C 13.0°F-10.6°C 60% 6.0 mph NW9.7 kmh NW 14.0 mph22.5 kmh 30.24 in1024.0 mb 0.00 in0.0 mm 0.00 in/hr0.0 mm/hr 0.00 in0.0 mm
02:43 AM 24.9°F-3.9°C 13.0°F-10.6°C 60% 2.0 mph NW3.2 kmh NW 14.0 mph22.5 kmh 30.24 in1024.0 mb 0.00 in0.0 mm 0.00 in/hr0.0 mm/hr 0.00 in0.0 mm
02:40 AM 24.9°F-3.9°C 13.4°F-10.3°C 61% 6.0 mph NW9.7 kmh NW 14.0 mph22.5 kmh 30.24 in1024.0 mb 0.00 in0.0 mm 0.00 in/hr0.0 mm/hr 0.00 in0.0 mm
02:39 AM 24.9°F-3.9°C 13.4°F-10.3°C 61% 9.0 mph NW14.5 kmh NW 14.0 mph22.5 kmh 30.24 in1024.0 mb 0.00 in0.0 mm 0.00 in/hr0.0 mm/hr 0.00 in0.0 mm
02:38 AM 24.9°F-3.9°C 13.4°F-10.3°C 61% 6.0 mph NNW9.7 kmh NNW 14.0 mph22.5 kmh 30.24 in1024.0 mb 0.00 in0.0 mm 0.00 in/hr0.0 mm/hr 0.00 in0.0 mm
02:35 AM 24.9°F-3.9°C 13.4°F-10.3°C 61% 4.0 mph NW6.4 kmh NW 14.0 mph22.5 kmh 30.24 in1024.0 mb 0.00 in0.0 mm 0.00 in/hr0.0 mm/hr 0.00 in0.0 mm
02:34 AM 24.9°F-3.9°C 13.4°F-10.3°C 61% 4.0 mph NW6.4 kmh NW 14.0 mph22.5 kmh 30.24 in1024.0 mb 0.00 in0.0 mm 0.00 in/hr0.0 mm/hr 0.00 in0.0 mm
02:33 AM 24.9°F-3.9°C 13.4°F-10.3°C 61% 4.0 mph NW6.4 kmh NW 14.0 mph22.5 kmh 30.24 in1024.0 mb 0.00 in0.0 mm 0.00 in/hr0.0 mm/hr 0.00 in0.0 mm
02:30 AM 25.0°F-3.9°C 13.5°F-10.3°C 61% 5.0 mph NW8.0 kmh NW 14.0 mph22.5 kmh 30.24 in1024.0 mb 0.00 in0.0 mm 0.00 in/hr0.0 mm/hr 0.00 in0.0 mm
02:29 AM 24.9°F-3.9°C 13.4°F-10.3°C 61% 8.0 mph NNW12.9 kmh NNW 14.0 mph22.5 kmh 30.24 in1024.0 mb 0.00 in0.0 mm 0.00 in/hr0.0 mm/hr 0.00 in0.0 mm
02:28 AM 25.0°F-3.9°C 13.5°F-10.3°C 61% 9.0 mph NW14.5 kmh NW 13.0 mph20.9 kmh 30.24 in1024.0 mb 0.00 in0.0 mm 0.00 in/hr0.0 mm/hr 0.00 in0.0 mm
02:25 AM 25.0°F-3.9°C 13.5°F-10.3°C 61% 8.0 mph NW12.9 kmh NW 13.0 mph20.9 kmh 30.24 in1024.0 mb 0.00 in0.0 mm 0.00 in/hr0.0 mm/hr 0.00 in0.0 mm
02:24 AM 25.0°F-3.9°C 13.5°F-10.3°C 61% 8.0 mph NW12.9 kmh NW 13.0 mph20.9 kmh 30.24 in1024.0 mb 0.00 in0.0 mm 0.00 in/hr0.0 mm/hr 0.00 in0.0 mm
02:23 AM 24.9°F-3.9°C 13.4°F-10.3°C 61% 6.0 mph NW9.7 kmh NW 13.0 mph20.9 kmh 30.24 in1024.0 mb 0.00 in0.0 mm 0.00 in/hr0.0 mm/hr 0.00 in0.0 mm
02:20 AM 25.0°F-3.9°C 13.5°F-10.3°C 61% 11.0 mph NW17.7 kmh NW 13.0 mph20.9 kmh 30.24 in1024.0 mb 0.00 in0.0 mm 0.00 in/hr0.0 mm/hr 0.00 in0.0 mm
02:19 AM 25.0°F-3.9°C 13.5°F-10.3°C 61% 5.0 mph WNW8.0 kmh WNW 13.0 mph20.9 kmh 30.24 in1024.0 mb 0.00 in0.0 mm 0.00 in/hr0.0 mm/hr 0.00 in0.0 mm
02:18 AM 25.0°F-3.9°C 13.5°F-10.3°C 61% 4.0 mph NW6.4 kmh NW 13.0 mph20.9 kmh 30.24 in1024.0 mb 0.00 in0.0 mm 0.00 in/hr0.0 mm/hr 0.00 in0.0 mm
02:15 AM 25.0°F-3.9°C 13.5°F-10.3°C 61% 8.0 mph NW12.9 kmh NW 13.0 mph20.9 kmh 30.24 in1024.0 mb 0.00 in0.0 mm 0.00 in/hr0.0 mm/hr 0.00 in0.0 mm
02:14 AM 25.0°F-3.9°C 13.5°F-10.3°C 61% 11.0 mph W17.7 kmh W 13.0 mph20.9 kmh 30.24 in1024.0 mb 0.00 in0.0 mm 0.00 in/hr0.0 mm/hr 0.00 in0.0 mm
02:13 AM 25.0°F-3.9°C 13.5°F-10.3°C 61% 7.0 mph WNW11.3 kmh WNW 13.0 mph20.9 kmh 30.24 in1024.0 mb 0.00 in0.0 mm 0.00 in/hr0.0 mm/hr 0.00 in0.0 mm
02:10 AM 25.0°F-3.9°C 13.5°F-10.3°C 61% 4.0 mph W6.4 kmh W 13.0 mph20.9 kmh 30.24 in1024.0 mb 0.00 in0.0 mm 0.00 in/hr0.0 mm/hr 0.00 in0.0 mm
02:09 AM 25.0°F-3.9°C 13.5°F-10.3°C 61% 10.0 mph WNW16.1 kmh WNW 12.0 mph19.3 kmh 30.24 in1024.0 mb 0.00 in0.0 mm 0.00 in/hr0.0 mm/hr 0.00 in0.0 mm
02:08 AM 25.0°F-3.9°C 13.5°F-10.3°C 61% 7.0 mph WNW11.3 kmh WNW 12.0 mph19.3 kmh 30.24 in1024.0 mb 0.00 in0.0 mm 0.00 in/hr0.0 mm/hr 0.00 in0.0 mm
02:05 AM 25.1°F-3.8°C 13.6°F-10.2°C 61% 6.0 mph NW9.7 kmh NW 12.0 mph19.3 kmh 30.23 in1023.7 mb 0.00 in0.0 mm 0.00 in/hr0.0 mm/hr 0.00 in0.0 mm
02:04 AM 25.1°F-3.8°C 13.6°F-10.2°C 61% 4.0 mph NW6.4 kmh NW 12.0 mph19.3 kmh 30.24 in1024.0 mb 0.00 in0.0 mm 0.00 in/hr0.0 mm/hr 0.00 in0.0 mm
02:03 AM 25.1°F-3.8°C 13.6°F-10.2°C 61% 7.0 mph WNW11.3 kmh WNW 12.0 mph19.3 kmh 30.24 in1024.0 mb 0.00 in0.0 mm 0.00 in/hr0.0 mm/hr 0.00 in0.0 mm
02:00 AM 25.1°F-3.8°C 13.6°F-10.2°C 61% 2.0 mph NW3.2 kmh NW 2.0 mph3.2 kmh 30.23 in1023.7 mb 0.00 in0.0 mm 0.00 in/hr0.0 mm/hr 0.00 in0.0 mm
01:59 AM 25.0°F-3.9°C 13.5°F-10.3°C 61% 2.0 mph NW3.2 kmh NW 16.0 mph25.7 kmh 30.23 in1023.7 mb 0.00 in0.0 mm 0.00 in/hr0.0 mm/hr 0.00 in0.0 mm
01:58 AM 25.0°F-3.9°C 13.5°F-10.3°C 61% 3.0 mph NW4.8 kmh NW 16.0 mph25.7 kmh 30.23 in1023.7 mb 0.00 in0.0 mm 0.00 in/hr0.0 mm/hr 0.00 in0.0 mm
01:55 AM 25.1°F-3.8°C 13.6°F-10.2°C 61% 5.0 mph NNW8.0 kmh NNW 16.0 mph25.7 kmh 30.23 in1023.7 mb 0.00 in0.0 mm 0.00 in/hr0.0 mm/hr 0.00 in0.0 mm
01:54 AM 25.1°F-3.8°C 13.6°F-10.2°C 61% 7.0 mph NNW11.3 kmh NNW 16.0 mph25.7 kmh 30.23 in1023.7 mb 0.00 in0.0 mm 0.00 in/hr0.0 mm/hr 0.00 in0.0 mm
01:53 AM 25.2°F-3.8°C 13.7°F-10.2°C 61% 4.0 mph NW6.4 kmh NW 16.0 mph25.7 kmh 30.23 in1023.7 mb 0.00 in0.0 mm 0.00 in/hr0.0 mm/hr 0.00 in0.0 mm
01:50 AM 25.2°F-3.8°C 13.7°F-10.2°C 61% 4.0 mph NW6.4 kmh NW 16.0 mph25.7 kmh 30.23 in1023.7 mb 0.00 in0.0 mm 0.00 in/hr0.0 mm/hr 0.00 in0.0 mm
01:49 AM 25.1°F-3.8°C 13.6°F-10.2°C 61% 1.0 mph NW1.6 kmh NW 16.0 mph25.7 kmh 30.23 in1023.7 mb 0.00 in0.0 mm 0.00 in/hr0.0 mm/hr 0.00 in0.0 mm
01:48 AM 25.1°F-3.8°C 13.6°F-10.2°C 61% 5.0 mph NW8.0 kmh NW 16.0 mph25.7 kmh 30.23 in1023.7 mb 0.00 in0.0 mm 0.00 in/hr0.0 mm/hr 0.00 in0.0 mm
01:45 AM 25.2°F-3.8°C 13.7°F-10.2°C 61% 6.0 mph NW9.7 kmh NW 16.0 mph25.7 kmh 30.23 in1023.7 mb 0.00 in0.0 mm 0.00 in/hr0.0 mm/hr 0.00 in0.0 mm
01:44 AM 25.1°F-3.8°C 13.6°F-10.2°C 61% 5.0 mph NW8.0 kmh NW 16.0 mph25.7 kmh 30.23 in1023.7 mb 0.00 in0.0 mm 0.00 in/hr0.0 mm/hr 0.00 in0.0 mm
01:43 AM 25.2°F-3.8°C 13.7°F-10.2°C 61% 8.0 mph NW12.9 kmh NW 16.0 mph25.7 kmh 30.23 in1023.7 mb 0.00 in0.0 mm 0.00 in/hr0.0 mm/hr 0.00 in0.0 mm
01:40 AM 25.2°F-3.8°C 13.7°F-10.2°C 61% 5.0 mph NW8.0 kmh NW 16.0 mph25.7 kmh 30.23 in1023.7 mb 0.00 in0.0 mm 0.00 in/hr0.0 mm/hr 0.00 in0.0 mm
01:39 AM 25.2°F-3.8°C 13.7°F-10.2°C 61% 10.0 mph NW16.1 kmh NW 16.0 mph25.7 kmh 30.23 in1023.7 mb 0.00 in0.0 mm 0.00 in/hr0.0 mm/hr 0.00 in0.0 mm
01:38 AM 25.2°F-3.8°C 13.7°F-10.2°C 61% 5.0 mph NW8.0 kmh NW 16.0 mph25.7 kmh 30.23 in1023.7 mb 0.00 in0.0 mm 0.00 in/hr0.0 mm/hr 0.00 in0.0 mm
01:35 AM 25.2°F-3.8°C 13.7°F-10.2°C 61% 2.0 mph NW3.2 kmh NW 16.0 mph25.7 kmh 30.23 in1023.7 mb 0.00 in0.0 mm 0.00 in/hr0.0 mm/hr 0.00 in0.0 mm
01:34 AM 25.2°F-3.8°C 13.3°F-10.4°C 60% 3.0 mph NW4.8 kmh NW 16.0 mph25.7 kmh 30.23 in1023.7 mb 0.00 in0.0 mm 0.00 in/hr0.0 mm/hr 0.00 in0.0 mm
01:33 AM 25.2°F-3.8°C 13.3°F-10.4°C 60% 3.0 mph NW4.8 kmh NW 16.0 mph25.7 kmh 30.23 in1023.7 mb 0.00 in0.0 mm 0.00 in/hr0.0 mm/hr 0.00 in0.0 mm
01:30 AM 25.2°F-3.8°C 13.3°F-10.4°C 60% 5.0 mph NW8.0 kmh NW 16.0 mph25.7 kmh 30.23 in1023.7 mb 0.00 in0.0 mm 0.00 in/hr0.0 mm/hr 0.00 in0.0 mm
01:29 AM 25.2°F-3.8°C 13.3°F-10.4°C 60% 4.0 mph NW6.4 kmh NW 16.0 mph25.7 kmh 30.23 in1023.7 mb 0.00 in0.0 mm 0.00 in/hr0.0 mm/hr 0.00 in0.0 mm
01:28 AM 25.2°F-3.8°C 13.3°F-10.4°C 60% 6.0 mph NW9.7 kmh NW 16.0 mph25.7 kmh 30.23 in1023.7 mb 0.00 in0.0 mm 0.00 in/hr0.0 mm/hr 0.00 in0.0 mm
01:25 AM 25.2°F-3.8°C 13.3°F-10.4°C 60% 2.0 mph NW3.2 kmh NW 16.0 mph25.7 kmh 30.23 in1023.7 mb 0.00 in0.0 mm 0.00 in/hr0.0 mm/hr 0.00 in0.0 mm
01:24 AM 25.3°F-3.7°C 13.4°F-10.3°C 60% 5.0 mph WNW8.0 kmh WNW 14.0 mph22.5 kmh 30.23 in1023.7 mb 0.00 in0.0 mm 0.00 in/hr0.0 mm/hr 0.00 in0.0 mm
01:23 AM 25.3°F-3.7°C 13.4°F-10.3°C 60% 3.0 mph WNW4.8 kmh WNW 14.0 mph22.5 kmh 30.23 in1023.7 mb 0.00 in0.0 mm 0.00 in/hr0.0 mm/hr 0.00 in0.0 mm
01:20 AM 25.3°F-3.7°C 13.4°F-10.3°C 60% 8.0 mph WNW12.9 kmh WNW 14.0 mph22.5 kmh 30.23 in1023.7 mb 0.00 in0.0 mm 0.00 in/hr0.0 mm/hr 0.00 in0.0 mm
01:19 AM 25.3°F-3.7°C 13.4°F-10.3°C 60% 8.0 mph NW12.9 kmh NW 14.0 mph22.5 kmh 30.23 in1023.7 mb 0.00 in0.0 mm 0.00 in/hr0.0 mm/hr 0.00 in0.0 mm
01:18 AM 25.3°F-3.7°C 13.4°F-10.3°C 60% 3.0 mph WNW4.8 kmh WNW 14.0 mph22.5 kmh 30.23 in1023.7 mb 0.00 in0.0 mm 0.00 in/hr0.0 mm/hr 0.00 in0.0 mm
01:15 AM 25.3°F-3.7°C 13.4°F-10.3°C 60% 6.0 mph NW9.7 kmh NW 14.0 mph22.5 kmh 30.22 in1023.4 mb 0.00 in0.0 mm 0.00 in/hr0.0 mm/hr 0.00 in0.0 mm
01:14 AM 25.3°F-3.7°C 13.4°F-10.3°C 60% 9.0 mph WNW14.5 kmh WNW 14.0 mph22.5 kmh 30.23 in1023.7 mb 0.00 in0.0 mm 0.00 in/hr0.0 mm/hr 0.00 in0.0 mm
01:13 AM 25.3°F-3.7°C 13.4°F-10.3°C 60% 7.0 mph WNW11.3 kmh WNW 14.0 mph22.5 kmh 30.23 in1023.7 mb 0.00 in0.0 mm 0.00 in/hr0.0 mm/hr 0.00 in0.0 mm
01:10 AM 25.3°F-3.7°C 13.4°F-10.3°C 60% 10.0 mph WNW16.1 kmh WNW 13.0 mph20.9 kmh 30.23 in1023.7 mb 0.00 in0.0 mm 0.00 in/hr0.0 mm/hr 0.00 in0.0 mm
01:09 AM 25.3°F-3.7°C 13.4°F-10.3°C 60% 6.0 mph W9.7 kmh W 12.0 mph19.3 kmh 30.23 in1023.7 mb 0.00 in0.0 mm 0.00 in/hr0.0 mm/hr 0.00 in0.0 mm
01:08 AM 25.3°F-3.7°C 13.4°F-10.3°C 60% 6.0 mph WNW9.7 kmh WNW 10.0 mph16.1 kmh 30.23 in1023.7 mb 0.00 in0.0 mm 0.00 in/hr0.0 mm/hr 0.00 in0.0 mm
01:05 AM 25.3°F-3.7°C 13.4°F-10.3°C 60% 4.0 mph WNW6.4 kmh WNW 10.0 mph16.1 kmh 30.23 in1023.7 mb 0.00 in0.0 mm 0.00 in/hr0.0 mm/hr 0.00 in0.0 mm
01:04 AM 25.3°F-3.7°C 13.4°F-10.3°C 60% 3.0 mph W4.8 kmh W 10.0 mph16.1 kmh 30.23 in1023.7 mb 0.00 in0.0 mm 0.00 in/hr0.0 mm/hr 0.00 in0.0 mm
01:03 AM 25.3°F-3.7°C 13.4°F-10.3°C 60% 4.0 mph W6.4 kmh W 10.0 mph16.1 kmh 30.23 in1023.7 mb 0.00 in0.0 mm 0.00 in/hr0.0 mm/hr 0.00 in0.0 mm
01:00 AM 25.3°F-3.7°C 13.4°F-10.3°C 60% 6.0 mph WSW9.7 kmh WSW 6.0 mph9.7 kmh 30.22 in1023.4 mb 0.00 in0.0 mm 0.00 in/hr0.0 mm/hr 0.00 in0.0 mm
12:59 AM 25.3°F-3.7°C 13.4°F-10.3°C 60% 5.0 mph NW8.0 kmh NW 12.0 mph19.3 kmh 30.22 in1023.4 mb 0.00 in0.0 mm 0.00 in/hr0.0 mm/hr 0.00 in0.0 mm
12:58 AM 25.3°F-3.7°C 13.4°F-10.3°C 60% 2.0 mph NW3.2 kmh NW 12.0 mph19.3 kmh 30.22 in1023.4 mb 0.00 in0.0 mm 0.00 in/hr0.0 mm/hr 0.00 in0.0 mm
12:55 AM 25.4°F-3.7°C 13.5°F-10.3°C 60% 3.0 mph NW4.8 kmh NW 12.0 mph19.3 kmh 30.22 in1023.4 mb 0.00 in0.0 mm 0.00 in/hr0.0 mm/hr 0.00 in0.0 mm
12:54 AM 25.4°F-3.7°C 13.5°F-10.3°C 60% 6.0 mph NW9.7 kmh NW 12.0 mph19.3 kmh 30.22 in1023.4 mb 0.00 in0.0 mm 0.00 in/hr0.0 mm/hr 0.00 in0.0 mm
12:53 AM 25.4°F-3.7°C 13.5°F-10.3°C 60% 6.0 mph NW9.7 kmh NW 12.0 mph19.3 kmh 30.22 in1023.4 mb 0.00 in0.0 mm 0.00 in/hr0.0 mm/hr 0.00 in0.0 mm
12:50 AM 25.4°F-3.7°C 13.5°F-10.3°C 60% 8.0 mph NW12.9 kmh NW 12.0 mph19.3 kmh 30.22 in1023.4 mb 0.00 in0.0 mm 0.00 in/hr0.0 mm/hr 0.00 in0.0 mm
12:49 AM 25.4°F-3.7°C 13.5°F-10.3°C 60% 5.0 mph NW8.0 kmh NW 12.0 mph19.3 kmh 30.22 in1023.4 mb 0.00 in0.0 mm 0.00 in/hr0.0 mm/hr 0.00 in0.0 mm
12:48 AM 25.4°F-3.7°C 13.1°F-10.5°C 59% 6.0 mph NW9.7 kmh NW 12.0 mph19.3 kmh 30.22 in1023.4 mb 0.00 in0.0 mm 0.00 in/hr0.0 mm/hr 0.00 in0.0 mm
12:45 AM 25.4°F-3.7°C 13.5°F-10.3°C 60% 4.0 mph WNW6.4 kmh WNW 12.0 mph19.3 kmh 30.22 in1023.4 mb 0.00 in0.0 mm 0.00 in/hr0.0 mm/hr 0.00 in0.0 mm
12:44 AM 25.4°F-3.7°C 13.5°F-10.3°C 60% 4.0 mph WNW6.4 kmh WNW 12.0 mph19.3 kmh 30.22 in1023.4 mb 0.00 in0.0 mm 0.00 in/hr0.0 mm/hr 0.00 in0.0 mm
12:43 AM 25.4°F-3.7°C 13.5°F-10.3°C 60% 4.0 mph WNW6.4 kmh WNW 12.0 mph19.3 kmh 30.22 in1023.4 mb 0.00 in0.0 mm 0.00 in/hr0.0 mm/hr 0.00 in0.0 mm
12:40 AM 25.4°F-3.7°C 13.5°F-10.3°C 60% 3.0 mph WNW4.8 kmh WNW 12.0 mph19.3 kmh 30.22 in1023.4 mb 0.00 in0.0 mm 0.00 in/hr0.0 mm/hr 0.00 in0.0 mm
12:39 AM 25.4°F-3.7°C 13.5°F-10.3°C 60% 7.0 mph W11.3 kmh W 12.0 mph19.3 kmh 30.22 in1023.4 mb 0.00 in0.0 mm 0.00 in/hr0.0 mm/hr 0.00 in0.0 mm
12:38 AM 25.4°F-3.7°C 13.5°F-10.3°C 60% 8.0 mph W12.9 kmh W 12.0 mph19.3 kmh 30.22 in1023.4 mb 0.00 in0.0 mm 0.00 in/hr0.0 mm/hr 0.00 in0.0 mm
12:35 AM 25.4°F-3.7°C 13.5°F-10.3°C 60% 6.0 mph WNW9.7 kmh WNW 12.0 mph19.3 kmh 30.22 in1023.4 mb 0.00 in0.0 mm 0.00 in/hr0.0 mm/hr 0.00 in0.0 mm
12:34 AM 25.4°F-3.7°C 13.5°F-10.3°C 60% 6.0 mph WNW9.7 kmh WNW 12.0 mph19.3 kmh 30.22 in1023.4 mb 0.00 in0.0 mm 0.00 in/hr0.0 mm/hr 0.00 in0.0 mm
12:33 AM 25.4°F-3.7°C 13.5°F-10.3°C 60% 4.0 mph WNW6.4 kmh WNW 12.0 mph19.3 kmh 30.22 in1023.4 mb 0.00 in0.0 mm 0.00 in/hr0.0 mm/hr 0.00 in0.0 mm
12:30 AM 25.5°F-3.6°C 13.6°F-10.2°C 60% 7.0 mph WNW11.3 kmh WNW 12.0 mph19.3 kmh 30.21 in1023.0 mb 0.00 in0.0 mm 0.00 in/hr0.0 mm/hr 0.00 in0.0 mm
12:29 AM 25.5°F-3.6°C 13.6°F-10.2°C 60% 7.0 mph WNW11.3 kmh WNW 12.0 mph19.3 kmh 30.21 in1023.0 mb 0.00 in0.0 mm 0.00 in/hr0.0 mm/hr 0.00 in0.0 mm
12:28 AM 25.5°F-3.6°C 13.6°F-10.2°C 60% 7.0 mph WNW11.3 kmh WNW 12.0 mph19.3 kmh 30.21 in1023.0 mb 0.00 in0.0 mm 0.00 in/hr0.0 mm/hr 0.00 in0.0 mm
12:25 AM 25.5°F-3.6°C 13.6°F-10.2°C 60% 5.0 mph WNW8.0 kmh WNW 12.0 mph19.3 kmh 30.21 in1023.0 mb 0.00 in0.0 mm 0.00 in/hr0.0 mm/hr 0.00 in0.0 mm
12:24 AM 25.5°F-3.6°C 13.6°F-10.2°C 60% 2.0 mph WNW3.2 kmh WNW 12.0 mph19.3 kmh 30.21 in1023.0 mb 0.00 in0.0 mm 0.00 in/hr0.0 mm/hr 0.00 in0.0 mm
12:23 AM 25.5°F-3.6°C 13.6°F-10.2°C 60% 1.0 mph WNW1.6 kmh WNW 12.0 mph19.3 kmh 30.21 in1023.0 mb 0.00 in0.0 mm 0.00 in/hr0.0 mm/hr 0.00 in0.0 mm
12:20 AM 25.5°F-3.6°C 13.6°F-10.2°C 60% 6.0 mph W9.7 kmh W 12.0 mph19.3 kmh 30.21 in1023.0 mb 0.00 in0.0 mm 0.00 in/hr0.0 mm/hr 0.00 in0.0 mm
12:19 AM 25.5°F-3.6°C 13.6°F-10.2°C 60% 2.0 mph W3.2 kmh W 12.0 mph19.3 kmh 30.21 in1023.0 mb 0.00 in0.0 mm 0.00 in/hr0.0 mm/hr 0.00 in0.0 mm
12:18 AM 25.5°F-3.6°C 13.6°F-10.2°C 60% 5.0 mph W8.0 kmh W 12.0 mph19.3 kmh 30.21 in1023.0 mb 0.00 in0.0 mm 0.00 in/hr0.0 mm/hr 0.00 in0.0 mm
12:15 AM 25.5°F-3.6°C 13.6°F-10.2°C 60% 3.0 mph W4.8 kmh W 12.0 mph19.3 kmh 30.21 in1023.0 mb 0.00 in0.0 mm 0.00 in/hr0.0 mm/hr 0.00 in0.0 mm
12:14 AM 25.5°F-3.6°C 13.6°F-10.2°C 60% 4.0 mph W6.4 kmh W 12.0 mph19.3 kmh 30.21 in1023.0 mb 0.00 in0.0 mm 0.00 in/hr0.0 mm/hr 0.00 in0.0 mm
12:13 AM 25.5°F-3.6°C 13.6°F-10.2°C 60% 4.0 mph W6.4 kmh W 12.0 mph19.3 kmh 30.21 in1023.0 mb 0.00 in0.0 mm 0.00 in/hr0.0 mm/hr 0.00 in0.0 mm
12:10 AM 25.5°F-3.6°C 13.6°F-10.2°C 60% 5.0 mph W8.0 kmh W 12.0 mph19.3 kmh 30.21 in1023.0 mb 0.00 in0.0 mm 0.00 in/hr0.0 mm/hr 0.00 in0.0 mm
12:09 AM 25.5°F-3.6°C 13.6°F-10.2°C 60% 6.0 mph W9.7 kmh W 12.0 mph19.3 kmh 30.21 in1023.0 mb 0.00 in0.0 mm 0.00 in/hr0.0 mm/hr 0.00 in0.0 mm
12:08 AM 25.5°F-3.6°C 13.6°F-10.2°C 60% 3.0 mph W4.8 kmh W 12.0 mph19.3 kmh 30.21 in1023.0 mb 0.00 in0.0 mm 0.00 in/hr0.0 mm/hr 0.00 in0.0 mm
12:05 AM 25.4°F-3.7°C 13.5°F-10.3°C 60% 7.0 mph NW11.3 kmh NW 10.0 mph16.1 kmh 30.21 in1023.0 mb 0.00 in0.0 mm 0.00 in/hr0.0 mm/hr 0.00 in0.0 mm
12:04 AM 25.5°F-3.6°C 13.6°F-10.2°C 60% 2.0 mph NW3.2 kmh NW 10.0 mph16.1 kmh 30.21 in1023.0 mb 0.00 in0.0 mm 0.00 in/hr0.0 mm/hr 0.00 in0.0 mm
12:03 AM 25.5°F-3.6°C 13.6°F-10.2°C 60% 6.0 mph NW9.7 kmh NW 10.0 mph16.1 kmh 30.21 in1023.0 mb 0.00 in0.0 mm 0.00 in/hr0.0 mm/hr 0.00 in0.0 mm
12:00 AM 25.4°F-3.7°C 13.1°F-10.5°C 59% 8.0 mph WNW12.9 kmh WNW 8.0 mph12.9 kmh 30.21 in1023.0 mb 0.00 in0.0 mm 0.00 in/hr0.0 mm/hr 0.00 in0.0 mm